<?xml version="1.0" encoding="UTF-8" standalone="no" ?>
<gpx xmlns="http://www.topografix.com/GPX/1/1" xmlns:xsi="http://www.w3.org/2001/XMLSchema-instance" xsi:schemaLocation="http://www.topografix.com/GPX/1/1 http://www.topografix.com/GPX/1/1/gpx.xsd" version="1.1" creator="VisuGPX - https://www.visugpx.com">
  <metadata>
    <name>Rando Beaudinard/Lac des Monges /Crete de Raus/Sapie</name>
    <desc><![CDATA[De  Reynier prendre la piste qui mène à Beaudinard (env 5km) se garer au mieux au plus près de l\'embranchement de la Sapie .De là , traverser Beaudinard , prendre le sentier fléché \"Lac des Monges\" où on arrive en 1heure après un raidillon. Du lac perndre la piste en direction de Monges jusqu\'au bout où on prend un sentier sympa sous les melezes qui  nous mène à la Crête de Raus . On peut pousser en aller/retours jusqu\'au sommet des Monges (200m de D  et 4 km A/R en plus ) Du signal à la crête de raus , descendre le fil (superbe vue panoramique) jusqu\'au col de la Sapie d\'où on descend à vue au travers des alpages vers une ruine et un enclos que l\'on traverse pour trouver le sentier de retour plus ou moins balisé en rouge , qui nous mène au point de démpart via piste et route selon l\'endroit ou on a laissé la voiture]]></desc>
  </metadata>
  <trk>
    <name><![CDATA[ACTIVE LOG 008]]></name>
    <trkseg>
      <trkpt lat="44.2894" lon="6.15327">
        <ele>1095.0788574</ele>
        <time>2013-10-16T08:23:21Z</time>
      </trkpt>
      <trkpt lat="44.28943" lon="6.15332">
        <ele>1098.9240723</ele>
        <time>2013-10-16T08:23:37Z</time>
      </trkpt>
      <trkpt lat="44.28944" lon="6.15332">
        <ele>1102.2888184</ele>
        <time>2013-10-16T08:23:41Z</time>
      </trkpt>
      <trkpt lat="44.28944" lon="6.15332">
        <ele>1105.6535645</ele>
        <time>2013-10-16T08:23:46Z</time>
      </trkpt>
      <trkpt lat="44.28943" lon="6.15333">
        <ele>1109.0180664</ele>
        <time>2013-10-16T08:23:53Z</time>
      </trkpt>
      <trkpt lat="44.28945" lon="6.15341">
        <ele>1112.8632813</ele>
        <time>2013-10-16T08:24:01Z</time>
      </trkpt>
      <trkpt lat="44.28946" lon="6.15346">
        <ele>1114.7858887</ele>
        <time>2013-10-16T08:24:05Z</time>
      </trkpt>
      <trkpt lat="44.28946" lon="6.15349">
        <ele>1115.7473145</ele>
        <time>2013-10-16T08:24:07Z</time>
      </trkpt>
      <trkpt lat="44.28945" lon="6.15352">
        <ele>1117.1894531</ele>
        <time>2013-10-16T08:24:11Z</time>
      </trkpt>
      <trkpt lat="44.28941" lon="6.15354">
        <ele>1118.1506348</ele>
        <time>2013-10-16T08:24:14Z</time>
      </trkpt>
      <trkpt lat="44.28927" lon="6.15358">
        <ele>1121.034668</ele>
        <time>2013-10-16T08:24:27Z</time>
      </trkpt>
      <trkpt lat="44.28924" lon="6.15373">
        <ele>1124.3991699</ele>
        <time>2013-10-16T08:24:39Z</time>
      </trkpt>
      <trkpt lat="44.28925" lon="6.15376">
        <ele>1124.8798828</ele>
        <time>2013-10-16T08:24:43Z</time>
      </trkpt>
      <trkpt lat="44.2893" lon="6.1538">
        <ele>1125.8410645</ele>
        <time>2013-10-16T08:24:49Z</time>
      </trkpt>
      <trkpt lat="44.28931" lon="6.15392">
        <ele>1129.2055664</ele>
        <time>2013-10-16T08:25:04Z</time>
      </trkpt>
      <trkpt lat="44.2893" lon="6.15393">
        <ele>1129.2055664</ele>
        <time>2013-10-16T08:25:07Z</time>
      </trkpt>
      <trkpt lat="44.28927" lon="6.15387">
        <ele>1129.2055664</ele>
        <time>2013-10-16T08:25:17Z</time>
      </trkpt>
      <trkpt lat="44.28924" lon="6.15401">
        <ele>1133.0510254</ele>
        <time>2013-10-16T08:25:36Z</time>
      </trkpt>
      <trkpt lat="44.28915" lon="6.15417">
        <ele>1135.4543457</ele>
        <time>2013-10-16T08:25:54Z</time>
      </trkpt>
      <trkpt lat="44.2891" lon="6.15437">
        <ele>1138.3383789</ele>
        <time>2013-10-16T08:26:13Z</time>
      </trkpt>
      <trkpt lat="44.28915" lon="6.15458">
        <ele>1141.7028809</ele>
        <time>2013-10-16T08:26:30Z</time>
      </trkpt>
      <trkpt lat="44.2892" lon="6.15491">
        <ele>1143.6254883</ele>
        <time>2013-10-16T08:26:46Z</time>
      </trkpt>
      <trkpt lat="44.28917" lon="6.15497">
        <ele>1143.6254883</ele>
        <time>2013-10-16T08:26:48Z</time>
      </trkpt>
      <trkpt lat="44.28911" lon="6.15536">
        <ele>1145.5480957</ele>
        <time>2013-10-16T08:27:11Z</time>
      </trkpt>
      <trkpt lat="44.28911" lon="6.15543">
        <ele>1146.5095215</ele>
        <time>2013-10-16T08:27:16Z</time>
      </trkpt>
      <trkpt lat="44.28906" lon="6.15559">
        <ele>1147.4707031</ele>
        <time>2013-10-16T08:27:31Z</time>
      </trkpt>
      <trkpt lat="44.28908" lon="6.15578">
        <ele>1148.9128418</ele>
        <time>2013-10-16T08:27:47Z</time>
      </trkpt>
      <trkpt lat="44.28911" lon="6.15584">
        <ele>1149.3935547</ele>
        <time>2013-10-16T08:27:50Z</time>
      </trkpt>
      <trkpt lat="44.28917" lon="6.15613">
        <ele>1151.3161621</ele>
        <time>2013-10-16T08:28:08Z</time>
      </trkpt>
      <trkpt lat="44.28925" lon="6.15632">
        <ele>1153.2387695</ele>
        <time>2013-10-16T08:28:24Z</time>
      </trkpt>
      <trkpt lat="44.28931" lon="6.1563">
        <ele>1154.6806641</ele>
        <time>2013-10-16T08:28:35Z</time>
      </trkpt>
      <trkpt lat="44.28922" lon="6.15629">
        <ele>1156.1225586</ele>
        <time>2013-10-16T08:28:51Z</time>
      </trkpt>
      <trkpt lat="44.28928" lon="6.15641">
        <ele>1159.4873047</ele>
        <time>2013-10-16T08:29:12Z</time>
      </trkpt>
      <trkpt lat="44.28925" lon="6.15648">
        <ele>1161.890625</ele>
        <time>2013-10-16T08:29:31Z</time>
      </trkpt>
      <trkpt lat="44.28911" lon="6.15661">
        <ele>1165.2553711</ele>
        <time>2013-10-16T08:29:49Z</time>
      </trkpt>
      <trkpt lat="44.2891" lon="6.15674">
        <ele>1167.1779785</ele>
        <time>2013-10-16T08:30:05Z</time>
      </trkpt>
      <trkpt lat="44.28893" lon="6.15686">
        <ele>1169.5812988</ele>
        <time>2013-10-16T08:30:23Z</time>
      </trkpt>
      <trkpt lat="44.28887" lon="6.157">
        <ele>1171.0231934</ele>
        <time>2013-10-16T08:30:38Z</time>
      </trkpt>
      <trkpt lat="44.28886" lon="6.15705">
        <ele>1171.984375</ele>
        <time>2013-10-16T08:30:50Z</time>
      </trkpt>
      <trkpt lat="44.28882" lon="6.1572">
        <ele>1174.3876953</ele>
        <time>2013-10-16T08:31:09Z</time>
      </trkpt>
      <trkpt lat="44.28876" lon="6.15732">
        <ele>1176.3103027</ele>
        <time>2013-10-16T08:31:22Z</time>
      </trkpt>
      <trkpt lat="44.28872" lon="6.15742">
        <ele>1175.8295898</ele>
        <time>2013-10-16T08:31:34Z</time>
      </trkpt>
      <trkpt lat="44.28867" lon="6.15757">
        <ele>1174.8684082</ele>
        <time>2013-10-16T08:31:47Z</time>
      </trkpt>
      <trkpt lat="44.28857" lon="6.15765">
        <ele>1173.9069824</ele>
        <time>2013-10-16T08:31:58Z</time>
      </trkpt>
      <trkpt lat="44.28865" lon="6.15777">
        <ele>1172.9458008</ele>
        <time>2013-10-16T08:32:05Z</time>
      </trkpt>
      <trkpt lat="44.28875" lon="6.15801">
        <ele>1170.5424805</ele>
        <time>2013-10-16T08:32:20Z</time>
      </trkpt>
      <trkpt lat="44.28877" lon="6.15823">
        <ele>1167.6584473</ele>
        <time>2013-10-16T08:32:40Z</time>
      </trkpt>
      <trkpt lat="44.28884" lon="6.15855">
        <ele>1166.2165527</ele>
        <time>2013-10-16T08:33:04Z</time>
      </trkpt>
      <trkpt lat="44.28888" lon="6.15864">
        <ele>1163.3325195</ele>
        <time>2013-10-16T08:33:20Z</time>
      </trkpt>
      <trkpt lat="44.28886" lon="6.15873">
        <ele>1164.2939453</ele>
        <time>2013-10-16T08:33:36Z</time>
      </trkpt>
      <trkpt lat="44.28877" lon="6.15896">
        <ele>1165.2553711</ele>
        <time>2013-10-16T08:34:01Z</time>
      </trkpt>
      <trkpt lat="44.28885" lon="6.15914">
        <ele>1166.6972656</ele>
        <time>2013-10-16T08:34:24Z</time>
      </trkpt>
      <trkpt lat="44.28877" lon="6.15941">
        <ele>1170.0617676</ele>
        <time>2013-10-16T08:34:48Z</time>
      </trkpt>
      <trkpt lat="44.28878" lon="6.15962">
        <ele>1171.5036621</ele>
        <time>2013-10-16T08:35:03Z</time>
      </trkpt>
      <trkpt lat="44.28862" lon="6.15981">
        <ele>1171.984375</ele>
        <time>2013-10-16T08:35:26Z</time>
      </trkpt>
      <trkpt lat="44.28858" lon="6.15993">
        <ele>1173.4265137</ele>
        <time>2013-10-16T08:35:49Z</time>
      </trkpt>
      <trkpt lat="44.28859" lon="6.16007">
        <ele>1174.3876953</ele>
        <time>2013-10-16T08:36:09Z</time>
      </trkpt>
      <trkpt lat="44.28857" lon="6.16024">
        <ele>1174.8684082</ele>
        <time>2013-10-16T08:36:25Z</time>
      </trkpt>
      <trkpt lat="44.28844" lon="6.16038">
        <ele>1174.3876953</ele>
        <time>2013-10-16T08:36:48Z</time>
      </trkpt>
      <trkpt lat="44.28843" lon="6.16048">
        <ele>1174.3876953</ele>
        <time>2013-10-16T08:37:13Z</time>
      </trkpt>
      <trkpt lat="44.28823" lon="6.1605">
        <ele>1173.9069824</ele>
        <time>2013-10-16T08:37:42Z</time>
      </trkpt>
      <trkpt lat="44.28804" lon="6.16064">
        <ele>1174.3876953</ele>
        <time>2013-10-16T08:38:05Z</time>
      </trkpt>
      <trkpt lat="44.28799" lon="6.1609">
        <ele>1174.8684082</ele>
        <time>2013-10-16T08:38:22Z</time>
      </trkpt>
      <trkpt lat="44.2879" lon="6.16101">
        <ele>1176.7910156</ele>
        <time>2013-10-16T08:38:40Z</time>
      </trkpt>
      <trkpt lat="44.28783" lon="6.16112">
        <ele>1179.1940918</ele>
        <time>2013-10-16T08:38:57Z</time>
      </trkpt>
      <trkpt lat="44.2878" lon="6.16117">
        <ele>1181.1171875</ele>
        <time>2013-10-16T08:39:04Z</time>
      </trkpt>
      <trkpt lat="44.28775" lon="6.16122">
        <ele>1182.559082</ele>
        <time>2013-10-16T08:39:13Z</time>
      </trkpt>
      <trkpt lat="44.28772" lon="6.16124">
        <ele>1184.0009766</ele>
        <time>2013-10-16T08:39:32Z</time>
      </trkpt>
      <trkpt lat="44.2877" lon="6.16133">
        <ele>1184.4816895</ele>
        <time>2013-10-16T08:39:43Z</time>
      </trkpt>
      <trkpt lat="44.28771" lon="6.16138">
        <ele>1185.4428711</ele>
        <time>2013-10-16T08:39:48Z</time>
      </trkpt>
      <trkpt lat="44.2877" lon="6.16145">
        <ele>1186.4042969</ele>
        <time>2013-10-16T08:39:55Z</time>
      </trkpt>
      <trkpt lat="44.28758" lon="6.16153">
        <ele>1185.4428711</ele>
        <time>2013-10-16T08:40:14Z</time>
      </trkpt>
      <trkpt lat="44.28757" lon="6.16154">
        <ele>1184.9624023</ele>
        <time>2013-10-16T08:40:32Z</time>
      </trkpt>
      <trkpt lat="44.28745" lon="6.16174">
        <ele>1184.9624023</ele>
        <time>2013-10-16T08:40:56Z</time>
      </trkpt>
      <trkpt lat="44.28719" lon="6.16188">
        <ele>1184.4816895</ele>
        <time>2013-10-16T08:41:26Z</time>
      </trkpt>
      <trkpt lat="44.28698" lon="6.1622">
        <ele>1185.4428711</ele>
        <time>2013-10-16T08:41:54Z</time>
      </trkpt>
      <trkpt lat="44.28694" lon="6.16229">
        <ele>1184.9624023</ele>
        <time>2013-10-16T08:42:01Z</time>
      </trkpt>
      <trkpt lat="44.2869" lon="6.16238">
        <ele>1184.9624023</ele>
        <time>2013-10-16T08:42:09Z</time>
      </trkpt>
      <trkpt lat="44.28686" lon="6.16238">
        <ele>1184.9624023</ele>
        <time>2013-10-16T08:42:13Z</time>
      </trkpt>
      <trkpt lat="44.28674" lon="6.16224">
        <ele>1187.8461914</ele>
        <time>2013-10-16T08:42:29Z</time>
      </trkpt>
      <trkpt lat="44.28669" lon="6.16219">
        <ele>1190.2495117</ele>
        <time>2013-10-16T08:42:44Z</time>
      </trkpt>
      <trkpt lat="44.2866" lon="6.16209">
        <ele>1189.7687988</ele>
        <time>2013-10-16T08:43:02Z</time>
      </trkpt>
      <trkpt lat="44.28649" lon="6.16209">
        <ele>1190.2495117</ele>
        <time>2013-10-16T08:43:15Z</time>
      </trkpt>
      <trkpt lat="44.2864" lon="6.16206">
        <ele>1190.7299805</ele>
        <time>2013-10-16T08:43:22Z</time>
      </trkpt>
      <trkpt lat="44.28628" lon="6.16204">
        <ele>1193.1333008</ele>
        <time>2013-10-16T08:43:36Z</time>
      </trkpt>
      <trkpt lat="44.28626" lon="6.16198">
        <ele>1193.6140137</ele>
        <time>2013-10-16T08:43:43Z</time>
      </trkpt>
      <trkpt lat="44.2862" lon="6.16192">
        <ele>1194.0947266</ele>
        <time>2013-10-16T08:43:53Z</time>
      </trkpt>
      <trkpt lat="44.28609" lon="6.16184">
        <ele>1196.498291</ele>
        <time>2013-10-16T08:44:11Z</time>
      </trkpt>
      <trkpt lat="44.28603" lon="6.16187">
        <ele>1196.9787598</ele>
        <time>2013-10-16T08:44:19Z</time>
      </trkpt>
      <trkpt lat="44.28597" lon="6.16199">
        <ele>1198.9013672</ele>
        <time>2013-10-16T08:44:35Z</time>
      </trkpt>
      <trkpt lat="44.28588" lon="6.16214">
        <ele>1199.862793</ele>
        <time>2013-10-16T08:44:54Z</time>
      </trkpt>
      <trkpt lat="44.28587" lon="6.16216">
        <ele>1199.862793</ele>
        <time>2013-10-16T08:44:56Z</time>
      </trkpt>
      <trkpt lat="44.28572" lon="6.16216">
        <ele>1200.8239746</ele>
        <time>2013-10-16T08:45:11Z</time>
      </trkpt>
      <trkpt lat="44.28558" lon="6.16209">
        <ele>1202.2658691</ele>
        <time>2013-10-16T08:45:30Z</time>
      </trkpt>
      <trkpt lat="44.28549" lon="6.16211">
        <ele>1203.7080078</ele>
        <time>2013-10-16T08:45:45Z</time>
      </trkpt>
      <trkpt lat="44.28537" lon="6.16214">
        <ele>1206.111084</ele>
        <time>2013-10-16T08:46:01Z</time>
      </trkpt>
      <trkpt lat="44.28529" lon="6.16218">
        <ele>1207.5532227</ele>
        <time>2013-10-16T08:46:14Z</time>
      </trkpt>
      <trkpt lat="44.28529" lon="6.16224">
        <ele>1206.5917969</ele>
        <time>2013-10-16T08:46:34Z</time>
      </trkpt>
      <trkpt lat="44.28532" lon="6.16234">
        <ele>1206.5917969</ele>
        <time>2013-10-16T08:46:51Z</time>
      </trkpt>
      <trkpt lat="44.28523" lon="6.16248">
        <ele>1207.0725098</ele>
        <time>2013-10-16T08:47:08Z</time>
      </trkpt>
      <trkpt lat="44.28517" lon="6.1626">
        <ele>1206.5917969</ele>
        <time>2013-10-16T08:47:20Z</time>
      </trkpt>
      <trkpt lat="44.28509" lon="6.16271">
        <ele>1206.111084</ele>
        <time>2013-10-16T08:47:37Z</time>
      </trkpt>
      <trkpt lat="44.28498" lon="6.1628">
        <ele>1206.5917969</ele>
        <time>2013-10-16T08:47:54Z</time>
      </trkpt>
      <trkpt lat="44.28498" lon="6.16288">
        <ele>1207.5532227</ele>
        <time>2013-10-16T08:48:06Z</time>
      </trkpt>
      <trkpt lat="44.28492" lon="6.16298">
        <ele>1208.5144043</ele>
        <time>2013-10-16T08:48:19Z</time>
      </trkpt>
      <trkpt lat="44.28481" lon="6.1631">
        <ele>1209.9562988</ele>
        <time>2013-10-16T08:48:32Z</time>
      </trkpt>
      <trkpt lat="44.28472" lon="6.16322">
        <ele>1210.9177246</ele>
        <time>2013-10-16T08:48:45Z</time>
      </trkpt>
      <trkpt lat="44.28472" lon="6.16333">
        <ele>1212.3598633</ele>
        <time>2013-10-16T08:48:57Z</time>
      </trkpt>
      <trkpt lat="44.28471" lon="6.16341">
        <ele>1211.8791504</ele>
        <time>2013-10-16T08:49:09Z</time>
      </trkpt>
      <trkpt lat="44.28461" lon="6.16363">
        <ele>1214.7631836</ele>
        <time>2013-10-16T08:49:37Z</time>
      </trkpt>
      <trkpt lat="44.28445" lon="6.16392">
        <ele>1215.2438965</ele>
        <time>2013-10-16T08:50:18Z</time>
      </trkpt>
      <trkpt lat="44.28421" lon="6.16414">
        <ele>1215.2438965</ele>
        <time>2013-10-16T08:50:55Z</time>
      </trkpt>
      <trkpt lat="44.28397" lon="6.16437">
        <ele>1215.2438965</ele>
        <time>2013-10-16T08:51:23Z</time>
      </trkpt>
      <trkpt lat="44.28398" lon="6.16462">
        <ele>1212.3598633</ele>
        <time>2013-10-16T08:51:48Z</time>
      </trkpt>
      <trkpt lat="44.28401" lon="6.16471">
        <ele>1209.9562988</ele>
        <time>2013-10-16T08:52:07Z</time>
      </trkpt>
      <trkpt lat="44.28407" lon="6.16485">
        <ele>1207.0725098</ele>
        <time>2013-10-16T08:52:30Z</time>
      </trkpt>
      <trkpt lat="44.28389" lon="6.16514">
        <ele>1205.1499023</ele>
        <time>2013-10-16T08:52:46Z</time>
      </trkpt>
      <trkpt lat="44.28384" lon="6.16525">
        <ele>1204.1887207</ele>
        <time>2013-10-16T08:52:57Z</time>
      </trkpt>
      <trkpt lat="44.28381" lon="6.16549">
        <ele>1204.1887207</ele>
        <time>2013-10-16T08:53:15Z</time>
      </trkpt>
      <trkpt lat="44.28377" lon="6.16566">
        <ele>1201.7854004</ele>
        <time>2013-10-16T08:53:34Z</time>
      </trkpt>
      <trkpt lat="44.28376" lon="6.16591">
        <ele>1199.3820801</ele>
        <time>2013-10-16T08:53:55Z</time>
      </trkpt>
      <trkpt lat="44.28376" lon="6.16609">
        <ele>1199.3820801</ele>
        <time>2013-10-16T08:54:11Z</time>
      </trkpt>
      <trkpt lat="44.28361" lon="6.16622">
        <ele>1198.4206543</ele>
        <time>2013-10-16T08:54:30Z</time>
      </trkpt>
      <trkpt lat="44.2835" lon="6.16605">
        <ele>1198.9013672</ele>
        <time>2013-10-16T08:54:52Z</time>
      </trkpt>
      <trkpt lat="44.28346" lon="6.166">
        <ele>1199.862793</ele>
        <time>2013-10-16T08:54:58Z</time>
      </trkpt>
      <trkpt lat="44.28334" lon="6.16595">
        <ele>1200.8239746</ele>
        <time>2013-10-16T08:55:12Z</time>
      </trkpt>
      <trkpt lat="44.28319" lon="6.16595">
        <ele>1203.7080078</ele>
        <time>2013-10-16T08:55:31Z</time>
      </trkpt>
      <trkpt lat="44.2831" lon="6.16619">
        <ele>1207.0725098</ele>
        <time>2013-10-16T08:55:54Z</time>
      </trkpt>
      <trkpt lat="44.28303" lon="6.16634">
        <ele>1208.9951172</ele>
        <time>2013-10-16T08:56:14Z</time>
      </trkpt>
      <trkpt lat="44.283" lon="6.16652">
        <ele>1211.3984375</ele>
        <time>2013-10-16T08:56:34Z</time>
      </trkpt>
      <trkpt lat="44.283" lon="6.16664">
        <ele>1213.3212891</ele>
        <time>2013-10-16T08:56:55Z</time>
      </trkpt>
      <trkpt lat="44.28309" lon="6.16664">
        <ele>1214.7631836</ele>
        <time>2013-10-16T08:57:14Z</time>
      </trkpt>
      <trkpt lat="44.2831" lon="6.16677">
        <ele>1216.685791</ele>
        <time>2013-10-16T08:57:32Z</time>
      </trkpt>
      <trkpt lat="44.28317" lon="6.16681">
        <ele>1219.5698242</ele>
        <time>2013-10-16T08:57:47Z</time>
      </trkpt>
      <trkpt lat="44.28317" lon="6.16697">
        <ele>1222.9343262</ele>
        <time>2013-10-16T08:58:06Z</time>
      </trkpt>
      <trkpt lat="44.28309" lon="6.16703">
        <ele>1223.8955078</ele>
        <time>2013-10-16T08:58:16Z</time>
      </trkpt>
      <trkpt lat="44.28307" lon="6.16709">
        <ele>1224.3762207</ele>
        <time>2013-10-16T08:58:22Z</time>
      </trkpt>
      <trkpt lat="44.283" lon="6.1673">
        <ele>1226.2988281</ele>
        <time>2013-10-16T08:58:44Z</time>
      </trkpt>
      <trkpt lat="44.28296" lon="6.16745">
        <ele>1230.1442871</ele>
        <time>2013-10-16T08:59:04Z</time>
      </trkpt>
      <trkpt lat="44.28292" lon="6.16762">
        <ele>1233.0280762</ele>
        <time>2013-10-16T08:59:25Z</time>
      </trkpt>
      <trkpt lat="44.28292" lon="6.16779">
        <ele>1235.9121094</ele>
        <time>2013-10-16T08:59:48Z</time>
      </trkpt>
      <trkpt lat="44.28288" lon="6.16797">
        <ele>1238.3154297</ele>
        <time>2013-10-16T09:00:14Z</time>
      </trkpt>
      <trkpt lat="44.28281" lon="6.16821">
        <ele>1238.7961426</ele>
        <time>2013-10-16T09:00:41Z</time>
      </trkpt>
      <trkpt lat="44.28275" lon="6.16834">
        <ele>1240.2380371</ele>
        <time>2013-10-16T09:00:56Z</time>
      </trkpt>
      <trkpt lat="44.28276" lon="6.16851">
        <ele>1242.1606445</ele>
        <time>2013-10-16T09:01:22Z</time>
      </trkpt>
      <trkpt lat="44.28271" lon="6.16868">
        <ele>1243.1218262</ele>
        <time>2013-10-16T09:01:44Z</time>
      </trkpt>
      <trkpt lat="44.28268" lon="6.16884">
        <ele>1244.5639648</ele>
        <time>2013-10-16T09:02:04Z</time>
      </trkpt>
      <trkpt lat="44.28265" lon="6.16899">
        <ele>1245.5253906</ele>
        <time>2013-10-16T09:02:24Z</time>
      </trkpt>
      <trkpt lat="44.28259" lon="6.16915">
        <ele>1246.4868164</ele>
        <time>2013-10-16T09:02:43Z</time>
      </trkpt>
      <trkpt lat="44.28258" lon="6.1692">
        <ele>1246.9672852</ele>
        <time>2013-10-16T09:02:48Z</time>
      </trkpt>
      <trkpt lat="44.28255" lon="6.16933">
        <ele>1247.9287109</ele>
        <time>2013-10-16T09:03:02Z</time>
      </trkpt>
      <trkpt lat="44.28255" lon="6.16947">
        <ele>1249.3706055</ele>
        <time>2013-10-16T09:03:20Z</time>
      </trkpt>
      <trkpt lat="44.28254" lon="6.16952">
        <ele>1252.7351074</ele>
        <time>2013-10-16T09:03:44Z</time>
      </trkpt>
      <trkpt lat="44.28235" lon="6.17104">
        <ele>1254.6577148</ele>
        <time>2013-10-16T09:03:58Z</time>
      </trkpt>
      <trkpt lat="44.28236" lon="6.17112">
        <ele>1257.0610352</ele>
        <time>2013-10-16T09:04:15Z</time>
      </trkpt>
      <trkpt lat="44.28236" lon="6.17121">
        <ele>1258.9836426</ele>
        <time>2013-10-16T09:04:29Z</time>
      </trkpt>
      <trkpt lat="44.28232" lon="6.17138">
        <ele>1261.387207</ele>
        <time>2013-10-16T09:04:49Z</time>
      </trkpt>
      <trkpt lat="44.28228" lon="6.17154">
        <ele>1264.2709961</ele>
        <time>2013-10-16T09:05:10Z</time>
      </trkpt>
      <trkpt lat="44.28223" lon="6.17166">
        <ele>1267.1550293</ele>
        <time>2013-10-16T09:05:33Z</time>
      </trkpt>
      <trkpt lat="44.28213" lon="6.17168">
        <ele>1270.5195313</ele>
        <time>2013-10-16T09:05:52Z</time>
      </trkpt>
      <trkpt lat="44.28204" lon="6.17169">
        <ele>1273.8840332</ele>
        <time>2013-10-16T09:06:10Z</time>
      </trkpt>
      <trkpt lat="44.2819" lon="6.17169">
        <ele>1276.2875977</ele>
        <time>2013-10-16T09:06:27Z</time>
      </trkpt>
      <trkpt lat="44.28187" lon="6.17171">
        <ele>1279.6520996</ele>
        <time>2013-10-16T09:06:41Z</time>
      </trkpt>
      <trkpt lat="44.28178" lon="6.17174">
        <ele>1282.5361328</ele>
        <time>2013-10-16T09:07:00Z</time>
      </trkpt>
      <trkpt lat="44.28171" lon="6.17178">
        <ele>1285.4199219</ele>
        <time>2013-10-16T09:07:15Z</time>
      </trkpt>
      <trkpt lat="44.28162" lon="6.17183">
        <ele>1286.8618164</ele>
        <time>2013-10-16T09:07:29Z</time>
      </trkpt>
      <trkpt lat="44.2816" lon="6.17187">
        <ele>1287.3425293</ele>
        <time>2013-10-16T09:07:43Z</time>
      </trkpt>
      <trkpt lat="44.28144" lon="6.17199">
        <ele>1290.2265625</ele>
        <time>2013-10-16T09:08:06Z</time>
      </trkpt>
      <trkpt lat="44.28144" lon="6.17219">
        <ele>1293.5913086</ele>
        <time>2013-10-16T09:08:27Z</time>
      </trkpt>
      <trkpt lat="44.28132" lon="6.17233">
        <ele>1296.9558105</ele>
        <time>2013-10-16T09:08:50Z</time>
      </trkpt>
      <trkpt lat="44.28117" lon="6.17262">
        <ele>1298.3977051</ele>
        <time>2013-10-16T09:09:23Z</time>
      </trkpt>
      <trkpt lat="44.28117" lon="6.17289">
        <ele>1300.3205566</ele>
        <time>2013-10-16T09:09:46Z</time>
      </trkpt>
      <trkpt lat="44.28109" lon="6.17329">
        <ele>1301.2817383</ele>
        <time>2013-10-16T09:10:20Z</time>
      </trkpt>
      <trkpt lat="44.28101" lon="6.17373">
        <ele>1300.8010254</ele>
        <time>2013-10-16T09:10:58Z</time>
      </trkpt>
      <trkpt lat="44.28102" lon="6.17404">
        <ele>1300.8010254</ele>
        <time>2013-10-16T09:11:27Z</time>
      </trkpt>
      <trkpt lat="44.28105" lon="6.17429">
        <ele>1304.6462402</ele>
        <time>2013-10-16T09:11:53Z</time>
      </trkpt>
      <trkpt lat="44.28102" lon="6.1744">
        <ele>1306.0881348</ele>
        <time>2013-10-16T09:12:07Z</time>
      </trkpt>
      <trkpt lat="44.28101" lon="6.17441">
        <ele>1306.0881348</ele>
        <time>2013-10-16T09:12:08Z</time>
      </trkpt>
      <trkpt lat="44.281" lon="6.17449">
        <ele>1308.4916992</ele>
        <time>2013-10-16T09:12:27Z</time>
      </trkpt>
      <trkpt lat="44.28106" lon="6.17453">
        <ele>1311.3757324</ele>
        <time>2013-10-16T09:12:55Z</time>
      </trkpt>
      <trkpt lat="44.28112" lon="6.17463">
        <ele>1314.7402344</ele>
        <time>2013-10-16T09:13:16Z</time>
      </trkpt>
      <trkpt lat="44.2811" lon="6.17474">
        <ele>1318.1047363</ele>
        <time>2013-10-16T09:13:42Z</time>
      </trkpt>
      <trkpt lat="44.2811" lon="6.17458">
        <ele>1320.0273438</ele>
        <time>2013-10-16T09:14:05Z</time>
      </trkpt>
      <trkpt lat="44.28119" lon="6.17442">
        <ele>1323.3920898</ele>
        <time>2013-10-16T09:14:26Z</time>
      </trkpt>
      <trkpt lat="44.28123" lon="6.17436">
        <ele>1325.7954102</ele>
        <time>2013-10-16T09:14:40Z</time>
      </trkpt>
      <trkpt lat="44.28127" lon="6.17451">
        <ele>1328.1987305</ele>
        <time>2013-10-16T09:15:00Z</time>
      </trkpt>
      <trkpt lat="44.28131" lon="6.17459">
        <ele>1331.5632324</ele>
        <time>2013-10-16T09:15:17Z</time>
      </trkpt>
      <trkpt lat="44.28133" lon="6.17471">
        <ele>1333.005127</ele>
        <time>2013-10-16T09:15:32Z</time>
      </trkpt>
      <trkpt lat="44.28127" lon="6.17491">
        <ele>1334.9279785</ele>
        <time>2013-10-16T09:15:51Z</time>
      </trkpt>
      <trkpt lat="44.2813" lon="6.17496">
        <ele>1337.8117676</ele>
        <time>2013-10-16T09:16:08Z</time>
      </trkpt>
      <trkpt lat="44.28124" lon="6.1751">
        <ele>1341.1765137</ele>
        <time>2013-10-16T09:16:29Z</time>
      </trkpt>
      <trkpt lat="44.28116" lon="6.17521">
        <ele>1342.1379395</ele>
        <time>2013-10-16T09:16:47Z</time>
      </trkpt>
      <trkpt lat="44.28118" lon="6.17533">
        <ele>1344.5410156</ele>
        <time>2013-10-16T09:17:04Z</time>
      </trkpt>
      <trkpt lat="44.28121" lon="6.17542">
        <ele>1347.9057617</ele>
        <time>2013-10-16T09:17:20Z</time>
      </trkpt>
      <trkpt lat="44.28127" lon="6.17539">
        <ele>1350.7895508</ele>
        <time>2013-10-16T09:17:40Z</time>
      </trkpt>
      <trkpt lat="44.2813" lon="6.17544">
        <ele>1352.7121582</ele>
        <time>2013-10-16T09:17:56Z</time>
      </trkpt>
      <trkpt lat="44.28127" lon="6.17562">
        <ele>1355.1154785</ele>
        <time>2013-10-16T09:18:14Z</time>
      </trkpt>
      <trkpt lat="44.28133" lon="6.1757">
        <ele>1358.4802246</ele>
        <time>2013-10-16T09:18:38Z</time>
      </trkpt>
      <trkpt lat="44.28137" lon="6.17548">
        <ele>1361.3642578</ele>
        <time>2013-10-16T09:19:01Z</time>
      </trkpt>
      <trkpt lat="44.2814" lon="6.17551">
        <ele>1363.767334</ele>
        <time>2013-10-16T09:19:19Z</time>
      </trkpt>
      <trkpt lat="44.28149" lon="6.17567">
        <ele>1366.6513672</ele>
        <time>2013-10-16T09:19:38Z</time>
      </trkpt>
      <trkpt lat="44.2815" lon="6.17561">
        <ele>1369.5354004</ele>
        <time>2013-10-16T09:20:02Z</time>
      </trkpt>
      <trkpt lat="44.28154" lon="6.17569">
        <ele>1372.9001465</ele>
        <time>2013-10-16T09:20:23Z</time>
      </trkpt>
      <trkpt lat="44.28151" lon="6.17587">
        <ele>1375.3032227</ele>
        <time>2013-10-16T09:20:41Z</time>
      </trkpt>
      <trkpt lat="44.28163" lon="6.17597">
        <ele>1378.6679688</ele>
        <time>2013-10-16T09:21:04Z</time>
      </trkpt>
      <trkpt lat="44.28167" lon="6.17595">
        <ele>1381.5517578</ele>
        <time>2013-10-16T09:21:23Z</time>
      </trkpt>
      <trkpt lat="44.28165" lon="6.17574">
        <ele>1384.9165039</ele>
        <time>2013-10-16T09:21:46Z</time>
      </trkpt>
      <trkpt lat="44.28162" lon="6.17573">
        <ele>1386.3583984</ele>
        <time>2013-10-16T09:21:59Z</time>
      </trkpt>
      <trkpt lat="44.28167" lon="6.17573">
        <ele>1389.2424316</ele>
        <time>2013-10-16T09:22:55Z</time>
      </trkpt>
      <trkpt lat="44.2818" lon="6.17592">
        <ele>1392.6071777</ele>
        <time>2013-10-16T09:23:16Z</time>
      </trkpt>
      <trkpt lat="44.28183" lon="6.17592">
        <ele>1395.9716797</ele>
        <time>2013-10-16T09:23:37Z</time>
      </trkpt>
      <trkpt lat="44.28184" lon="6.17581">
        <ele>1398.8554688</ele>
        <time>2013-10-16T09:23:56Z</time>
      </trkpt>
      <trkpt lat="44.2819" lon="6.17569">
        <ele>1400.7780762</ele>
        <time>2013-10-16T09:24:10Z</time>
      </trkpt>
      <trkpt lat="44.28194" lon="6.17574">
        <ele>1401.739502</ele>
        <time>2013-10-16T09:24:16Z</time>
      </trkpt>
      <trkpt lat="44.282" lon="6.17581">
        <ele>1403.6621094</ele>
        <time>2013-10-16T09:24:29Z</time>
      </trkpt>
      <trkpt lat="44.28202" lon="6.17589">
        <ele>1406.0654297</ele>
        <time>2013-10-16T09:24:45Z</time>
      </trkpt>
      <trkpt lat="44.28208" lon="6.17599">
        <ele>1408.9494629</ele>
        <time>2013-10-16T09:25:02Z</time>
      </trkpt>
      <trkpt lat="44.28208" lon="6.17619">
        <ele>1412.3139648</ele>
        <time>2013-10-16T09:25:27Z</time>
      </trkpt>
      <trkpt lat="44.28208" lon="6.17624">
        <ele>1415.197998</ele>
        <time>2013-10-16T09:25:51Z</time>
      </trkpt>
      <trkpt lat="44.28211" lon="6.17609">
        <ele>1417.1206055</ele>
        <time>2013-10-16T09:26:05Z</time>
      </trkpt>
      <trkpt lat="44.28219" lon="6.17588">
        <ele>1419.0432129</ele>
        <time>2013-10-16T09:26:27Z</time>
      </trkpt>
      <trkpt lat="44.28219" lon="6.17596">
        <ele>1421.4465332</ele>
        <time>2013-10-16T09:26:44Z</time>
      </trkpt>
      <trkpt lat="44.28211" lon="6.17618">
        <ele>1424.8112793</ele>
        <time>2013-10-16T09:27:07Z</time>
      </trkpt>
      <trkpt lat="44.28226" lon="6.17635">
        <ele>1428.1757813</ele>
        <time>2013-10-16T09:27:28Z</time>
      </trkpt>
      <trkpt lat="44.28224" lon="6.17648">
        <ele>1431.0598145</ele>
        <time>2013-10-16T09:27:47Z</time>
      </trkpt>
      <trkpt lat="44.28227" lon="6.17656">
        <ele>1434.4243164</ele>
        <time>2013-10-16T09:28:06Z</time>
      </trkpt>
      <trkpt lat="44.2823" lon="6.17668">
        <ele>1436.8276367</ele>
        <time>2013-10-16T09:28:28Z</time>
      </trkpt>
      <trkpt lat="44.28237" lon="6.17674">
        <ele>1440.1923828</ele>
        <time>2013-10-16T09:28:49Z</time>
      </trkpt>
      <trkpt lat="44.28231" lon="6.1769">
        <ele>1443.0761719</ele>
        <time>2013-10-16T09:29:14Z</time>
      </trkpt>
      <trkpt lat="44.28234" lon="6.1769">
        <ele>1446.440918</ele>
        <time>2013-10-16T09:29:33Z</time>
      </trkpt>
      <trkpt lat="44.28241" lon="6.17695">
        <ele>1449.324707</ele>
        <time>2013-10-16T09:29:55Z</time>
      </trkpt>
      <trkpt lat="44.28243" lon="6.17677">
        <ele>1452.6894531</ele>
        <time>2013-10-16T09:30:15Z</time>
      </trkpt>
      <trkpt lat="44.28249" lon="6.17676">
        <ele>1456.0539551</ele>
        <time>2013-10-16T09:30:36Z</time>
      </trkpt>
      <trkpt lat="44.28251" lon="6.17663">
        <ele>1457.4960938</ele>
        <time>2013-10-16T09:30:51Z</time>
      </trkpt>
      <trkpt lat="44.28255" lon="6.17676">
        <ele>1459.4187012</ele>
        <time>2013-10-16T09:31:05Z</time>
      </trkpt>
      <trkpt lat="44.28252" lon="6.17688">
        <ele>1460.3798828</ele>
        <time>2013-10-16T09:31:19Z</time>
      </trkpt>
      <trkpt lat="44.28244" lon="6.17703">
        <ele>1460.8605957</ele>
        <time>2013-10-16T09:31:35Z</time>
      </trkpt>
      <trkpt lat="44.28241" lon="6.17715">
        <ele>1463.263916</ele>
        <time>2013-10-16T09:31:51Z</time>
      </trkpt>
      <trkpt lat="44.28235" lon="6.17723">
        <ele>1465.6672363</ele>
        <time>2013-10-16T09:32:08Z</time>
      </trkpt>
      <trkpt lat="44.28234" lon="6.17733">
        <ele>1468.5512695</ele>
        <time>2013-10-16T09:32:30Z</time>
      </trkpt>
      <trkpt lat="44.28237" lon="6.17737">
        <ele>1471.4350586</ele>
        <time>2013-10-16T09:32:46Z</time>
      </trkpt>
      <trkpt lat="44.28229" lon="6.17751">
        <ele>1474.7998047</ele>
        <time>2013-10-16T09:33:07Z</time>
      </trkpt>
      <trkpt lat="44.28221" lon="6.17768">
        <ele>1477.6835938</ele>
        <time>2013-10-16T09:33:30Z</time>
      </trkpt>
      <trkpt lat="44.28228" lon="6.17774">
        <ele>1480.567627</ele>
        <time>2013-10-16T09:33:57Z</time>
      </trkpt>
      <trkpt lat="44.28227" lon="6.17777">
        <ele>1482.4902344</ele>
        <time>2013-10-16T09:34:29Z</time>
      </trkpt>
      <trkpt lat="44.28225" lon="6.17788">
        <ele>1485.3742676</ele>
        <time>2013-10-16T09:34:48Z</time>
      </trkpt>
      <trkpt lat="44.28231" lon="6.17795">
        <ele>1488.2583008</ele>
        <time>2013-10-16T09:35:05Z</time>
      </trkpt>
      <trkpt lat="44.28222" lon="6.17805">
        <ele>1491.1420898</ele>
        <time>2013-10-16T09:35:25Z</time>
      </trkpt>
      <trkpt lat="44.28213" lon="6.17805">
        <ele>1492.5842285</ele>
        <time>2013-10-16T09:35:35Z</time>
      </trkpt>
      <trkpt lat="44.28204" lon="6.17822">
        <ele>1494.026123</ele>
        <time>2013-10-16T09:35:57Z</time>
      </trkpt>
      <trkpt lat="44.28195" lon="6.17833">
        <ele>1494.026123</ele>
        <time>2013-10-16T09:36:12Z</time>
      </trkpt>
      <trkpt lat="44.28193" lon="6.17844">
        <ele>1496.4294434</ele>
        <time>2013-10-16T09:36:28Z</time>
      </trkpt>
      <trkpt lat="44.28188" lon="6.17845">
        <ele>1497.390625</ele>
        <time>2013-10-16T09:36:43Z</time>
      </trkpt>
      <trkpt lat="44.28183" lon="6.17854">
        <ele>1500.2749023</ele>
        <time>2013-10-16T09:37:03Z</time>
      </trkpt>
      <trkpt lat="44.28176" lon="6.17855">
        <ele>1503.1586914</ele>
        <time>2013-10-16T09:37:25Z</time>
      </trkpt>
      <trkpt lat="44.28169" lon="6.17859">
        <ele>1505.5620117</ele>
        <time>2013-10-16T09:37:40Z</time>
      </trkpt>
      <trkpt lat="44.28168" lon="6.17861">
        <ele>1507.0039063</ele>
        <time>2013-10-16T09:37:46Z</time>
      </trkpt>
      <trkpt lat="44.28172" lon="6.17867">
        <ele>1508.4458008</ele>
        <time>2013-10-16T09:38:02Z</time>
      </trkpt>
      <trkpt lat="44.28168" lon="6.17873">
        <ele>1511.8105469</ele>
        <time>2013-10-16T09:38:22Z</time>
      </trkpt>
      <trkpt lat="44.28166" lon="6.17881">
        <ele>1514.6943359</ele>
        <time>2013-10-16T09:38:38Z</time>
      </trkpt>
      <trkpt lat="44.28157" lon="6.17886">
        <ele>1517.0979004</ele>
        <time>2013-10-16T09:38:57Z</time>
      </trkpt>
      <trkpt lat="44.28152" lon="6.17889">
        <ele>1519.9816895</ele>
        <time>2013-10-16T09:39:17Z</time>
      </trkpt>
      <trkpt lat="44.28147" lon="6.17896">
        <ele>1521.9042969</ele>
        <time>2013-10-16T09:39:30Z</time>
      </trkpt>
      <trkpt lat="44.28152" lon="6.17905">
        <ele>1525.2687988</ele>
        <time>2013-10-16T09:39:45Z</time>
      </trkpt>
      <trkpt lat="44.28154" lon="6.17912">
        <ele>1527.1916504</ele>
        <time>2013-10-16T09:39:59Z</time>
      </trkpt>
      <trkpt lat="44.2816" lon="6.1792">
        <ele>1527.1916504</ele>
        <time>2013-10-16T09:40:16Z</time>
      </trkpt>
      <trkpt lat="44.28161" lon="6.1792">
        <ele>1526.7109375</ele>
        <time>2013-10-16T09:40:17Z</time>
      </trkpt>
      <trkpt lat="44.28178" lon="6.17917">
        <ele>1527.1916504</ele>
        <time>2013-10-16T09:40:36Z</time>
      </trkpt>
      <trkpt lat="44.28202" lon="6.17925">
        <ele>1528.6335449</ele>
        <time>2013-10-16T09:41:01Z</time>
      </trkpt>
      <trkpt lat="44.2821" lon="6.17938">
        <ele>1529.1140137</ele>
        <time>2013-10-16T09:41:14Z</time>
      </trkpt>
      <trkpt lat="44.28212" lon="6.17978">
        <ele>1528.6335449</ele>
        <time>2013-10-16T09:41:33Z</time>
      </trkpt>
      <trkpt lat="44.28211" lon="6.17984">
        <ele>1528.6335449</ele>
        <time>2013-10-16T09:41:38Z</time>
      </trkpt>
      <trkpt lat="44.28212" lon="6.17987">
        <ele>1528.6335449</ele>
        <time>2013-10-16T09:41:40Z</time>
      </trkpt>
      <trkpt lat="44.28215" lon="6.18013">
        <ele>1529.1140137</ele>
        <time>2013-10-16T09:41:59Z</time>
      </trkpt>
      <trkpt lat="44.28217" lon="6.18037">
        <ele>1529.1140137</ele>
        <time>2013-10-16T09:42:14Z</time>
      </trkpt>
      <trkpt lat="44.28215" lon="6.18069">
        <ele>1529.1140137</ele>
        <time>2013-10-16T09:42:35Z</time>
      </trkpt>
      <trkpt lat="44.28217" lon="6.18092">
        <ele>1528.152832</ele>
        <time>2013-10-16T09:42:52Z</time>
      </trkpt>
      <trkpt lat="44.28221" lon="6.18136">
        <ele>1527.6721191</ele>
        <time>2013-10-16T09:43:20Z</time>
      </trkpt>
      <trkpt lat="44.28235" lon="6.1817">
        <ele>1527.6721191</ele>
        <time>2013-10-16T09:43:45Z</time>
      </trkpt>
      <trkpt lat="44.28252" lon="6.18199">
        <ele>1527.6721191</ele>
        <time>2013-10-16T09:44:09Z</time>
      </trkpt>
      <trkpt lat="44.28253" lon="6.18204">
        <ele>1528.152832</ele>
        <time>2013-10-16T09:44:12Z</time>
      </trkpt>
      <trkpt lat="44.28248" lon="6.18217">
        <ele>1528.152832</ele>
        <time>2013-10-16T09:44:30Z</time>
      </trkpt>
      <trkpt lat="44.2824" lon="6.18238">
        <ele>1528.6335449</ele>
        <time>2013-10-16T09:44:44Z</time>
      </trkpt>
      <trkpt lat="44.28236" lon="6.18244">
        <ele>1529.1140137</ele>
        <time>2013-10-16T09:45:00Z</time>
      </trkpt>
      <trkpt lat="44.28234" lon="6.18249">
        <ele>1530.0754395</ele>
        <time>2013-10-16T09:46:16Z</time>
      </trkpt>
      <trkpt lat="44.28236" lon="6.18243">
        <ele>1531.0368652</ele>
        <time>2013-10-16T09:47:03Z</time>
      </trkpt>
      <trkpt lat="44.28236" lon="6.18243">
        <ele>1531.0368652</ele>
        <time>2013-10-16T09:47:26Z</time>
      </trkpt>
      <trkpt lat="44.28231" lon="6.18271">
        <ele>1531.9980469</ele>
        <time>2013-10-16T09:47:43Z</time>
      </trkpt>
      <trkpt lat="44.28231" lon="6.18273">
        <ele>1532.4790039</ele>
        <time>2013-10-16T09:48:18Z</time>
      </trkpt>
      <trkpt lat="44.28231" lon="6.18274">
        <ele>1532.4790039</ele>
        <time>2013-10-16T09:48:23Z</time>
      </trkpt>
      <trkpt lat="44.28226" lon="6.18287">
        <ele>1533.4401855</ele>
        <time>2013-10-16T09:48:36Z</time>
      </trkpt>
      <trkpt lat="44.28209" lon="6.18301">
        <ele>1535.8435059</ele>
        <time>2013-10-16T09:48:59Z</time>
      </trkpt>
      <trkpt lat="44.28191" lon="6.18314">
        <ele>1537.2854004</ele>
        <time>2013-10-16T09:49:15Z</time>
      </trkpt>
      <trkpt lat="44.28167" lon="6.18313">
        <ele>1538.2468262</ele>
        <time>2013-10-16T09:49:30Z</time>
      </trkpt>
      <trkpt lat="44.28151" lon="6.18312">
        <ele>1539.6887207</ele>
        <time>2013-10-16T09:49:44Z</time>
      </trkpt>
      <trkpt lat="44.28142" lon="6.18312">
        <ele>1540.6499023</ele>
        <time>2013-10-16T09:49:51Z</time>
      </trkpt>
      <trkpt lat="44.28125" lon="6.1832">
        <ele>1542.092041</ele>
        <time>2013-10-16T09:50:07Z</time>
      </trkpt>
      <trkpt lat="44.28121" lon="6.18322">
        <ele>1542.5727539</ele>
        <time>2013-10-16T09:50:11Z</time>
      </trkpt>
      <trkpt lat="44.28107" lon="6.18335">
        <ele>1543.5339355</ele>
        <time>2013-10-16T09:50:29Z</time>
      </trkpt>
      <trkpt lat="44.28098" lon="6.18345">
        <ele>1544.4951172</ele>
        <time>2013-10-16T09:50:42Z</time>
      </trkpt>
      <trkpt lat="44.28091" lon="6.18364">
        <ele>1545.9372559</ele>
        <time>2013-10-16T09:50:57Z</time>
      </trkpt>
      <trkpt lat="44.28085" lon="6.18382">
        <ele>1546.4179688</ele>
        <time>2013-10-16T09:51:12Z</time>
      </trkpt>
      <trkpt lat="44.28084" lon="6.18399">
        <ele>1547.3791504</ele>
        <time>2013-10-16T09:51:27Z</time>
      </trkpt>
      <trkpt lat="44.28085" lon="6.18406">
        <ele>1548.3405762</ele>
        <time>2013-10-16T09:51:32Z</time>
      </trkpt>
      <trkpt lat="44.28085" lon="6.1841">
        <ele>1548.3405762</ele>
        <time>2013-10-16T09:51:34Z</time>
      </trkpt>
      <trkpt lat="44.28085" lon="6.18415">
        <ele>1548.8212891</ele>
        <time>2013-10-16T09:51:36Z</time>
      </trkpt>
      <trkpt lat="44.28087" lon="6.18429">
        <ele>1548.8212891</ele>
        <time>2013-10-16T09:51:43Z</time>
      </trkpt>
      <trkpt lat="44.28075" lon="6.18455">
        <ele>1549.302002</ele>
        <time>2013-10-16T09:51:55Z</time>
      </trkpt>
      <trkpt lat="44.28073" lon="6.18459">
        <ele>1549.7827148</ele>
        <time>2013-10-16T09:51:57Z</time>
      </trkpt>
      <trkpt lat="44.28072" lon="6.18468">
        <ele>1550.2634277</ele>
        <time>2013-10-16T09:52:02Z</time>
      </trkpt>
      <trkpt lat="44.28062" lon="6.18491">
        <ele>1551.2246094</ele>
        <time>2013-10-16T09:52:18Z</time>
      </trkpt>
      <trkpt lat="44.28052" lon="6.18507">
        <ele>1551.2246094</ele>
        <time>2013-10-16T09:52:31Z</time>
      </trkpt>
      <trkpt lat="44.28046" lon="6.18519">
        <ele>1551.2246094</ele>
        <time>2013-10-16T09:52:39Z</time>
      </trkpt>
      <trkpt lat="44.28045" lon="6.18527">
        <ele>1551.2246094</ele>
        <time>2013-10-16T09:52:46Z</time>
      </trkpt>
      <trkpt lat="44.28043" lon="6.18531">
        <ele>1551.7053223</ele>
        <time>2013-10-16T09:52:49Z</time>
      </trkpt>
      <trkpt lat="44.2803" lon="6.18549">
        <ele>1551.7053223</ele>
        <time>2013-10-16T09:53:00Z</time>
      </trkpt>
      <trkpt lat="44.28012" lon="6.1858">
        <ele>1551.2246094</ele>
        <time>2013-10-16T09:53:21Z</time>
      </trkpt>
      <trkpt lat="44.27995" lon="6.18609">
        <ele>1550.7438965</ele>
        <time>2013-10-16T09:53:40Z</time>
      </trkpt>
      <trkpt lat="44.27971" lon="6.18641">
        <ele>1549.302002</ele>
        <time>2013-10-16T09:54:06Z</time>
      </trkpt>
      <trkpt lat="44.27968" lon="6.18648">
        <ele>1549.302002</ele>
        <time>2013-10-16T09:54:11Z</time>
      </trkpt>
      <trkpt lat="44.27965" lon="6.1865">
        <ele>1549.302002</ele>
        <time>2013-10-16T09:54:13Z</time>
      </trkpt>
      <trkpt lat="44.27965" lon="6.18654">
        <ele>1549.302002</ele>
        <time>2013-10-16T09:54:16Z</time>
      </trkpt>
      <trkpt lat="44.27976" lon="6.18661">
        <ele>1549.7827148</ele>
        <time>2013-10-16T09:54:30Z</time>
      </trkpt>
      <trkpt lat="44.27994" lon="6.18661">
        <ele>1550.7438965</ele>
        <time>2013-10-16T09:54:45Z</time>
      </trkpt>
      <trkpt lat="44.28011" lon="6.18655">
        <ele>1551.7053223</ele>
        <time>2013-10-16T09:55:00Z</time>
      </trkpt>
      <trkpt lat="44.28034" lon="6.18652">
        <ele>1552.6665039</ele>
        <time>2013-10-16T09:55:18Z</time>
      </trkpt>
      <trkpt lat="44.28045" lon="6.18653">
        <ele>1553.1472168</ele>
        <time>2013-10-16T09:55:26Z</time>
      </trkpt>
      <trkpt lat="44.28051" lon="6.18654">
        <ele>1553.6279297</ele>
        <time>2013-10-16T09:55:32Z</time>
      </trkpt>
      <trkpt lat="44.28068" lon="6.18659">
        <ele>1553.6279297</ele>
        <time>2013-10-16T09:55:47Z</time>
      </trkpt>
      <trkpt lat="44.28085" lon="6.18662">
        <ele>1554.5891113</ele>
        <time>2013-10-16T09:56:01Z</time>
      </trkpt>
      <trkpt lat="44.281" lon="6.18671">
        <ele>1556.0310059</ele>
        <time>2013-10-16T09:56:19Z</time>
      </trkpt>
      <trkpt lat="44.28122" lon="6.18676">
        <ele>1557.9538574</ele>
        <time>2013-10-16T09:56:38Z</time>
      </trkpt>
      <trkpt lat="44.28132" lon="6.1868">
        <ele>1558.4343262</ele>
        <time>2013-10-16T09:56:48Z</time>
      </trkpt>
      <trkpt lat="44.28146" lon="6.18679">
        <ele>1560.3569336</ele>
        <time>2013-10-16T09:57:02Z</time>
      </trkpt>
      <trkpt lat="44.28158" lon="6.18678">
        <ele>1561.7990723</ele>
        <time>2013-10-16T09:57:16Z</time>
      </trkpt>
      <trkpt lat="44.2816" lon="6.18678">
        <ele>1561.7990723</ele>
        <time>2013-10-16T09:57:18Z</time>
      </trkpt>
      <trkpt lat="44.28165" lon="6.18676">
        <ele>1562.279541</ele>
        <time>2013-10-16T09:57:21Z</time>
      </trkpt>
      <trkpt lat="44.2817" lon="6.18687">
        <ele>1563.2409668</ele>
        <time>2013-10-16T09:57:30Z</time>
      </trkpt>
      <trkpt lat="44.28161" lon="6.18708">
        <ele>1564.2023926</ele>
        <time>2013-10-16T09:57:48Z</time>
      </trkpt>
      <trkpt lat="44.28154" lon="6.18725">
        <ele>1566.6057129</ele>
        <time>2013-10-16T09:58:02Z</time>
      </trkpt>
      <trkpt lat="44.28152" lon="6.18747">
        <ele>1568.0476074</ele>
        <time>2013-10-16T09:58:18Z</time>
      </trkpt>
      <trkpt lat="44.28141" lon="6.1876">
        <ele>1568.5283203</ele>
        <time>2013-10-16T09:58:28Z</time>
      </trkpt>
      <trkpt lat="44.28136" lon="6.18746">
        <ele>1569.9702148</ele>
        <time>2013-10-16T09:58:41Z</time>
      </trkpt>
      <trkpt lat="44.28136" lon="6.18744">
        <ele>1570.9316406</ele>
        <time>2013-10-16T09:58:43Z</time>
      </trkpt>
      <trkpt lat="44.2813" lon="6.18734">
        <ele>1571.4121094</ele>
        <time>2013-10-16T09:58:52Z</time>
      </trkpt>
      <trkpt lat="44.28115" lon="6.18738">
        <ele>1573.3349609</ele>
        <time>2013-10-16T09:59:09Z</time>
      </trkpt>
      <trkpt lat="44.28099" lon="6.18763">
        <ele>1575.7380371</ele>
        <time>2013-10-16T09:59:32Z</time>
      </trkpt>
      <trkpt lat="44.28084" lon="6.18788">
        <ele>1577.6606445</ele>
        <time>2013-10-16T09:59:55Z</time>
      </trkpt>
      <trkpt lat="44.28079" lon="6.18796">
        <ele>1578.1413574</ele>
        <time>2013-10-16T10:00:02Z</time>
      </trkpt>
      <trkpt lat="44.28066" lon="6.18822">
        <ele>1579.583252</ele>
        <time>2013-10-16T10:00:22Z</time>
      </trkpt>
      <trkpt lat="44.28062" lon="6.18823">
        <ele>1580.064209</ele>
        <time>2013-10-16T10:00:26Z</time>
      </trkpt>
      <trkpt lat="44.28047" lon="6.18803">
        <ele>1581.5061035</ele>
        <time>2013-10-16T10:00:44Z</time>
      </trkpt>
      <trkpt lat="44.2804" lon="6.18799">
        <ele>1581.9868164</ele>
        <time>2013-10-16T10:00:51Z</time>
      </trkpt>
      <trkpt lat="44.28033" lon="6.18799">
        <ele>1582.4675293</ele>
        <time>2013-10-16T10:00:58Z</time>
      </trkpt>
      <trkpt lat="44.28009" lon="6.1881">
        <ele>1585.3513184</ele>
        <time>2013-10-16T10:01:22Z</time>
      </trkpt>
      <trkpt lat="44.28" lon="6.18813">
        <ele>1586.3127441</ele>
        <time>2013-10-16T10:01:32Z</time>
      </trkpt>
      <trkpt lat="44.27977" lon="6.18821">
        <ele>1589.1965332</ele>
        <time>2013-10-16T10:01:55Z</time>
      </trkpt>
      <trkpt lat="44.27964" lon="6.18837">
        <ele>1591.1191406</ele>
        <time>2013-10-16T10:02:14Z</time>
      </trkpt>
      <trkpt lat="44.27958" lon="6.18847">
        <ele>1592.5612793</ele>
        <time>2013-10-16T10:02:23Z</time>
      </trkpt>
      <trkpt lat="44.27945" lon="6.18864">
        <ele>1595.4450684</ele>
        <time>2013-10-16T10:02:42Z</time>
      </trkpt>
      <trkpt lat="44.27935" lon="6.18882">
        <ele>1597.8486328</ele>
        <time>2013-10-16T10:02:59Z</time>
      </trkpt>
      <trkpt lat="44.27923" lon="6.18898">
        <ele>1599.7712402</ele>
        <time>2013-10-16T10:03:17Z</time>
      </trkpt>
      <trkpt lat="44.27907" lon="6.18912">
        <ele>1602.1743164</ele>
        <time>2013-10-16T10:03:34Z</time>
      </trkpt>
      <trkpt lat="44.27894" lon="6.18924">
        <ele>1603.6164551</ele>
        <time>2013-10-16T10:03:49Z</time>
      </trkpt>
      <trkpt lat="44.2788" lon="6.18931">
        <ele>1605.0583496</ele>
        <time>2013-10-16T10:04:06Z</time>
      </trkpt>
      <trkpt lat="44.27864" lon="6.18933">
        <ele>1606.980957</ele>
        <time>2013-10-16T10:04:22Z</time>
      </trkpt>
      <trkpt lat="44.27857" lon="6.18929">
        <ele>1607.9423828</ele>
        <time>2013-10-16T10:04:30Z</time>
      </trkpt>
      <trkpt lat="44.27841" lon="6.18933">
        <ele>1609.3842773</ele>
        <time>2013-10-16T10:04:49Z</time>
      </trkpt>
      <trkpt lat="44.27825" lon="6.18946">
        <ele>1612.2683105</ele>
        <time>2013-10-16T10:05:13Z</time>
      </trkpt>
      <trkpt lat="44.27808" lon="6.18976">
        <ele>1615.1523438</ele>
        <time>2013-10-16T10:05:36Z</time>
      </trkpt>
      <trkpt lat="44.27801" lon="6.18988">
        <ele>1616.1135254</ele>
        <time>2013-10-16T10:05:49Z</time>
      </trkpt>
      <trkpt lat="44.27801" lon="6.1901">
        <ele>1617.0749512</ele>
        <time>2013-10-16T10:06:04Z</time>
      </trkpt>
      <trkpt lat="44.2781" lon="6.19036">
        <ele>1617.0749512</ele>
        <time>2013-10-16T10:06:23Z</time>
      </trkpt>
      <trkpt lat="44.27819" lon="6.19064">
        <ele>1617.0749512</ele>
        <time>2013-10-16T10:06:42Z</time>
      </trkpt>
      <trkpt lat="44.27835" lon="6.19099">
        <ele>1617.0749512</ele>
        <time>2013-10-16T10:07:01Z</time>
      </trkpt>
      <trkpt lat="44.2782" lon="6.19138">
        <ele>1617.0749512</ele>
        <time>2013-10-16T10:07:21Z</time>
      </trkpt>
      <trkpt lat="44.27808" lon="6.1916">
        <ele>1618.0361328</ele>
        <time>2013-10-16T10:07:40Z</time>
      </trkpt>
      <trkpt lat="44.27797" lon="6.19183">
        <ele>1618.0361328</ele>
        <time>2013-10-16T10:07:55Z</time>
      </trkpt>
      <trkpt lat="44.27779" lon="6.19199">
        <ele>1619.4782715</ele>
        <time>2013-10-16T10:08:15Z</time>
      </trkpt>
      <trkpt lat="44.27763" lon="6.19228">
        <ele>1620.920166</ele>
        <time>2013-10-16T10:08:41Z</time>
      </trkpt>
      <trkpt lat="44.27749" lon="6.19239">
        <ele>1622.8427734</ele>
        <time>2013-10-16T10:09:04Z</time>
      </trkpt>
      <trkpt lat="44.27717" lon="6.19227">
        <ele>1626.2072754</ele>
        <time>2013-10-16T10:09:30Z</time>
      </trkpt>
      <trkpt lat="44.27713" lon="6.19255">
        <ele>1628.130127</ele>
        <time>2013-10-16T10:09:46Z</time>
      </trkpt>
      <trkpt lat="44.277" lon="6.1929">
        <ele>1631.0141602</ele>
        <time>2013-10-16T10:10:09Z</time>
      </trkpt>
      <trkpt lat="44.27693" lon="6.19302">
        <ele>1631.9753418</ele>
        <time>2013-10-16T10:10:27Z</time>
      </trkpt>
      <trkpt lat="44.2768" lon="6.19288">
        <ele>1632.9365234</ele>
        <time>2013-10-16T10:10:35Z</time>
      </trkpt>
      <trkpt lat="44.27645" lon="6.19249">
        <ele>1634.859375</ele>
        <time>2013-10-16T10:10:49Z</time>
      </trkpt>
      <trkpt lat="44.27635" lon="6.19236">
        <ele>1635.8205566</ele>
        <time>2013-10-16T10:11:00Z</time>
      </trkpt>
      <trkpt lat="44.27636" lon="6.19233">
        <ele>1636.3012695</ele>
        <time>2013-10-16T10:11:02Z</time>
      </trkpt>
      <trkpt lat="44.2763" lon="6.19215">
        <ele>1637.2624512</ele>
        <time>2013-10-16T10:11:15Z</time>
      </trkpt>
      <trkpt lat="44.27627" lon="6.192">
        <ele>1638.7045898</ele>
        <time>2013-10-16T10:11:25Z</time>
      </trkpt>
      <trkpt lat="44.27626" lon="6.19198">
        <ele>1639.1850586</ele>
        <time>2013-10-16T10:11:27Z</time>
      </trkpt>
      <trkpt lat="44.27624" lon="6.19175">
        <ele>1639.6657715</ele>
        <time>2013-10-16T10:11:43Z</time>
      </trkpt>
      <trkpt lat="44.27621" lon="6.19157">
        <ele>1640.6269531</ele>
        <time>2013-10-16T10:11:54Z</time>
      </trkpt>
      <trkpt lat="44.27621" lon="6.19148">
        <ele>1640.6269531</ele>
        <time>2013-10-16T10:12:01Z</time>
      </trkpt>
      <trkpt lat="44.27622" lon="6.19137">
        <ele>1641.107666</ele>
        <time>2013-10-16T10:12:08Z</time>
      </trkpt>
      <trkpt lat="44.27616" lon="6.19122">
        <ele>1642.0690918</ele>
        <time>2013-10-16T10:12:21Z</time>
      </trkpt>
      <trkpt lat="44.27612" lon="6.19105">
        <ele>1643.0302734</ele>
        <time>2013-10-16T10:12:33Z</time>
      </trkpt>
      <trkpt lat="44.27615" lon="6.19102">
        <ele>1643.5109863</ele>
        <time>2013-10-16T10:12:35Z</time>
      </trkpt>
      <trkpt lat="44.27617" lon="6.19094">
        <ele>1643.5109863</ele>
        <time>2013-10-16T10:12:39Z</time>
      </trkpt>
      <trkpt lat="44.27615" lon="6.19076">
        <ele>1644.4724121</ele>
        <time>2013-10-16T10:12:53Z</time>
      </trkpt>
      <trkpt lat="44.27634" lon="6.19047">
        <ele>1645.9145508</ele>
        <time>2013-10-16T10:13:10Z</time>
      </trkpt>
      <trkpt lat="44.27639" lon="6.19037">
        <ele>1647.3564453</ele>
        <time>2013-10-16T10:13:24Z</time>
      </trkpt>
      <trkpt lat="44.27637" lon="6.19032">
        <ele>1647.3564453</ele>
        <time>2013-10-16T10:13:27Z</time>
      </trkpt>
      <trkpt lat="44.27646" lon="6.19023">
        <ele>1648.317627</ele>
        <time>2013-10-16T10:13:34Z</time>
      </trkpt>
      <trkpt lat="44.2765" lon="6.19016">
        <ele>1648.317627</ele>
        <time>2013-10-16T10:13:39Z</time>
      </trkpt>
      <trkpt lat="44.27659" lon="6.18999">
        <ele>1648.7983398</ele>
        <time>2013-10-16T10:13:50Z</time>
      </trkpt>
      <trkpt lat="44.2766" lon="6.18994">
        <ele>1649.2790527</ele>
        <time>2013-10-16T10:13:53Z</time>
      </trkpt>
      <trkpt lat="44.27661" lon="6.1899">
        <ele>1649.2790527</ele>
        <time>2013-10-16T10:13:55Z</time>
      </trkpt>
      <trkpt lat="44.27663" lon="6.18978">
        <ele>1649.7597656</ele>
        <time>2013-10-16T10:14:03Z</time>
      </trkpt>
      <trkpt lat="44.27665" lon="6.18965">
        <ele>1650.7209473</ele>
        <time>2013-10-16T10:14:11Z</time>
      </trkpt>
      <trkpt lat="44.27666" lon="6.18959">
        <ele>1651.2016602</ele>
        <time>2013-10-16T10:14:15Z</time>
      </trkpt>
      <trkpt lat="44.27667" lon="6.18951">
        <ele>1651.2016602</ele>
        <time>2013-10-16T10:14:21Z</time>
      </trkpt>
      <trkpt lat="44.27664" lon="6.18944">
        <ele>1652.1628418</ele>
        <time>2013-10-16T10:14:26Z</time>
      </trkpt>
      <trkpt lat="44.27662" lon="6.18941">
        <ele>1651.682373</ele>
        <time>2013-10-16T10:14:28Z</time>
      </trkpt>
      <trkpt lat="44.27654" lon="6.18931">
        <ele>1653.1242676</ele>
        <time>2013-10-16T10:14:41Z</time>
      </trkpt>
      <trkpt lat="44.27649" lon="6.18932">
        <ele>1653.6049805</ele>
        <time>2013-10-16T10:14:49Z</time>
      </trkpt>
      <trkpt lat="44.27645" lon="6.18933">
        <ele>1654.0856934</ele>
        <time>2013-10-16T10:14:52Z</time>
      </trkpt>
      <trkpt lat="44.27647" lon="6.18935">
        <ele>1654.5661621</ele>
        <time>2013-10-16T10:14:58Z</time>
      </trkpt>
      <trkpt lat="44.2764" lon="6.18935">
        <ele>1655.046875</ele>
        <time>2013-10-16T10:15:05Z</time>
      </trkpt>
      <trkpt lat="44.27623" lon="6.18935">
        <ele>1656.4887695</ele>
        <time>2013-10-16T10:15:16Z</time>
      </trkpt>
      <trkpt lat="44.27614" lon="6.18941">
        <ele>1656.9694824</ele>
        <time>2013-10-16T10:15:28Z</time>
      </trkpt>
      <trkpt lat="44.27603" lon="6.18947">
        <ele>1657.9309082</ele>
        <time>2013-10-16T10:15:39Z</time>
      </trkpt>
      <trkpt lat="44.27597" lon="6.1895">
        <ele>1658.8920898</ele>
        <time>2013-10-16T10:15:49Z</time>
      </trkpt>
      <trkpt lat="44.27576" lon="6.18946">
        <ele>1659.8532715</ele>
        <time>2013-10-16T10:16:00Z</time>
      </trkpt>
      <trkpt lat="44.2757" lon="6.18948">
        <ele>1660.3342285</ele>
        <time>2013-10-16T10:16:08Z</time>
      </trkpt>
      <trkpt lat="44.27563" lon="6.18944">
        <ele>1660.3342285</ele>
        <time>2013-10-16T10:16:13Z</time>
      </trkpt>
      <trkpt lat="44.27563" lon="6.18944">
        <ele>1661.2956543</ele>
        <time>2013-10-16T10:16:17Z</time>
      </trkpt>
      <trkpt lat="44.27555" lon="6.18942">
        <ele>1661.7763672</ele>
        <time>2013-10-16T10:16:30Z</time>
      </trkpt>
      <trkpt lat="44.27555" lon="6.18942">
        <ele>1662.2568359</ele>
        <time>2013-10-16T10:16:31Z</time>
      </trkpt>
      <trkpt lat="44.2754" lon="6.1893">
        <ele>1662.2568359</ele>
        <time>2013-10-16T10:16:36Z</time>
      </trkpt>
      <trkpt lat="44.27535" lon="6.18919">
        <ele>1662.2568359</ele>
        <time>2013-10-16T10:16:38Z</time>
      </trkpt>
      <trkpt lat="44.27535" lon="6.18919">
        <ele>1662.7375488</ele>
        <time>2013-10-16T10:16:41Z</time>
      </trkpt>
      <trkpt lat="44.2753" lon="6.18895">
        <ele>1663.6987305</ele>
        <time>2013-10-16T10:16:55Z</time>
      </trkpt>
      <trkpt lat="44.2753" lon="6.18895">
        <ele>1664.6601563</ele>
        <time>2013-10-16T10:16:59Z</time>
      </trkpt>
      <trkpt lat="44.27509" lon="6.18876">
        <ele>1665.1408691</ele>
        <time>2013-10-16T10:17:15Z</time>
      </trkpt>
      <trkpt lat="44.27499" lon="6.18883">
        <ele>1666.1020508</ele>
        <time>2013-10-16T10:17:27Z</time>
      </trkpt>
      <trkpt lat="44.27485" lon="6.18886">
        <ele>1667.5439453</ele>
        <time>2013-10-16T10:17:40Z</time>
      </trkpt>
      <trkpt lat="44.27484" lon="6.18886">
        <ele>1668.0246582</ele>
        <time>2013-10-16T10:17:44Z</time>
      </trkpt>
      <trkpt lat="44.27481" lon="6.18886">
        <ele>1669.4667969</ele>
        <time>2013-10-16T10:17:52Z</time>
      </trkpt>
      <trkpt lat="44.27481" lon="6.18886">
        <ele>1669.4667969</ele>
        <time>2013-10-16T10:17:53Z</time>
      </trkpt>
      <trkpt lat="44.27481" lon="6.18886">
        <ele>1670.4279785</ele>
        <time>2013-10-16T10:18:00Z</time>
      </trkpt>
      <trkpt lat="44.27472" lon="6.18886">
        <ele>1672.3505859</ele>
        <time>2013-10-16T10:18:16Z</time>
      </trkpt>
      <trkpt lat="44.27457" lon="6.18886">
        <ele>1673.3120117</ele>
        <time>2013-10-16T10:18:26Z</time>
      </trkpt>
      <trkpt lat="44.27449" lon="6.18858">
        <ele>1675.234375</ele>
        <time>2013-10-16T10:18:43Z</time>
      </trkpt>
      <trkpt lat="44.27451" lon="6.1885">
        <ele>1675.234375</ele>
        <time>2013-10-16T10:18:45Z</time>
      </trkpt>
      <trkpt lat="44.27443" lon="6.18828">
        <ele>1675.7150879</ele>
        <time>2013-10-16T10:19:00Z</time>
      </trkpt>
      <trkpt lat="44.27426" lon="6.18827">
        <ele>1677.1574707</ele>
        <time>2013-10-16T10:19:12Z</time>
      </trkpt>
      <trkpt lat="44.27413" lon="6.18829">
        <ele>1678.5993652</ele>
        <time>2013-10-16T10:19:25Z</time>
      </trkpt>
      <trkpt lat="44.27413" lon="6.18829">
        <ele>1679.5605469</ele>
        <time>2013-10-16T10:19:36Z</time>
      </trkpt>
      <trkpt lat="44.2737" lon="6.18833">
        <ele>1681.0026855</ele>
        <time>2013-10-16T10:19:50Z</time>
      </trkpt>
      <trkpt lat="44.27371" lon="6.18832">
        <ele>1681.9638672</ele>
        <time>2013-10-16T10:19:59Z</time>
      </trkpt>
      <trkpt lat="44.27371" lon="6.18832">
        <ele>1683.8864746</ele>
        <time>2013-10-16T10:20:17Z</time>
      </trkpt>
      <trkpt lat="44.27371" lon="6.18832">
        <ele>1685.809082</ele>
        <time>2013-10-16T10:20:30Z</time>
      </trkpt>
      <trkpt lat="44.27371" lon="6.18832">
        <ele>1686.2897949</ele>
        <time>2013-10-16T10:20:34Z</time>
      </trkpt>
      <trkpt lat="44.27371" lon="6.18832">
        <ele>1685.809082</ele>
        <time>2013-10-16T10:20:49Z</time>
      </trkpt>
      <trkpt lat="44.27391" lon="6.1883">
        <ele>1688.2124023</ele>
        <time>2013-10-16T10:20:59Z</time>
      </trkpt>
      <trkpt lat="44.27391" lon="6.1883">
        <ele>1689.6542969</ele>
        <time>2013-10-16T10:21:13Z</time>
      </trkpt>
      <trkpt lat="44.27391" lon="6.1883">
        <ele>1690.1350098</ele>
        <time>2013-10-16T10:21:26Z</time>
      </trkpt>
      <trkpt lat="44.27391" lon="6.18831">
        <ele>1690.6154785</ele>
        <time>2013-10-16T10:21:36Z</time>
      </trkpt>
      <trkpt lat="44.27391" lon="6.18831">
        <ele>1690.1350098</ele>
        <time>2013-10-16T10:21:49Z</time>
      </trkpt>
      <trkpt lat="44.27391" lon="6.18831">
        <ele>1691.0961914</ele>
        <time>2013-10-16T10:22:50Z</time>
      </trkpt>
      <trkpt lat="44.27391" lon="6.18831">
        <ele>1691.0961914</ele>
        <time>2013-10-16T10:22:55Z</time>
      </trkpt>
      <trkpt lat="44.27396" lon="6.18908">
        <ele>1693.4997559</ele>
        <time>2013-10-16T10:23:08Z</time>
      </trkpt>
      <trkpt lat="44.27396" lon="6.18908">
        <ele>1694.4609375</ele>
        <time>2013-10-16T10:23:21Z</time>
      </trkpt>
      <trkpt lat="44.27396" lon="6.18908">
        <ele>1694.4609375</ele>
        <time>2013-10-16T10:23:22Z</time>
      </trkpt>
      <trkpt lat="44.27396" lon="6.18908">
        <ele>1693.4997559</ele>
        <time>2013-10-16T10:23:39Z</time>
      </trkpt>
      <trkpt lat="44.27416" lon="6.1898">
        <ele>1693.4997559</ele>
        <time>2013-10-16T10:23:51Z</time>
      </trkpt>
      <trkpt lat="44.27416" lon="6.1898">
        <ele>1693.9804688</ele>
        <time>2013-10-16T10:23:56Z</time>
      </trkpt>
      <trkpt lat="44.27431" lon="6.18987">
        <ele>1693.9804688</ele>
        <time>2013-10-16T10:23:58Z</time>
      </trkpt>
      <trkpt lat="44.27438" lon="6.1899">
        <ele>1694.4609375</ele>
        <time>2013-10-16T10:24:13Z</time>
      </trkpt>
      <trkpt lat="44.27438" lon="6.1899">
        <ele>1695.9030762</ele>
        <time>2013-10-16T10:24:29Z</time>
      </trkpt>
      <trkpt lat="44.27438" lon="6.1899">
        <ele>1697.3449707</ele>
        <time>2013-10-16T10:24:44Z</time>
      </trkpt>
      <trkpt lat="44.27438" lon="6.1899">
        <ele>1698.3061523</ele>
        <time>2013-10-16T10:24:57Z</time>
      </trkpt>
      <trkpt lat="44.27438" lon="6.1899">
        <ele>1698.7868652</ele>
        <time>2013-10-16T10:24:59Z</time>
      </trkpt>
      <trkpt lat="44.27475" lon="6.1903">
        <ele>1701.1901855</ele>
        <time>2013-10-16T10:25:14Z</time>
      </trkpt>
      <trkpt lat="44.27475" lon="6.1903">
        <ele>1702.6320801</ele>
        <time>2013-10-16T10:25:27Z</time>
      </trkpt>
      <trkpt lat="44.27475" lon="6.1903">
        <ele>1704.5546875</ele>
        <time>2013-10-16T10:25:44Z</time>
      </trkpt>
      <trkpt lat="44.27475" lon="6.1903">
        <ele>1706.9580078</ele>
        <time>2013-10-16T10:26:00Z</time>
      </trkpt>
      <trkpt lat="44.27475" lon="6.1903">
        <ele>1709.3615723</ele>
        <time>2013-10-16T10:26:17Z</time>
      </trkpt>
      <trkpt lat="44.27475" lon="6.1903">
        <ele>1711.2841797</ele>
        <time>2013-10-16T10:26:32Z</time>
      </trkpt>
      <trkpt lat="44.27475" lon="6.1903">
        <ele>1712.7260742</ele>
        <time>2013-10-16T10:26:45Z</time>
      </trkpt>
      <trkpt lat="44.27475" lon="6.1903">
        <ele>1714.1679688</ele>
        <time>2013-10-16T10:27:00Z</time>
      </trkpt>
      <trkpt lat="44.27475" lon="6.1903">
        <ele>1714.6486816</ele>
        <time>2013-10-16T10:27:03Z</time>
      </trkpt>
      <trkpt lat="44.27475" lon="6.1903">
        <ele>1715.6101074</ele>
        <time>2013-10-16T10:27:12Z</time>
      </trkpt>
      <trkpt lat="44.2742" lon="6.1908">
        <ele>1716.5712891</ele>
        <time>2013-10-16T10:27:24Z</time>
      </trkpt>
      <trkpt lat="44.27419" lon="6.19081">
        <ele>1716.5712891</ele>
        <time>2013-10-16T10:27:27Z</time>
      </trkpt>
      <trkpt lat="44.27415" lon="6.19086">
        <ele>1717.052002</ele>
        <time>2013-10-16T10:27:34Z</time>
      </trkpt>
      <trkpt lat="44.27415" lon="6.19086">
        <ele>1718.0131836</ele>
        <time>2013-10-16T10:27:47Z</time>
      </trkpt>
      <trkpt lat="44.27415" lon="6.19086">
        <ele>1718.9746094</ele>
        <time>2013-10-16T10:27:59Z</time>
      </trkpt>
      <trkpt lat="44.274" lon="6.19102">
        <ele>1719.4553223</ele>
        <time>2013-10-16T10:28:12Z</time>
      </trkpt>
      <trkpt lat="44.274" lon="6.19102">
        <ele>1721.3776855</ele>
        <time>2013-10-16T10:28:24Z</time>
      </trkpt>
      <trkpt lat="44.274" lon="6.19102">
        <ele>1722.8198242</ele>
        <time>2013-10-16T10:28:36Z</time>
      </trkpt>
      <trkpt lat="44.274" lon="6.19102">
        <ele>1722.8198242</ele>
        <time>2013-10-16T10:28:37Z</time>
      </trkpt>
      <trkpt lat="44.274" lon="6.19102">
        <ele>1723.3005371</ele>
        <time>2013-10-16T10:28:59Z</time>
      </trkpt>
      <trkpt lat="44.274" lon="6.19102">
        <ele>1723.3005371</ele>
        <time>2013-10-16T10:29:14Z</time>
      </trkpt>
      <trkpt lat="44.274" lon="6.19102">
        <ele>1724.2619629</ele>
        <time>2013-10-16T10:29:36Z</time>
      </trkpt>
      <trkpt lat="44.274" lon="6.19102">
        <ele>1724.2619629</ele>
        <time>2013-10-16T10:29:37Z</time>
      </trkpt>
      <trkpt lat="44.274" lon="6.19102">
        <ele>1722.8198242</ele>
        <time>2013-10-16T10:29:54Z</time>
      </trkpt>
      <trkpt lat="44.274" lon="6.19102">
        <ele>1720.8972168</ele>
        <time>2013-10-16T10:30:00Z</time>
      </trkpt>
      <trkpt lat="44.274" lon="6.19102">
        <ele>1722.3391113</ele>
        <time>2013-10-16T10:30:18Z</time>
      </trkpt>
      <trkpt lat="44.27361" lon="6.19216">
        <ele>1720.8972168</ele>
        <time>2013-10-16T10:30:36Z</time>
      </trkpt>
      <trkpt lat="44.27354" lon="6.19222">
        <ele>1724.2619629</ele>
        <time>2013-10-16T10:30:50Z</time>
      </trkpt>
      <trkpt lat="44.2735" lon="6.19227">
        <ele>1724.2619629</ele>
        <time>2013-10-16T10:30:57Z</time>
      </trkpt>
      <trkpt lat="44.27345" lon="6.19228">
        <ele>1723.7810059</ele>
        <time>2013-10-16T10:31:01Z</time>
      </trkpt>
      <trkpt lat="44.27342" lon="6.19236">
        <ele>1724.2619629</ele>
        <time>2013-10-16T10:31:08Z</time>
      </trkpt>
      <trkpt lat="44.27336" lon="6.19245">
        <ele>1725.7038574</ele>
        <time>2013-10-16T10:31:20Z</time>
      </trkpt>
      <trkpt lat="44.27335" lon="6.19248">
        <ele>1725.2231445</ele>
        <time>2013-10-16T10:31:23Z</time>
      </trkpt>
      <trkpt lat="44.27326" lon="6.19256">
        <ele>1725.7038574</ele>
        <time>2013-10-16T10:31:36Z</time>
      </trkpt>
      <trkpt lat="44.27317" lon="6.1927">
        <ele>1728.5878906</ele>
        <time>2013-10-16T10:31:53Z</time>
      </trkpt>
      <trkpt lat="44.27313" lon="6.19277">
        <ele>1730.0297852</ele>
        <time>2013-10-16T10:32:01Z</time>
      </trkpt>
      <trkpt lat="44.27306" lon="6.19288">
        <ele>1732.4331055</ele>
        <time>2013-10-16T10:32:16Z</time>
      </trkpt>
      <trkpt lat="44.27299" lon="6.193">
        <ele>1733.875</ele>
        <time>2013-10-16T10:32:30Z</time>
      </trkpt>
      <trkpt lat="44.27297" lon="6.19326">
        <ele>1733.875</ele>
        <time>2013-10-16T10:32:49Z</time>
      </trkpt>
      <trkpt lat="44.27299" lon="6.19347">
        <ele>1735.7976074</ele>
        <time>2013-10-16T10:33:04Z</time>
      </trkpt>
      <trkpt lat="44.27294" lon="6.19359">
        <ele>1739.1621094</ele>
        <time>2013-10-16T10:33:24Z</time>
      </trkpt>
      <trkpt lat="44.2729" lon="6.19373">
        <ele>1741.0849609</ele>
        <time>2013-10-16T10:33:40Z</time>
      </trkpt>
      <trkpt lat="44.27286" lon="6.19375">
        <ele>1741.0849609</ele>
        <time>2013-10-16T10:33:49Z</time>
      </trkpt>
      <trkpt lat="44.27283" lon="6.19374">
        <ele>1741.5656738</ele>
        <time>2013-10-16T10:34:08Z</time>
      </trkpt>
      <trkpt lat="44.27272" lon="6.19393">
        <ele>1744.9301758</ele>
        <time>2013-10-16T10:34:37Z</time>
      </trkpt>
      <trkpt lat="44.27251" lon="6.19412">
        <ele>1748.2946777</ele>
        <time>2013-10-16T10:35:05Z</time>
      </trkpt>
      <trkpt lat="44.27239" lon="6.19442">
        <ele>1750.697998</ele>
        <time>2013-10-16T10:35:32Z</time>
      </trkpt>
      <trkpt lat="44.27234" lon="6.19441">
        <ele>1751.6594238</ele>
        <time>2013-10-16T10:35:36Z</time>
      </trkpt>
      <trkpt lat="44.27234" lon="6.19447">
        <ele>1750.697998</ele>
        <time>2013-10-16T10:35:50Z</time>
      </trkpt>
      <trkpt lat="44.27203" lon="6.19454">
        <ele>1751.6594238</ele>
        <time>2013-10-16T10:36:20Z</time>
      </trkpt>
      <trkpt lat="44.2717" lon="6.19443">
        <ele>1751.6594238</ele>
        <time>2013-10-16T10:36:45Z</time>
      </trkpt>
      <trkpt lat="44.27169" lon="6.19446">
        <ele>1755.0239258</ele>
        <time>2013-10-16T10:37:03Z</time>
      </trkpt>
      <trkpt lat="44.27182" lon="6.19508">
        <ele>1758.3886719</ele>
        <time>2013-10-16T10:37:26Z</time>
      </trkpt>
      <trkpt lat="44.27198" lon="6.19562">
        <ele>1759.8305664</ele>
        <time>2013-10-16T10:38:09Z</time>
      </trkpt>
      <trkpt lat="44.27198" lon="6.196">
        <ele>1759.3500977</ele>
        <time>2013-10-16T10:38:41Z</time>
      </trkpt>
      <trkpt lat="44.27206" lon="6.19631">
        <ele>1762.7145996</ele>
        <time>2013-10-16T10:39:06Z</time>
      </trkpt>
      <trkpt lat="44.27196" lon="6.19637">
        <ele>1765.5986328</ele>
        <time>2013-10-16T10:39:26Z</time>
      </trkpt>
      <trkpt lat="44.27223" lon="6.19641">
        <ele>1766.5598145</ele>
        <time>2013-10-16T10:39:56Z</time>
      </trkpt>
      <trkpt lat="44.27243" lon="6.1965">
        <ele>1766.5598145</ele>
        <time>2013-10-16T10:40:32Z</time>
      </trkpt>
      <trkpt lat="44.27259" lon="6.19653">
        <ele>1768.9631348</ele>
        <time>2013-10-16T10:41:01Z</time>
      </trkpt>
      <trkpt lat="44.27266" lon="6.19659">
        <ele>1769.9243164</ele>
        <time>2013-10-16T10:41:07Z</time>
      </trkpt>
      <trkpt lat="44.27278" lon="6.19672">
        <ele>1772.8085938</ele>
        <time>2013-10-16T10:41:23Z</time>
      </trkpt>
      <trkpt lat="44.27278" lon="6.19678">
        <ele>1775.2116699</ele>
        <time>2013-10-16T10:41:37Z</time>
      </trkpt>
      <trkpt lat="44.27285" lon="6.1969">
        <ele>1778.0957031</ele>
        <time>2013-10-16T10:41:55Z</time>
      </trkpt>
      <trkpt lat="44.27289" lon="6.19712">
        <ele>1780.4990234</ele>
        <time>2013-10-16T10:42:10Z</time>
      </trkpt>
      <trkpt lat="44.2729" lon="6.19726">
        <ele>1782.4216309</ele>
        <time>2013-10-16T10:42:25Z</time>
      </trkpt>
      <trkpt lat="44.27275" lon="6.19732">
        <ele>1785.7861328</ele>
        <time>2013-10-16T10:42:42Z</time>
      </trkpt>
      <trkpt lat="44.27267" lon="6.19739">
        <ele>1789.1508789</ele>
        <time>2013-10-16T10:43:02Z</time>
      </trkpt>
      <trkpt lat="44.27267" lon="6.19738">
        <ele>1791.0734863</ele>
        <time>2013-10-16T10:43:37Z</time>
      </trkpt>
      <trkpt lat="44.27265" lon="6.19738">
        <ele>1791.5541992</ele>
        <time>2013-10-16T10:43:44Z</time>
      </trkpt>
      <trkpt lat="44.27245" lon="6.1974">
        <ele>1793.9575195</ele>
        <time>2013-10-16T10:44:01Z</time>
      </trkpt>
      <trkpt lat="44.27243" lon="6.19747">
        <ele>1796.3608398</ele>
        <time>2013-10-16T10:44:15Z</time>
      </trkpt>
      <trkpt lat="44.27234" lon="6.19754">
        <ele>1798.763916</ele>
        <time>2013-10-16T10:44:29Z</time>
      </trkpt>
      <trkpt lat="44.27227" lon="6.19756">
        <ele>1801.1672363</ele>
        <time>2013-10-16T10:44:44Z</time>
      </trkpt>
      <trkpt lat="44.27214" lon="6.19764">
        <ele>1804.5319824</ele>
        <time>2013-10-16T10:45:03Z</time>
      </trkpt>
      <trkpt lat="44.27209" lon="6.19772">
        <ele>1807.8967285</ele>
        <time>2013-10-16T10:45:23Z</time>
      </trkpt>
      <trkpt lat="44.27192" lon="6.19766">
        <ele>1810.7805176</ele>
        <time>2013-10-16T10:45:45Z</time>
      </trkpt>
      <trkpt lat="44.27187" lon="6.19772">
        <ele>1814.1450195</ele>
        <time>2013-10-16T10:46:03Z</time>
      </trkpt>
      <trkpt lat="44.27181" lon="6.19771">
        <ele>1817.0290527</ele>
        <time>2013-10-16T10:46:22Z</time>
      </trkpt>
      <trkpt lat="44.27171" lon="6.19768">
        <ele>1818.9516602</ele>
        <time>2013-10-16T10:46:40Z</time>
      </trkpt>
      <trkpt lat="44.27163" lon="6.1977">
        <ele>1821.8356934</ele>
        <time>2013-10-16T10:47:01Z</time>
      </trkpt>
      <trkpt lat="44.27158" lon="6.19761">
        <ele>1823.7583008</ele>
        <time>2013-10-16T10:47:18Z</time>
      </trkpt>
      <trkpt lat="44.2715" lon="6.19758">
        <ele>1825.2001953</ele>
        <time>2013-10-16T10:47:39Z</time>
      </trkpt>
      <trkpt lat="44.27143" lon="6.19766">
        <ele>1827.6035156</ele>
        <time>2013-10-16T10:47:58Z</time>
      </trkpt>
      <trkpt lat="44.27137" lon="6.19771">
        <ele>1830.0068359</ele>
        <time>2013-10-16T10:48:16Z</time>
      </trkpt>
      <trkpt lat="44.27126" lon="6.19772">
        <ele>1832.890625</ele>
        <time>2013-10-16T10:48:39Z</time>
      </trkpt>
      <trkpt lat="44.27119" lon="6.19777">
        <ele>1834.8134766</ele>
        <time>2013-10-16T10:48:53Z</time>
      </trkpt>
      <trkpt lat="44.27112" lon="6.19794">
        <ele>1838.1782227</ele>
        <time>2013-10-16T10:49:15Z</time>
      </trkpt>
      <trkpt lat="44.27106" lon="6.19792">
        <ele>1840.1008301</ele>
        <time>2013-10-16T10:49:31Z</time>
      </trkpt>
      <trkpt lat="44.27102" lon="6.19782">
        <ele>1841.0620117</ele>
        <time>2013-10-16T10:49:40Z</time>
      </trkpt>
      <trkpt lat="44.27093" lon="6.19768">
        <ele>1842.5041504</ele>
        <time>2013-10-16T10:49:56Z</time>
      </trkpt>
      <trkpt lat="44.27084" lon="6.19763">
        <ele>1844.4265137</ele>
        <time>2013-10-16T10:50:11Z</time>
      </trkpt>
      <trkpt lat="44.27072" lon="6.19755">
        <ele>1847.7912598</ele>
        <time>2013-10-16T10:50:29Z</time>
      </trkpt>
      <trkpt lat="44.27065" lon="6.1976">
        <ele>1850.1945801</ele>
        <time>2013-10-16T10:50:47Z</time>
      </trkpt>
      <trkpt lat="44.27053" lon="6.19746">
        <ele>1851.1557617</ele>
        <time>2013-10-16T10:52:37Z</time>
      </trkpt>
      <trkpt lat="44.2705" lon="6.19744">
        <ele>1852.1171875</ele>
        <time>2013-10-16T10:52:40Z</time>
      </trkpt>
      <trkpt lat="44.2703" lon="6.19728">
        <ele>1854.0400391</ele>
        <time>2013-10-16T10:53:01Z</time>
      </trkpt>
      <trkpt lat="44.27029" lon="6.19727">
        <ele>1854.0400391</ele>
        <time>2013-10-16T10:53:02Z</time>
      </trkpt>
      <trkpt lat="44.27022" lon="6.19719">
        <ele>1854.5205078</ele>
        <time>2013-10-16T10:53:09Z</time>
      </trkpt>
      <trkpt lat="44.27009" lon="6.19714">
        <ele>1855.9624023</ele>
        <time>2013-10-16T10:53:27Z</time>
      </trkpt>
      <trkpt lat="44.26995" lon="6.19703">
        <ele>1857.8852539</ele>
        <time>2013-10-16T10:53:45Z</time>
      </trkpt>
      <trkpt lat="44.26978" lon="6.19684">
        <ele>1860.2883301</ele>
        <time>2013-10-16T10:54:05Z</time>
      </trkpt>
      <trkpt lat="44.26967" lon="6.19674">
        <ele>1861.7304688</ele>
        <time>2013-10-16T10:54:23Z</time>
      </trkpt>
      <trkpt lat="44.26954" lon="6.19672">
        <ele>1864.6142578</ele>
        <time>2013-10-16T10:54:42Z</time>
      </trkpt>
      <trkpt lat="44.26936" lon="6.19662">
        <ele>1867.4980469</ele>
        <time>2013-10-16T10:55:07Z</time>
      </trkpt>
      <trkpt lat="44.26921" lon="6.19644">
        <ele>1869.9016113</ele>
        <time>2013-10-16T10:55:25Z</time>
      </trkpt>
      <trkpt lat="44.26922" lon="6.19643">
        <ele>1873.2663574</ele>
        <time>2013-10-16T10:55:44Z</time>
      </trkpt>
      <trkpt lat="44.26923" lon="6.19645">
        <ele>1873.2663574</ele>
        <time>2013-10-16T10:55:48Z</time>
      </trkpt>
      <trkpt lat="44.2692" lon="6.19637">
        <ele>1874.2275391</ele>
        <time>2013-10-16T10:55:59Z</time>
      </trkpt>
      <trkpt lat="44.2692" lon="6.19631">
        <ele>1876.1501465</ele>
        <time>2013-10-16T10:56:10Z</time>
      </trkpt>
      <trkpt lat="44.26907" lon="6.19614">
        <ele>1876.1501465</ele>
        <time>2013-10-16T10:56:23Z</time>
      </trkpt>
      <trkpt lat="44.26896" lon="6.19614">
        <ele>1877.1115723</ele>
        <time>2013-10-16T10:56:37Z</time>
      </trkpt>
      <trkpt lat="44.26892" lon="6.19611">
        <ele>1877.1115723</ele>
        <time>2013-10-16T10:56:41Z</time>
      </trkpt>
      <trkpt lat="44.26879" lon="6.19582">
        <ele>1877.1115723</ele>
        <time>2013-10-16T10:56:58Z</time>
      </trkpt>
      <trkpt lat="44.26867" lon="6.19564">
        <ele>1877.592041</ele>
        <time>2013-10-16T10:57:16Z</time>
      </trkpt>
      <trkpt lat="44.26858" lon="6.19545">
        <ele>1879.0339355</ele>
        <time>2013-10-16T10:57:33Z</time>
      </trkpt>
      <trkpt lat="44.2685" lon="6.19524">
        <ele>1879.0339355</ele>
        <time>2013-10-16T10:57:47Z</time>
      </trkpt>
      <trkpt lat="44.26843" lon="6.1951">
        <ele>1880.4760742</ele>
        <time>2013-10-16T10:58:00Z</time>
      </trkpt>
      <trkpt lat="44.26857" lon="6.19498">
        <ele>1883.3598633</ele>
        <time>2013-10-16T10:58:20Z</time>
      </trkpt>
      <trkpt lat="44.26856" lon="6.19495">
        <ele>1883.8405762</ele>
        <time>2013-10-16T10:58:23Z</time>
      </trkpt>
      <trkpt lat="44.26853" lon="6.19484">
        <ele>1886.2441406</ele>
        <time>2013-10-16T10:58:40Z</time>
      </trkpt>
      <trkpt lat="44.26852" lon="6.19475">
        <ele>1887.6860352</ele>
        <time>2013-10-16T10:58:50Z</time>
      </trkpt>
      <trkpt lat="44.26851" lon="6.19455">
        <ele>1891.0505371</ele>
        <time>2013-10-16T10:59:13Z</time>
      </trkpt>
      <trkpt lat="44.26847" lon="6.19445">
        <ele>1893.9345703</ele>
        <time>2013-10-16T10:59:31Z</time>
      </trkpt>
      <trkpt lat="44.26846" lon="6.19431">
        <ele>1896.8183594</ele>
        <time>2013-10-16T10:59:52Z</time>
      </trkpt>
      <trkpt lat="44.26843" lon="6.19414">
        <ele>1899.2216797</ele>
        <time>2013-10-16T11:00:15Z</time>
      </trkpt>
      <trkpt lat="44.26839" lon="6.19401">
        <ele>1900.1833496</ele>
        <time>2013-10-16T11:00:32Z</time>
      </trkpt>
      <trkpt lat="44.26837" lon="6.19388">
        <ele>1903.0671387</ele>
        <time>2013-10-16T11:00:50Z</time>
      </trkpt>
      <trkpt lat="44.26842" lon="6.19372">
        <ele>1905.470459</ele>
        <time>2013-10-16T11:01:09Z</time>
      </trkpt>
      <trkpt lat="44.26851" lon="6.19357">
        <ele>1907.3930664</ele>
        <time>2013-10-16T11:01:25Z</time>
      </trkpt>
      <trkpt lat="44.26853" lon="6.19347">
        <ele>1908.8349609</ele>
        <time>2013-10-16T11:01:38Z</time>
      </trkpt>
      <trkpt lat="44.26854" lon="6.19333">
        <ele>1911.7189941</ele>
        <time>2013-10-16T11:01:56Z</time>
      </trkpt>
      <trkpt lat="44.26864" lon="6.19315">
        <ele>1914.1220703</ele>
        <time>2013-10-16T11:02:18Z</time>
      </trkpt>
      <trkpt lat="44.26871" lon="6.19297">
        <ele>1917.4868164</ele>
        <time>2013-10-16T11:02:41Z</time>
      </trkpt>
      <trkpt lat="44.26877" lon="6.19272">
        <ele>1920.3708496</ele>
        <time>2013-10-16T11:03:07Z</time>
      </trkpt>
      <trkpt lat="44.2688" lon="6.19254">
        <ele>1922.293457</ele>
        <time>2013-10-16T11:03:28Z</time>
      </trkpt>
      <trkpt lat="44.26886" lon="6.19241">
        <ele>1925.657959</ele>
        <time>2013-10-16T11:03:48Z</time>
      </trkpt>
      <trkpt lat="44.26889" lon="6.19228">
        <ele>1927.1000977</ele>
        <time>2013-10-16T11:04:04Z</time>
      </trkpt>
      <trkpt lat="44.26896" lon="6.19212">
        <ele>1926.1386719</ele>
        <time>2013-10-16T11:04:30Z</time>
      </trkpt>
      <trkpt lat="44.26899" lon="6.19207">
        <ele>1924.2160645</ele>
        <time>2013-10-16T11:04:44Z</time>
      </trkpt>
      <trkpt lat="44.26907" lon="6.19189">
        <ele>1921.3320313</ele>
        <time>2013-10-16T11:05:04Z</time>
      </trkpt>
      <trkpt lat="44.26912" lon="6.19181">
        <ele>1919.8901367</ele>
        <time>2013-10-16T11:05:20Z</time>
      </trkpt>
      <trkpt lat="44.26919" lon="6.19174">
        <ele>1918.4482422</ele>
        <time>2013-10-16T11:05:35Z</time>
      </trkpt>
      <trkpt lat="44.26919" lon="6.19164">
        <ele>1915.564209</ele>
        <time>2013-10-16T11:05:53Z</time>
      </trkpt>
      <trkpt lat="44.26924" lon="6.19145">
        <ele>1915.0834961</ele>
        <time>2013-10-16T11:06:13Z</time>
      </trkpt>
      <trkpt lat="44.26929" lon="6.19139">
        <ele>1914.6027832</ele>
        <time>2013-10-16T11:06:21Z</time>
      </trkpt>
      <trkpt lat="44.26944" lon="6.19129">
        <ele>1914.1220703</ele>
        <time>2013-10-16T11:06:43Z</time>
      </trkpt>
      <trkpt lat="44.26952" lon="6.19111">
        <ele>1912.1994629</ele>
        <time>2013-10-16T11:07:00Z</time>
      </trkpt>
      <trkpt lat="44.26959" lon="6.19102">
        <ele>1910.7575684</ele>
        <time>2013-10-16T11:07:20Z</time>
      </trkpt>
      <trkpt lat="44.26965" lon="6.19077">
        <ele>1913.1608887</ele>
        <time>2013-10-16T11:07:41Z</time>
      </trkpt>
      <trkpt lat="44.26971" lon="6.19055">
        <ele>1914.1220703</ele>
        <time>2013-10-16T11:08:01Z</time>
      </trkpt>
      <trkpt lat="44.26976" lon="6.19045">
        <ele>1913.6413574</ele>
        <time>2013-10-16T11:08:12Z</time>
      </trkpt>
      <trkpt lat="44.2699" lon="6.19024">
        <ele>1913.6413574</ele>
        <time>2013-10-16T11:08:32Z</time>
      </trkpt>
      <trkpt lat="44.26992" lon="6.19002">
        <ele>1915.564209</ele>
        <time>2013-10-16T11:08:51Z</time>
      </trkpt>
      <trkpt lat="44.26994" lon="6.18984">
        <ele>1917.4868164</ele>
        <time>2013-10-16T11:09:07Z</time>
      </trkpt>
      <trkpt lat="44.26989" lon="6.18958">
        <ele>1917.4868164</ele>
        <time>2013-10-16T11:09:31Z</time>
      </trkpt>
      <trkpt lat="44.26985" lon="6.1895">
        <ele>1916.5256348</ele>
        <time>2013-10-16T11:09:45Z</time>
      </trkpt>
      <trkpt lat="44.26979" lon="6.1894">
        <ele>1916.5256348</ele>
        <time>2013-10-16T11:09:54Z</time>
      </trkpt>
      <trkpt lat="44.26971" lon="6.1892">
        <ele>1917.4868164</ele>
        <time>2013-10-16T11:10:11Z</time>
      </trkpt>
      <trkpt lat="44.2697" lon="6.18916">
        <ele>1917.4868164</ele>
        <time>2013-10-16T11:10:14Z</time>
      </trkpt>
      <trkpt lat="44.26971" lon="6.189">
        <ele>1917.9675293</ele>
        <time>2013-10-16T11:10:25Z</time>
      </trkpt>
      <trkpt lat="44.26972" lon="6.18878">
        <ele>1918.9289551</ele>
        <time>2013-10-16T11:10:41Z</time>
      </trkpt>
      <trkpt lat="44.26972" lon="6.18863">
        <ele>1919.409668</ele>
        <time>2013-10-16T11:10:55Z</time>
      </trkpt>
      <trkpt lat="44.26974" lon="6.18837">
        <ele>1918.9289551</ele>
        <time>2013-10-16T11:11:15Z</time>
      </trkpt>
      <trkpt lat="44.26972" lon="6.18814">
        <ele>1919.409668</ele>
        <time>2013-10-16T11:11:34Z</time>
      </trkpt>
      <trkpt lat="44.2697" lon="6.1881">
        <ele>1919.409668</ele>
        <time>2013-10-16T11:11:39Z</time>
      </trkpt>
      <trkpt lat="44.26966" lon="6.18792">
        <ele>1917.0063477</ele>
        <time>2013-10-16T11:11:56Z</time>
      </trkpt>
      <trkpt lat="44.26966" lon="6.1878">
        <ele>1914.6027832</ele>
        <time>2013-10-16T11:12:06Z</time>
      </trkpt>
      <trkpt lat="44.2697" lon="6.18756">
        <ele>1912.6801758</ele>
        <time>2013-10-16T11:12:26Z</time>
      </trkpt>
      <trkpt lat="44.26976" lon="6.18729">
        <ele>1910.2768555</ele>
        <time>2013-10-16T11:12:51Z</time>
      </trkpt>
      <trkpt lat="44.26979" lon="6.18709">
        <ele>1909.3156738</ele>
        <time>2013-10-16T11:13:10Z</time>
      </trkpt>
      <trkpt lat="44.26986" lon="6.18677">
        <ele>1909.3156738</ele>
        <time>2013-10-16T11:13:37Z</time>
      </trkpt>
      <trkpt lat="44.26989" lon="6.18669">
        <ele>1908.354248</ele>
        <time>2013-10-16T11:13:57Z</time>
      </trkpt>
      <trkpt lat="44.26997" lon="6.18642">
        <ele>1907.3930664</ele>
        <time>2013-10-16T11:14:20Z</time>
      </trkpt>
      <trkpt lat="44.26996" lon="6.18635">
        <ele>1908.8349609</ele>
        <time>2013-10-16T11:14:27Z</time>
      </trkpt>
      <trkpt lat="44.26995" lon="6.18624">
        <ele>1910.7575684</ele>
        <time>2013-10-16T11:14:39Z</time>
      </trkpt>
      <trkpt lat="44.26993" lon="6.18617">
        <ele>1911.7189941</ele>
        <time>2013-10-16T11:14:47Z</time>
      </trkpt>
      <trkpt lat="44.26987" lon="6.18612">
        <ele>1914.1220703</ele>
        <time>2013-10-16T11:14:59Z</time>
      </trkpt>
      <trkpt lat="44.26986" lon="6.18612">
        <ele>1916.0449219</ele>
        <time>2013-10-16T11:15:19Z</time>
      </trkpt>
      <trkpt lat="44.26986" lon="6.18612">
        <ele>1917.4868164</ele>
        <time>2013-10-16T11:16:03Z</time>
      </trkpt>
      <trkpt lat="44.26986" lon="6.18612">
        <ele>1918.4482422</ele>
        <time>2013-10-16T11:18:15Z</time>
      </trkpt>
      <trkpt lat="44.26986" lon="6.18612">
        <ele>1917.0063477</ele>
        <time>2013-10-16T11:18:43Z</time>
      </trkpt>
      <trkpt lat="44.26986" lon="6.18612">
        <ele>1918.9289551</ele>
        <time>2013-10-16T11:18:47Z</time>
      </trkpt>
      <trkpt lat="44.26986" lon="6.18612">
        <ele>1917.4868164</ele>
        <time>2013-10-16T11:23:12Z</time>
      </trkpt>
      <trkpt lat="44.26986" lon="6.18612">
        <ele>1919.8901367</ele>
        <time>2013-10-16T11:23:14Z</time>
      </trkpt>
      <trkpt lat="44.26986" lon="6.18612">
        <ele>1917.9675293</ele>
        <time>2013-10-16T11:23:19Z</time>
      </trkpt>
      <trkpt lat="44.26985" lon="6.1861">
        <ele>1914.6027832</ele>
        <time>2013-10-16T11:23:41Z</time>
      </trkpt>
      <trkpt lat="44.26987" lon="6.18599">
        <ele>1911.7189941</ele>
        <time>2013-10-16T11:24:02Z</time>
      </trkpt>
      <trkpt lat="44.26987" lon="6.1859">
        <ele>1908.354248</ele>
        <time>2013-10-16T11:24:18Z</time>
      </trkpt>
      <trkpt lat="44.26991" lon="6.1859">
        <ele>1906.4316406</ele>
        <time>2013-10-16T11:24:36Z</time>
      </trkpt>
      <trkpt lat="44.26992" lon="6.18582">
        <ele>1903.5478516</ele>
        <time>2013-10-16T11:24:48Z</time>
      </trkpt>
      <trkpt lat="44.26995" lon="6.18575">
        <ele>1901.6252441</ele>
        <time>2013-10-16T11:25:03Z</time>
      </trkpt>
      <trkpt lat="44.26989" lon="6.18572">
        <ele>1898.2602539</ele>
        <time>2013-10-16T11:25:23Z</time>
      </trkpt>
      <trkpt lat="44.26987" lon="6.18561">
        <ele>1896.8183594</ele>
        <time>2013-10-16T11:25:38Z</time>
      </trkpt>
      <trkpt lat="44.26979" lon="6.18542">
        <ele>1893.4538574</ele>
        <time>2013-10-16T11:25:57Z</time>
      </trkpt>
      <trkpt lat="44.26977" lon="6.18536">
        <ele>1892.4926758</ele>
        <time>2013-10-16T11:26:00Z</time>
      </trkpt>
      <trkpt lat="44.26982" lon="6.18532">
        <ele>1891.0505371</ele>
        <time>2013-10-16T11:26:07Z</time>
      </trkpt>
      <trkpt lat="44.26985" lon="6.18527">
        <ele>1889.6086426</ele>
        <time>2013-10-16T11:26:20Z</time>
      </trkpt>
      <trkpt lat="44.26993" lon="6.18525">
        <ele>1888.6474609</ele>
        <time>2013-10-16T11:26:36Z</time>
      </trkpt>
      <trkpt lat="44.26991" lon="6.1852">
        <ele>1885.2827148</ele>
        <time>2013-10-16T11:26:48Z</time>
      </trkpt>
      <trkpt lat="44.2698" lon="6.1851">
        <ele>1882.3986816</ele>
        <time>2013-10-16T11:27:06Z</time>
      </trkpt>
      <trkpt lat="44.26981" lon="6.18503">
        <ele>1879.5146484</ele>
        <time>2013-10-16T11:27:15Z</time>
      </trkpt>
      <trkpt lat="44.26984" lon="6.18493">
        <ele>1876.1501465</ele>
        <time>2013-10-16T11:27:28Z</time>
      </trkpt>
      <trkpt lat="44.26984" lon="6.18493">
        <ele>1876.1501465</ele>
        <time>2013-10-16T11:27:29Z</time>
      </trkpt>
      <trkpt lat="44.26986" lon="6.18483">
        <ele>1875.1887207</ele>
        <time>2013-10-16T11:27:42Z</time>
      </trkpt>
      <trkpt lat="44.26986" lon="6.18481">
        <ele>1874.708252</ele>
        <time>2013-10-16T11:27:43Z</time>
      </trkpt>
      <trkpt lat="44.26988" lon="6.18479">
        <ele>1872.7856445</ele>
        <time>2013-10-16T11:27:45Z</time>
      </trkpt>
      <trkpt lat="44.26991" lon="6.18478">
        <ele>1872.7856445</ele>
        <time>2013-10-16T11:27:47Z</time>
      </trkpt>
      <trkpt lat="44.26991" lon="6.18475">
        <ele>1874.2275391</ele>
        <time>2013-10-16T11:27:49Z</time>
      </trkpt>
      <trkpt lat="44.26992" lon="6.18468">
        <ele>1872.3049316</ele>
        <time>2013-10-16T11:27:55Z</time>
      </trkpt>
      <trkpt lat="44.26986" lon="6.18461">
        <ele>1869.9016113</ele>
        <time>2013-10-16T11:28:12Z</time>
      </trkpt>
      <trkpt lat="44.26988" lon="6.1846">
        <ele>1868.4597168</ele>
        <time>2013-10-16T11:28:17Z</time>
      </trkpt>
      <trkpt lat="44.26988" lon="6.18454">
        <ele>1867.4980469</ele>
        <time>2013-10-16T11:28:31Z</time>
      </trkpt>
      <trkpt lat="44.26983" lon="6.18452">
        <ele>1865.5756836</ele>
        <time>2013-10-16T11:28:43Z</time>
      </trkpt>
      <trkpt lat="44.26992" lon="6.18447">
        <ele>1863.1723633</ele>
        <time>2013-10-16T11:28:57Z</time>
      </trkpt>
      <trkpt lat="44.26991" lon="6.18434">
        <ele>1860.769043</ele>
        <time>2013-10-16T11:29:16Z</time>
      </trkpt>
      <trkpt lat="44.27" lon="6.18434">
        <ele>1859.8076172</ele>
        <time>2013-10-16T11:29:24Z</time>
      </trkpt>
      <trkpt lat="44.26994" lon="6.18422">
        <ele>1855.9624023</ele>
        <time>2013-10-16T11:29:44Z</time>
      </trkpt>
      <trkpt lat="44.26996" lon="6.1841">
        <ele>1855.0012207</ele>
        <time>2013-10-16T11:30:01Z</time>
      </trkpt>
      <trkpt lat="44.26992" lon="6.184">
        <ele>1851.6364746</ele>
        <time>2013-10-16T11:30:16Z</time>
      </trkpt>
      <trkpt lat="44.2699" lon="6.18392">
        <ele>1849.2331543</ele>
        <time>2013-10-16T11:30:28Z</time>
      </trkpt>
      <trkpt lat="44.26989" lon="6.18387">
        <ele>1847.7912598</ele>
        <time>2013-10-16T11:30:32Z</time>
      </trkpt>
      <trkpt lat="44.2699" lon="6.18383">
        <ele>1847.3105469</ele>
        <time>2013-10-16T11:30:36Z</time>
      </trkpt>
      <trkpt lat="44.26992" lon="6.18377">
        <ele>1845.3879395</ele>
        <time>2013-10-16T11:30:43Z</time>
      </trkpt>
      <trkpt lat="44.26991" lon="6.18368">
        <ele>1842.9846191</ele>
        <time>2013-10-16T11:30:48Z</time>
      </trkpt>
      <trkpt lat="44.2699" lon="6.18368">
        <ele>1842.9846191</ele>
        <time>2013-10-16T11:30:49Z</time>
      </trkpt>
      <trkpt lat="44.2699" lon="6.18359">
        <ele>1841.0620117</ele>
        <time>2013-10-16T11:30:56Z</time>
      </trkpt>
      <trkpt lat="44.2698" lon="6.18346">
        <ele>1838.6589355</ele>
        <time>2013-10-16T11:31:10Z</time>
      </trkpt>
      <trkpt lat="44.26977" lon="6.18329">
        <ele>1835.7746582</ele>
        <time>2013-10-16T11:31:28Z</time>
      </trkpt>
      <trkpt lat="44.26973" lon="6.18303">
        <ele>1832.890625</ele>
        <time>2013-10-16T11:31:44Z</time>
      </trkpt>
      <trkpt lat="44.26968" lon="6.18282">
        <ele>1829.526123</ele>
        <time>2013-10-16T11:32:01Z</time>
      </trkpt>
      <trkpt lat="44.26965" lon="6.18257">
        <ele>1827.1230469</ele>
        <time>2013-10-16T11:32:19Z</time>
      </trkpt>
      <trkpt lat="44.26958" lon="6.18236">
        <ele>1826.642334</ele>
        <time>2013-10-16T11:32:32Z</time>
      </trkpt>
      <trkpt lat="44.26952" lon="6.18217">
        <ele>1828.5649414</ele>
        <time>2013-10-16T11:32:46Z</time>
      </trkpt>
      <trkpt lat="44.26945" lon="6.1819">
        <ele>1830.0068359</ele>
        <time>2013-10-16T11:33:04Z</time>
      </trkpt>
      <trkpt lat="44.26943" lon="6.18174">
        <ele>1830.0068359</ele>
        <time>2013-10-16T11:33:16Z</time>
      </trkpt>
      <trkpt lat="44.26933" lon="6.18148">
        <ele>1829.526123</ele>
        <time>2013-10-16T11:33:35Z</time>
      </trkpt>
      <trkpt lat="44.26925" lon="6.1812">
        <ele>1830.0068359</ele>
        <time>2013-10-16T11:33:57Z</time>
      </trkpt>
      <trkpt lat="44.26926" lon="6.18098">
        <ele>1831.4487305</ele>
        <time>2013-10-16T11:34:15Z</time>
      </trkpt>
      <trkpt lat="44.26922" lon="6.1808">
        <ele>1833.3713379</ele>
        <time>2013-10-16T11:34:29Z</time>
      </trkpt>
      <trkpt lat="44.26921" lon="6.18068">
        <ele>1834.3327637</ele>
        <time>2013-10-16T11:34:51Z</time>
      </trkpt>
      <trkpt lat="44.26918" lon="6.1805">
        <ele>1835.2939453</ele>
        <time>2013-10-16T11:35:04Z</time>
      </trkpt>
      <trkpt lat="44.26917" lon="6.18027">
        <ele>1835.2939453</ele>
        <time>2013-10-16T11:35:19Z</time>
      </trkpt>
      <trkpt lat="44.26914" lon="6.18013">
        <ele>1833.8520508</ele>
        <time>2013-10-16T11:35:33Z</time>
      </trkpt>
      <trkpt lat="44.26909" lon="6.18008">
        <ele>1833.3713379</ele>
        <time>2013-10-16T11:35:50Z</time>
      </trkpt>
      <trkpt lat="44.26909" lon="6.17984">
        <ele>1833.3713379</ele>
        <time>2013-10-16T11:36:07Z</time>
      </trkpt>
      <trkpt lat="44.2691" lon="6.17974">
        <ele>1832.890625</ele>
        <time>2013-10-16T11:36:16Z</time>
      </trkpt>
      <trkpt lat="44.26904" lon="6.17949">
        <ele>1831.9294434</ele>
        <time>2013-10-16T11:36:31Z</time>
      </trkpt>
      <trkpt lat="44.26899" lon="6.17923">
        <ele>1831.9294434</ele>
        <time>2013-10-16T11:36:50Z</time>
      </trkpt>
      <trkpt lat="44.26896" lon="6.1791">
        <ele>1832.4101563</ele>
        <time>2013-10-16T11:36:59Z</time>
      </trkpt>
      <trkpt lat="44.26893" lon="6.17896">
        <ele>1832.4101563</ele>
        <time>2013-10-16T11:37:09Z</time>
      </trkpt>
      <trkpt lat="44.26891" lon="6.1787">
        <ele>1831.9294434</ele>
        <time>2013-10-16T11:37:26Z</time>
      </trkpt>
      <trkpt lat="44.26891" lon="6.17853">
        <ele>1831.4487305</ele>
        <time>2013-10-16T11:37:39Z</time>
      </trkpt>
      <trkpt lat="44.26888" lon="6.1783">
        <ele>1829.526123</ele>
        <time>2013-10-16T11:38:01Z</time>
      </trkpt>
      <trkpt lat="44.26889" lon="6.17812">
        <ele>1826.642334</ele>
        <time>2013-10-16T11:38:18Z</time>
      </trkpt>
      <trkpt lat="44.26889" lon="6.17796">
        <ele>1827.1230469</ele>
        <time>2013-10-16T11:38:33Z</time>
      </trkpt>
      <trkpt lat="44.26887" lon="6.17785">
        <ele>1825.6809082</ele>
        <time>2013-10-16T11:38:40Z</time>
      </trkpt>
      <trkpt lat="44.26886" lon="6.17767">
        <ele>1825.2001953</ele>
        <time>2013-10-16T11:38:54Z</time>
      </trkpt>
      <trkpt lat="44.26887" lon="6.17745">
        <ele>1823.7583008</ele>
        <time>2013-10-16T11:39:10Z</time>
      </trkpt>
      <trkpt lat="44.26886" lon="6.17734">
        <ele>1822.3164063</ele>
        <time>2013-10-16T11:39:19Z</time>
      </trkpt>
      <trkpt lat="44.26887" lon="6.17726">
        <ele>1821.8356934</ele>
        <time>2013-10-16T11:39:28Z</time>
      </trkpt>
      <trkpt lat="44.2689" lon="6.177">
        <ele>1823.277832</ele>
        <time>2013-10-16T11:39:46Z</time>
      </trkpt>
      <trkpt lat="44.26891" lon="6.17694">
        <ele>1822.3164063</ele>
        <time>2013-10-16T11:39:52Z</time>
      </trkpt>
      <trkpt lat="44.26891" lon="6.17682">
        <ele>1821.8356934</ele>
        <time>2013-10-16T11:40:01Z</time>
      </trkpt>
      <trkpt lat="44.26892" lon="6.17678">
        <ele>1820.8745117</ele>
        <time>2013-10-16T11:40:03Z</time>
      </trkpt>
      <trkpt lat="44.26889" lon="6.17654">
        <ele>1819.432373</ele>
        <time>2013-10-16T11:40:22Z</time>
      </trkpt>
      <trkpt lat="44.26888" lon="6.17629">
        <ele>1817.9902344</ele>
        <time>2013-10-16T11:40:40Z</time>
      </trkpt>
      <trkpt lat="44.26893" lon="6.17607">
        <ele>1816.5483398</ele>
        <time>2013-10-16T11:40:57Z</time>
      </trkpt>
      <trkpt lat="44.26894" lon="6.17603">
        <ele>1817.0290527</ele>
        <time>2013-10-16T11:41:01Z</time>
      </trkpt>
      <trkpt lat="44.26895" lon="6.17599">
        <ele>1816.067627</ele>
        <time>2013-10-16T11:41:04Z</time>
      </trkpt>
      <trkpt lat="44.26896" lon="6.17579">
        <ele>1815.1064453</ele>
        <time>2013-10-16T11:41:21Z</time>
      </trkpt>
      <trkpt lat="44.26895" lon="6.17575">
        <ele>1815.1064453</ele>
        <time>2013-10-16T11:41:24Z</time>
      </trkpt>
      <trkpt lat="44.26896" lon="6.17556">
        <ele>1815.1064453</ele>
        <time>2013-10-16T11:41:38Z</time>
      </trkpt>
      <trkpt lat="44.26896" lon="6.17554">
        <ele>1815.5871582</ele>
        <time>2013-10-16T11:41:40Z</time>
      </trkpt>
      <trkpt lat="44.26895" lon="6.17547">
        <ele>1815.5871582</ele>
        <time>2013-10-16T11:41:45Z</time>
      </trkpt>
      <trkpt lat="44.26895" lon="6.17543">
        <ele>1815.1064453</ele>
        <time>2013-10-16T11:41:47Z</time>
      </trkpt>
      <trkpt lat="44.26898" lon="6.17534">
        <ele>1815.5871582</ele>
        <time>2013-10-16T11:41:54Z</time>
      </trkpt>
      <trkpt lat="44.26898" lon="6.17528">
        <ele>1815.1064453</ele>
        <time>2013-10-16T11:41:57Z</time>
      </trkpt>
      <trkpt lat="44.26902" lon="6.17519">
        <ele>1812.2224121</ele>
        <time>2013-10-16T11:42:11Z</time>
      </trkpt>
      <trkpt lat="44.26902" lon="6.17504">
        <ele>1811.2612305</ele>
        <time>2013-10-16T11:42:21Z</time>
      </trkpt>
      <trkpt lat="44.26898" lon="6.17473">
        <ele>1809.8190918</ele>
        <time>2013-10-16T11:42:41Z</time>
      </trkpt>
      <trkpt lat="44.26894" lon="6.17454">
        <ele>1807.4160156</ele>
        <time>2013-10-16T11:42:54Z</time>
      </trkpt>
      <trkpt lat="44.26897" lon="6.17445">
        <ele>1806.9353027</ele>
        <time>2013-10-16T11:43:04Z</time>
      </trkpt>
      <trkpt lat="44.269" lon="6.17419">
        <ele>1804.5319824</ele>
        <time>2013-10-16T11:43:23Z</time>
      </trkpt>
      <trkpt lat="44.26904" lon="6.17395">
        <ele>1802.128418</ele>
        <time>2013-10-16T11:43:40Z</time>
      </trkpt>
      <trkpt lat="44.26905" lon="6.17368">
        <ele>1800.6865234</ele>
        <time>2013-10-16T11:43:59Z</time>
      </trkpt>
      <trkpt lat="44.2691" lon="6.17349">
        <ele>1800.6865234</ele>
        <time>2013-10-16T11:44:14Z</time>
      </trkpt>
      <trkpt lat="44.26914" lon="6.17334">
        <ele>1802.128418</ele>
        <time>2013-10-16T11:44:25Z</time>
      </trkpt>
      <trkpt lat="44.26913" lon="6.1733">
        <ele>1800.6865234</ele>
        <time>2013-10-16T11:44:28Z</time>
      </trkpt>
      <trkpt lat="44.26912" lon="6.17324">
        <ele>1798.763916</ele>
        <time>2013-10-16T11:44:37Z</time>
      </trkpt>
      <trkpt lat="44.26914" lon="6.17318">
        <ele>1797.3220215</ele>
        <time>2013-10-16T11:44:53Z</time>
      </trkpt>
      <trkpt lat="44.26916" lon="6.17306">
        <ele>1796.3608398</ele>
        <time>2013-10-16T11:45:07Z</time>
      </trkpt>
      <trkpt lat="44.26917" lon="6.1729">
        <ele>1794.4379883</ele>
        <time>2013-10-16T11:45:23Z</time>
      </trkpt>
      <trkpt lat="44.26924" lon="6.17273">
        <ele>1796.3608398</ele>
        <time>2013-10-16T11:45:37Z</time>
      </trkpt>
      <trkpt lat="44.26924" lon="6.1726">
        <ele>1794.4379883</ele>
        <time>2013-10-16T11:45:48Z</time>
      </trkpt>
      <trkpt lat="44.26931" lon="6.17232">
        <ele>1794.4379883</ele>
        <time>2013-10-16T11:46:08Z</time>
      </trkpt>
      <trkpt lat="44.26932" lon="6.1721">
        <ele>1795.3994141</ele>
        <time>2013-10-16T11:46:24Z</time>
      </trkpt>
      <trkpt lat="44.26935" lon="6.17199">
        <ele>1796.3608398</ele>
        <time>2013-10-16T11:46:40Z</time>
      </trkpt>
      <trkpt lat="44.26935" lon="6.17192">
        <ele>1796.3608398</ele>
        <time>2013-10-16T11:46:45Z</time>
      </trkpt>
      <trkpt lat="44.26943" lon="6.1717">
        <ele>1797.8027344</ele>
        <time>2013-10-16T11:47:03Z</time>
      </trkpt>
      <trkpt lat="44.26947" lon="6.17146">
        <ele>1795.880127</ele>
        <time>2013-10-16T11:47:21Z</time>
      </trkpt>
      <trkpt lat="44.26947" lon="6.1714">
        <ele>1795.3994141</ele>
        <time>2013-10-16T11:47:43Z</time>
      </trkpt>
      <trkpt lat="44.2695" lon="6.17131">
        <ele>1795.880127</ele>
        <time>2013-10-16T11:48:00Z</time>
      </trkpt>
      <trkpt lat="44.26948" lon="6.17109">
        <ele>1793.9575195</ele>
        <time>2013-10-16T11:48:18Z</time>
      </trkpt>
      <trkpt lat="44.26948" lon="6.17098">
        <ele>1790.1123047</ele>
        <time>2013-10-16T11:48:29Z</time>
      </trkpt>
      <trkpt lat="44.26949" lon="6.17096">
        <ele>1789.1508789</ele>
        <time>2013-10-16T11:48:31Z</time>
      </trkpt>
      <trkpt lat="44.26946" lon="6.1708">
        <ele>1788.1896973</ele>
        <time>2013-10-16T11:48:45Z</time>
      </trkpt>
      <trkpt lat="44.26945" lon="6.17079">
        <ele>1786.7473145</ele>
        <time>2013-10-16T11:48:47Z</time>
      </trkpt>
      <trkpt lat="44.26945" lon="6.17081">
        <ele>1787.2280273</ele>
        <time>2013-10-16T11:49:12Z</time>
      </trkpt>
      <trkpt lat="44.26944" lon="6.17076">
        <ele>1785.7861328</ele>
        <time>2013-10-16T11:49:16Z</time>
      </trkpt>
      <trkpt lat="44.26945" lon="6.17072">
        <ele>1784.3442383</ele>
        <time>2013-10-16T11:49:19Z</time>
      </trkpt>
      <trkpt lat="44.26945" lon="6.17071">
        <ele>1785.7861328</ele>
        <time>2013-10-16T11:49:20Z</time>
      </trkpt>
      <trkpt lat="44.26945" lon="6.17065">
        <ele>1783.8635254</ele>
        <time>2013-10-16T11:49:26Z</time>
      </trkpt>
      <trkpt lat="44.26947" lon="6.1706">
        <ele>1781.940918</ele>
        <time>2013-10-16T11:49:31Z</time>
      </trkpt>
      <trkpt lat="44.26946" lon="6.17047">
        <ele>1778.576416</ele>
        <time>2013-10-16T11:49:44Z</time>
      </trkpt>
      <trkpt lat="44.26947" lon="6.17046">
        <ele>1778.576416</ele>
        <time>2013-10-16T11:49:45Z</time>
      </trkpt>
      <trkpt lat="44.26947" lon="6.17042">
        <ele>1779.0568848</ele>
        <time>2013-10-16T11:49:49Z</time>
      </trkpt>
      <trkpt lat="44.26947" lon="6.17037">
        <ele>1778.0957031</ele>
        <time>2013-10-16T11:49:54Z</time>
      </trkpt>
      <trkpt lat="44.26949" lon="6.17021">
        <ele>1775.6923828</ele>
        <time>2013-10-16T11:50:06Z</time>
      </trkpt>
      <trkpt lat="44.26951" lon="6.17016">
        <ele>1774.7312012</ele>
        <time>2013-10-16T11:50:10Z</time>
      </trkpt>
      <trkpt lat="44.26953" lon="6.17011">
        <ele>1774.7312012</ele>
        <time>2013-10-16T11:50:14Z</time>
      </trkpt>
      <trkpt lat="44.26954" lon="6.17003">
        <ele>1772.8085938</ele>
        <time>2013-10-16T11:50:20Z</time>
      </trkpt>
      <trkpt lat="44.26955" lon="6.16997">
        <ele>1771.8469238</ele>
        <time>2013-10-16T11:50:26Z</time>
      </trkpt>
      <trkpt lat="44.26956" lon="6.16995">
        <ele>1771.3662109</ele>
        <time>2013-10-16T11:50:28Z</time>
      </trkpt>
      <trkpt lat="44.26961" lon="6.16991">
        <ele>1769.4438477</ele>
        <time>2013-10-16T11:50:33Z</time>
      </trkpt>
      <trkpt lat="44.26964" lon="6.16988">
        <ele>1768.001709</ele>
        <time>2013-10-16T11:50:36Z</time>
      </trkpt>
      <trkpt lat="44.26962" lon="6.16987">
        <ele>1768.001709</ele>
        <time>2013-10-16T11:50:38Z</time>
      </trkpt>
      <trkpt lat="44.26961" lon="6.16975">
        <ele>1768.9631348</ele>
        <time>2013-10-16T11:50:51Z</time>
      </trkpt>
      <trkpt lat="44.26964" lon="6.16969">
        <ele>1767.5209961</ele>
        <time>2013-10-16T11:51:11Z</time>
      </trkpt>
      <trkpt lat="44.26966" lon="6.16961">
        <ele>1765.1179199</ele>
        <time>2013-10-16T11:51:22Z</time>
      </trkpt>
      <trkpt lat="44.26966" lon="6.16958">
        <ele>1761.753418</ele>
        <time>2013-10-16T11:51:26Z</time>
      </trkpt>
      <trkpt lat="44.26966" lon="6.16958">
        <ele>1761.753418</ele>
        <time>2013-10-16T11:51:27Z</time>
      </trkpt>
      <trkpt lat="44.26967" lon="6.16955">
        <ele>1763.1953125</ele>
        <time>2013-10-16T11:51:29Z</time>
      </trkpt>
      <trkpt lat="44.26966" lon="6.16953">
        <ele>1763.1953125</ele>
        <time>2013-10-16T11:51:38Z</time>
      </trkpt>
      <trkpt lat="44.26966" lon="6.16943">
        <ele>1760.7919922</ele>
        <time>2013-10-16T11:51:50Z</time>
      </trkpt>
      <trkpt lat="44.26969" lon="6.16941">
        <ele>1758.3886719</ele>
        <time>2013-10-16T11:51:57Z</time>
      </trkpt>
      <trkpt lat="44.2697" lon="6.16934">
        <ele>1755.0239258</ele>
        <time>2013-10-16T11:52:07Z</time>
      </trkpt>
      <trkpt lat="44.2697" lon="6.16933">
        <ele>1755.0239258</ele>
        <time>2013-10-16T11:52:08Z</time>
      </trkpt>
      <trkpt lat="44.26971" lon="6.16933">
        <ele>1754.5432129</ele>
        <time>2013-10-16T11:52:09Z</time>
      </trkpt>
      <trkpt lat="44.2698" lon="6.16926">
        <ele>1751.6594238</ele>
        <time>2013-10-16T11:52:24Z</time>
      </trkpt>
      <trkpt lat="44.26989" lon="6.16918">
        <ele>1748.7753906</ele>
        <time>2013-10-16T11:52:38Z</time>
      </trkpt>
      <trkpt lat="44.26996" lon="6.16909">
        <ele>1747.814209</ele>
        <time>2013-10-16T11:52:50Z</time>
      </trkpt>
      <trkpt lat="44.27011" lon="6.16883">
        <ele>1745.8916016</ele>
        <time>2013-10-16T11:53:15Z</time>
      </trkpt>
      <trkpt lat="44.27013" lon="6.16879">
        <ele>1744.4494629</ele>
        <time>2013-10-16T11:53:18Z</time>
      </trkpt>
      <trkpt lat="44.27014" lon="6.16877">
        <ele>1743.9689941</ele>
        <time>2013-10-16T11:53:20Z</time>
      </trkpt>
      <trkpt lat="44.27016" lon="6.16875">
        <ele>1743.4882813</ele>
        <time>2013-10-16T11:53:25Z</time>
      </trkpt>
      <trkpt lat="44.27023" lon="6.16859">
        <ele>1739.6428223</ele>
        <time>2013-10-16T11:53:43Z</time>
      </trkpt>
      <trkpt lat="44.27026" lon="6.16854">
        <ele>1737.7202148</ele>
        <time>2013-10-16T11:53:48Z</time>
      </trkpt>
      <trkpt lat="44.27027" lon="6.1685">
        <ele>1736.2783203</ele>
        <time>2013-10-16T11:53:54Z</time>
      </trkpt>
      <trkpt lat="44.27026" lon="6.16842">
        <ele>1737.239502</ele>
        <time>2013-10-16T11:53:59Z</time>
      </trkpt>
      <trkpt lat="44.27029" lon="6.1684">
        <ele>1735.3168945</ele>
        <time>2013-10-16T11:54:02Z</time>
      </trkpt>
      <trkpt lat="44.27031" lon="6.16839">
        <ele>1733.3942871</ele>
        <time>2013-10-16T11:54:07Z</time>
      </trkpt>
      <trkpt lat="44.27034" lon="6.16839">
        <ele>1731.9523926</ele>
        <time>2013-10-16T11:54:09Z</time>
      </trkpt>
      <trkpt lat="44.27035" lon="6.16831">
        <ele>1730.9912109</ele>
        <time>2013-10-16T11:54:18Z</time>
      </trkpt>
      <trkpt lat="44.27039" lon="6.1683">
        <ele>1729.0683594</ele>
        <time>2013-10-16T11:54:23Z</time>
      </trkpt>
      <trkpt lat="44.27044" lon="6.16821">
        <ele>1727.1459961</ele>
        <time>2013-10-16T11:54:38Z</time>
      </trkpt>
      <trkpt lat="44.27045" lon="6.16818">
        <ele>1725.7038574</ele>
        <time>2013-10-16T11:54:54Z</time>
      </trkpt>
      <trkpt lat="44.27052" lon="6.16809">
        <ele>1723.3005371</ele>
        <time>2013-10-16T11:55:02Z</time>
      </trkpt>
      <trkpt lat="44.27054" lon="6.16799">
        <ele>1722.3391113</ele>
        <time>2013-10-16T11:55:10Z</time>
      </trkpt>
      <trkpt lat="44.27057" lon="6.16782">
        <ele>1719.935791</ele>
        <time>2013-10-16T11:55:25Z</time>
      </trkpt>
      <trkpt lat="44.27067" lon="6.16763">
        <ele>1716.5712891</ele>
        <time>2013-10-16T11:55:45Z</time>
      </trkpt>
      <trkpt lat="44.27074" lon="6.1674">
        <ele>1713.6872559</ele>
        <time>2013-10-16T11:56:04Z</time>
      </trkpt>
      <trkpt lat="44.27076" lon="6.16735">
        <ele>1713.6872559</ele>
        <time>2013-10-16T11:56:08Z</time>
      </trkpt>
      <trkpt lat="44.27087" lon="6.16717">
        <ele>1712.7260742</ele>
        <time>2013-10-16T11:56:26Z</time>
      </trkpt>
      <trkpt lat="44.27098" lon="6.16711">
        <ele>1712.2453613</ele>
        <time>2013-10-16T11:56:34Z</time>
      </trkpt>
      <trkpt lat="44.27101" lon="6.1671">
        <ele>1712.2453613</ele>
        <time>2013-10-16T11:56:37Z</time>
      </trkpt>
      <trkpt lat="44.27108" lon="6.16698">
        <ele>1710.8034668</ele>
        <time>2013-10-16T11:56:48Z</time>
      </trkpt>
      <trkpt lat="44.27109" lon="6.16695">
        <ele>1709.3615723</ele>
        <time>2013-10-16T11:56:51Z</time>
      </trkpt>
      <trkpt lat="44.27113" lon="6.1669">
        <ele>1707.9194336</ele>
        <time>2013-10-16T11:57:00Z</time>
      </trkpt>
      <trkpt lat="44.27117" lon="6.16685">
        <ele>1706.9580078</ele>
        <time>2013-10-16T11:57:06Z</time>
      </trkpt>
      <trkpt lat="44.27117" lon="6.16682">
        <ele>1706.9580078</ele>
        <time>2013-10-16T11:57:09Z</time>
      </trkpt>
      <trkpt lat="44.27119" lon="6.16681">
        <ele>1705.5161133</ele>
        <time>2013-10-16T11:57:12Z</time>
      </trkpt>
      <trkpt lat="44.2713" lon="6.16671">
        <ele>1703.5935059</ele>
        <time>2013-10-16T11:57:26Z</time>
      </trkpt>
      <trkpt lat="44.27135" lon="6.16668">
        <ele>1703.112793</ele>
        <time>2013-10-16T11:57:29Z</time>
      </trkpt>
      <trkpt lat="44.27139" lon="6.16666">
        <ele>1702.1513672</ele>
        <time>2013-10-16T11:57:32Z</time>
      </trkpt>
      <trkpt lat="44.27141" lon="6.16662">
        <ele>1703.112793</ele>
        <time>2013-10-16T11:57:35Z</time>
      </trkpt>
      <trkpt lat="44.27144" lon="6.16651">
        <ele>1702.6320801</ele>
        <time>2013-10-16T11:57:41Z</time>
      </trkpt>
      <trkpt lat="44.27145" lon="6.16643">
        <ele>1701.1901855</ele>
        <time>2013-10-16T11:57:55Z</time>
      </trkpt>
      <trkpt lat="44.27146" lon="6.16634">
        <ele>1701.1901855</ele>
        <time>2013-10-16T11:58:11Z</time>
      </trkpt>
      <trkpt lat="44.2715" lon="6.16632">
        <ele>1700.2290039</ele>
        <time>2013-10-16T11:58:15Z</time>
      </trkpt>
      <trkpt lat="44.27146" lon="6.16614">
        <ele>1697.3449707</ele>
        <time>2013-10-16T11:58:28Z</time>
      </trkpt>
      <trkpt lat="44.27144" lon="6.16609">
        <ele>1696.3837891</ele>
        <time>2013-10-16T11:58:34Z</time>
      </trkpt>
      <trkpt lat="44.27143" lon="6.16594">
        <ele>1694.4609375</ele>
        <time>2013-10-16T11:58:43Z</time>
      </trkpt>
      <trkpt lat="44.27147" lon="6.1659">
        <ele>1692.5385742</ele>
        <time>2013-10-16T11:58:48Z</time>
      </trkpt>
      <trkpt lat="44.27147" lon="6.16584">
        <ele>1692.0578613</ele>
        <time>2013-10-16T11:58:51Z</time>
      </trkpt>
      <trkpt lat="44.27149" lon="6.16578">
        <ele>1690.6154785</ele>
        <time>2013-10-16T11:58:55Z</time>
      </trkpt>
      <trkpt lat="44.27145" lon="6.16562">
        <ele>1688.6931152</ele>
        <time>2013-10-16T11:59:03Z</time>
      </trkpt>
      <trkpt lat="44.27151" lon="6.16556">
        <ele>1686.2897949</ele>
        <time>2013-10-16T11:59:14Z</time>
      </trkpt>
      <trkpt lat="44.27152" lon="6.16551">
        <ele>1685.3283691</ele>
        <time>2013-10-16T11:59:18Z</time>
      </trkpt>
      <trkpt lat="44.27155" lon="6.16551">
        <ele>1684.8479004</ele>
        <time>2013-10-16T11:59:21Z</time>
      </trkpt>
      <trkpt lat="44.27155" lon="6.16549">
        <ele>1684.8479004</ele>
        <time>2013-10-16T11:59:25Z</time>
      </trkpt>
      <trkpt lat="44.27157" lon="6.16553">
        <ele>1684.3671875</ele>
        <time>2013-10-16T11:59:28Z</time>
      </trkpt>
      <trkpt lat="44.27156" lon="6.16535">
        <ele>1681.9638672</ele>
        <time>2013-10-16T11:59:44Z</time>
      </trkpt>
      <trkpt lat="44.2716" lon="6.16527">
        <ele>1679.079834</ele>
        <time>2013-10-16T11:59:59Z</time>
      </trkpt>
      <trkpt lat="44.27163" lon="6.16521">
        <ele>1677.1574707</ele>
        <time>2013-10-16T12:00:30Z</time>
      </trkpt>
      <trkpt lat="44.27161" lon="6.16526">
        <ele>1675.7150879</ele>
        <time>2013-10-16T12:00:52Z</time>
      </trkpt>
      <trkpt lat="44.27161" lon="6.16525">
        <ele>1675.234375</ele>
        <time>2013-10-16T12:01:08Z</time>
      </trkpt>
      <trkpt lat="44.27162" lon="6.1652">
        <ele>1673.3120117</ele>
        <time>2013-10-16T12:01:29Z</time>
      </trkpt>
      <trkpt lat="44.27164" lon="6.16516">
        <ele>1672.3505859</ele>
        <time>2013-10-16T12:01:34Z</time>
      </trkpt>
      <trkpt lat="44.27163" lon="6.16509">
        <ele>1672.8312988</ele>
        <time>2013-10-16T12:01:40Z</time>
      </trkpt>
      <trkpt lat="44.27164" lon="6.16506">
        <ele>1671.3891602</ele>
        <time>2013-10-16T12:01:42Z</time>
      </trkpt>
      <trkpt lat="44.27166" lon="6.16497">
        <ele>1670.4279785</ele>
        <time>2013-10-16T12:01:53Z</time>
      </trkpt>
      <trkpt lat="44.27166" lon="6.16483">
        <ele>1667.5439453</ele>
        <time>2013-10-16T12:02:09Z</time>
      </trkpt>
      <trkpt lat="44.2717" lon="6.16474">
        <ele>1665.621582</ele>
        <time>2013-10-16T12:02:21Z</time>
      </trkpt>
      <trkpt lat="44.27172" lon="6.16468">
        <ele>1664.1794434</ele>
        <time>2013-10-16T12:02:27Z</time>
      </trkpt>
      <trkpt lat="44.27171" lon="6.16455">
        <ele>1662.2568359</ele>
        <time>2013-10-16T12:02:41Z</time>
      </trkpt>
      <trkpt lat="44.27169" lon="6.16441">
        <ele>1659.3728027</ele>
        <time>2013-10-16T12:02:56Z</time>
      </trkpt>
      <trkpt lat="44.27168" lon="6.16431">
        <ele>1657.9309082</ele>
        <time>2013-10-16T12:03:07Z</time>
      </trkpt>
      <trkpt lat="44.27166" lon="6.16425">
        <ele>1657.4501953</ele>
        <time>2013-10-16T12:03:16Z</time>
      </trkpt>
      <trkpt lat="44.27169" lon="6.16421">
        <ele>1656.4887695</ele>
        <time>2013-10-16T12:03:29Z</time>
      </trkpt>
      <trkpt lat="44.2717" lon="6.16406">
        <ele>1653.6049805</ele>
        <time>2013-10-16T12:03:47Z</time>
      </trkpt>
      <trkpt lat="44.27172" lon="6.16388">
        <ele>1650.2404785</ele>
        <time>2013-10-16T12:04:05Z</time>
      </trkpt>
      <trkpt lat="44.27172" lon="6.16387">
        <ele>1650.2404785</ele>
        <time>2013-10-16T12:04:06Z</time>
      </trkpt>
      <trkpt lat="44.27177" lon="6.16383">
        <ele>1647.8371582</ele>
        <time>2013-10-16T12:04:21Z</time>
      </trkpt>
      <trkpt lat="44.27183" lon="6.16374">
        <ele>1645.9145508</ele>
        <time>2013-10-16T12:04:41Z</time>
      </trkpt>
      <trkpt lat="44.27184" lon="6.16374">
        <ele>1645.4338379</ele>
        <time>2013-10-16T12:04:42Z</time>
      </trkpt>
      <trkpt lat="44.27188" lon="6.16373">
        <ele>1643.9916992</ele>
        <time>2013-10-16T12:04:46Z</time>
      </trkpt>
      <trkpt lat="44.27189" lon="6.16374">
        <ele>1643.0302734</ele>
        <time>2013-10-16T12:04:55Z</time>
      </trkpt>
      <trkpt lat="44.27194" lon="6.16374">
        <ele>1640.6269531</ele>
        <time>2013-10-16T12:05:17Z</time>
      </trkpt>
      <trkpt lat="44.27197" lon="6.16373">
        <ele>1638.223877</ele>
        <time>2013-10-16T12:05:30Z</time>
      </trkpt>
      <trkpt lat="44.27198" lon="6.16369">
        <ele>1638.223877</ele>
        <time>2013-10-16T12:06:00Z</time>
      </trkpt>
      <trkpt lat="44.27198" lon="6.16363">
        <ele>1635.3398438</ele>
        <time>2013-10-16T12:06:07Z</time>
      </trkpt>
      <trkpt lat="44.27203" lon="6.16351">
        <ele>1632.4560547</ele>
        <time>2013-10-16T12:06:22Z</time>
      </trkpt>
      <trkpt lat="44.27205" lon="6.16346">
        <ele>1630.5334473</ele>
        <time>2013-10-16T12:06:40Z</time>
      </trkpt>
      <trkpt lat="44.27203" lon="6.16331">
        <ele>1627.1687012</ele>
        <time>2013-10-16T12:07:10Z</time>
      </trkpt>
      <trkpt lat="44.27204" lon="6.16326">
        <ele>1625.7265625</ele>
        <time>2013-10-16T12:07:14Z</time>
      </trkpt>
      <trkpt lat="44.27203" lon="6.16308">
        <ele>1622.3620605</ele>
        <time>2013-10-16T12:07:31Z</time>
      </trkpt>
      <trkpt lat="44.27206" lon="6.16292">
        <ele>1618.9975586</ele>
        <time>2013-10-16T12:07:47Z</time>
      </trkpt>
      <trkpt lat="44.2721" lon="6.1628">
        <ele>1615.6330566</ele>
        <time>2013-10-16T12:08:01Z</time>
      </trkpt>
      <trkpt lat="44.27214" lon="6.16273">
        <ele>1614.6716309</ele>
        <time>2013-10-16T12:08:19Z</time>
      </trkpt>
      <trkpt lat="44.27212" lon="6.1626">
        <ele>1613.2297363</ele>
        <time>2013-10-16T12:08:32Z</time>
      </trkpt>
      <trkpt lat="44.2721" lon="6.16247">
        <ele>1609.3842773</ele>
        <time>2013-10-16T12:08:45Z</time>
      </trkpt>
      <trkpt lat="44.27212" lon="6.16238">
        <ele>1608.9035645</ele>
        <time>2013-10-16T12:08:58Z</time>
      </trkpt>
      <trkpt lat="44.27218" lon="6.16223">
        <ele>1606.0195313</ele>
        <time>2013-10-16T12:09:18Z</time>
      </trkpt>
      <trkpt lat="44.27226" lon="6.16209">
        <ele>1605.0583496</ele>
        <time>2013-10-16T12:09:35Z</time>
      </trkpt>
      <trkpt lat="44.27229" lon="6.16205">
        <ele>1602.6550293</ele>
        <time>2013-10-16T12:09:40Z</time>
      </trkpt>
      <trkpt lat="44.27236" lon="6.16204">
        <ele>1600.2519531</ele>
        <time>2013-10-16T12:09:48Z</time>
      </trkpt>
      <trkpt lat="44.2724" lon="6.16199">
        <ele>1597.8486328</ele>
        <time>2013-10-16T12:10:03Z</time>
      </trkpt>
      <trkpt lat="44.27246" lon="6.16198">
        <ele>1595.9257813</ele>
        <time>2013-10-16T12:10:11Z</time>
      </trkpt>
      <trkpt lat="44.27255" lon="6.16196">
        <ele>1592.5612793</ele>
        <time>2013-10-16T12:10:22Z</time>
      </trkpt>
      <trkpt lat="44.27267" lon="6.16197">
        <ele>1589.6772461</ele>
        <time>2013-10-16T12:10:37Z</time>
      </trkpt>
      <trkpt lat="44.27275" lon="6.16196">
        <ele>1587.2739258</ele>
        <time>2013-10-16T12:10:47Z</time>
      </trkpt>
      <trkpt lat="44.27282" lon="6.16195">
        <ele>1583.9094238</ele>
        <time>2013-10-16T12:10:59Z</time>
      </trkpt>
      <trkpt lat="44.27291" lon="6.16191">
        <ele>1582.4675293</ele>
        <time>2013-10-16T12:11:17Z</time>
      </trkpt>
      <trkpt lat="44.27296" lon="6.16181">
        <ele>1580.064209</ele>
        <time>2013-10-16T12:11:35Z</time>
      </trkpt>
      <trkpt lat="44.27298" lon="6.16179">
        <ele>1578.1413574</ele>
        <time>2013-10-16T12:11:38Z</time>
      </trkpt>
      <trkpt lat="44.27306" lon="6.16167">
        <ele>1575.2573242</ele>
        <time>2013-10-16T12:11:51Z</time>
      </trkpt>
      <trkpt lat="44.2731" lon="6.16159">
        <ele>1572.854248</ele>
        <time>2013-10-16T12:12:01Z</time>
      </trkpt>
      <trkpt lat="44.27312" lon="6.1614">
        <ele>1570.4509277</ele>
        <time>2013-10-16T12:12:17Z</time>
      </trkpt>
      <trkpt lat="44.27317" lon="6.16127">
        <ele>1567.0864258</ele>
        <time>2013-10-16T12:12:30Z</time>
      </trkpt>
      <trkpt lat="44.27318" lon="6.16124">
        <ele>1565.6445313</ele>
        <time>2013-10-16T12:12:36Z</time>
      </trkpt>
      <trkpt lat="44.27323" lon="6.16109">
        <ele>1562.279541</ele>
        <time>2013-10-16T12:12:53Z</time>
      </trkpt>
      <trkpt lat="44.27327" lon="6.16096">
        <ele>1558.4343262</ele>
        <time>2013-10-16T12:13:07Z</time>
      </trkpt>
      <trkpt lat="44.27338" lon="6.16079">
        <ele>1555.5505371</ele>
        <time>2013-10-16T12:13:26Z</time>
      </trkpt>
      <trkpt lat="44.27344" lon="6.1607">
        <ele>1552.185791</ele>
        <time>2013-10-16T12:13:39Z</time>
      </trkpt>
      <trkpt lat="44.27353" lon="6.16064">
        <ele>1549.7827148</ele>
        <time>2013-10-16T12:13:49Z</time>
      </trkpt>
      <trkpt lat="44.27354" lon="6.16062">
        <ele>1548.3405762</ele>
        <time>2013-10-16T12:13:52Z</time>
      </trkpt>
      <trkpt lat="44.27358" lon="6.16044">
        <ele>1545.456543</ele>
        <time>2013-10-16T12:14:10Z</time>
      </trkpt>
      <trkpt lat="44.27357" lon="6.16043">
        <ele>1545.456543</ele>
        <time>2013-10-16T12:14:11Z</time>
      </trkpt>
      <trkpt lat="44.27366" lon="6.1602">
        <ele>1544.0146484</ele>
        <time>2013-10-16T12:14:31Z</time>
      </trkpt>
      <trkpt lat="44.27365" lon="6.1602">
        <ele>1543.0532227</ele>
        <time>2013-10-16T12:14:43Z</time>
      </trkpt>
      <trkpt lat="44.27361" lon="6.16021">
        <ele>1541.6113281</ele>
        <time>2013-10-16T12:15:18Z</time>
      </trkpt>
      <trkpt lat="44.27361" lon="6.16018">
        <ele>1541.6113281</ele>
        <time>2013-10-16T12:15:57Z</time>
      </trkpt>
      <trkpt lat="44.27367" lon="6.1601">
        <ele>1538.2468262</ele>
        <time>2013-10-16T12:16:12Z</time>
      </trkpt>
      <trkpt lat="44.27374" lon="6.16003">
        <ele>1534.8823242</ele>
        <time>2013-10-16T12:16:24Z</time>
      </trkpt>
      <trkpt lat="44.27377" lon="6.15996">
        <ele>1531.517334</ele>
        <time>2013-10-16T12:16:35Z</time>
      </trkpt>
      <trkpt lat="44.27382" lon="6.15989">
        <ele>1528.6335449</ele>
        <time>2013-10-16T12:16:47Z</time>
      </trkpt>
      <trkpt lat="44.27388" lon="6.15981">
        <ele>1526.7109375</ele>
        <time>2013-10-16T12:16:57Z</time>
      </trkpt>
      <trkpt lat="44.27392" lon="6.15963">
        <ele>1524.3076172</ele>
        <time>2013-10-16T12:17:11Z</time>
      </trkpt>
      <trkpt lat="44.27396" lon="6.15949">
        <ele>1520.9431152</ele>
        <time>2013-10-16T12:17:26Z</time>
      </trkpt>
      <trkpt lat="44.27404" lon="6.15931">
        <ele>1518.059082</ele>
        <time>2013-10-16T12:17:43Z</time>
      </trkpt>
      <trkpt lat="44.27407" lon="6.15926">
        <ele>1517.5783691</ele>
        <time>2013-10-16T12:17:48Z</time>
      </trkpt>
      <trkpt lat="44.27411" lon="6.15907">
        <ele>1514.213623</ele>
        <time>2013-10-16T12:18:06Z</time>
      </trkpt>
      <trkpt lat="44.2742" lon="6.15897">
        <ele>1510.3684082</ele>
        <time>2013-10-16T12:18:20Z</time>
      </trkpt>
      <trkpt lat="44.27431" lon="6.15887">
        <ele>1507.4846191</ele>
        <time>2013-10-16T12:18:35Z</time>
      </trkpt>
      <trkpt lat="44.27435" lon="6.15873">
        <ele>1504.1201172</ele>
        <time>2013-10-16T12:18:49Z</time>
      </trkpt>
      <trkpt lat="44.27436" lon="6.1586">
        <ele>1502.6779785</ele>
        <time>2013-10-16T12:19:06Z</time>
      </trkpt>
      <trkpt lat="44.27436" lon="6.15862">
        <ele>1502.6779785</ele>
        <time>2013-10-16T12:19:40Z</time>
      </trkpt>
      <trkpt lat="44.27432" lon="6.15869">
        <ele>1502.6779785</ele>
        <time>2013-10-16T12:20:38Z</time>
      </trkpt>
      <trkpt lat="44.27433" lon="6.1587">
        <ele>1501.7167969</ele>
        <time>2013-10-16T12:21:08Z</time>
      </trkpt>
      <trkpt lat="44.27433" lon="6.1587">
        <ele>1502.6779785</ele>
        <time>2013-10-16T12:21:50Z</time>
      </trkpt>
      <trkpt lat="44.27434" lon="6.1586">
        <ele>1500.7553711</ele>
        <time>2013-10-16T12:22:29Z</time>
      </trkpt>
      <trkpt lat="44.27433" lon="6.15856">
        <ele>1500.2749023</ele>
        <time>2013-10-16T12:22:33Z</time>
      </trkpt>
      <trkpt lat="44.27436" lon="6.15832">
        <ele>1497.390625</ele>
        <time>2013-10-16T12:22:51Z</time>
      </trkpt>
      <trkpt lat="44.27435" lon="6.15814">
        <ele>1495.4680176</ele>
        <time>2013-10-16T12:23:08Z</time>
      </trkpt>
      <trkpt lat="44.27435" lon="6.15801">
        <ele>1494.026123</ele>
        <time>2013-10-16T12:23:26Z</time>
      </trkpt>
      <trkpt lat="44.27437" lon="6.15778">
        <ele>1491.6228027</ele>
        <time>2013-10-16T12:23:40Z</time>
      </trkpt>
      <trkpt lat="44.27439" lon="6.15769">
        <ele>1490.661377</ele>
        <time>2013-10-16T12:23:48Z</time>
      </trkpt>
      <trkpt lat="44.27443" lon="6.15753">
        <ele>1488.7390137</ele>
        <time>2013-10-16T12:24:01Z</time>
      </trkpt>
      <trkpt lat="44.27448" lon="6.15744">
        <ele>1487.7775879</ele>
        <time>2013-10-16T12:24:10Z</time>
      </trkpt>
      <trkpt lat="44.27466" lon="6.15734">
        <ele>1485.8549805</ele>
        <time>2013-10-16T12:24:27Z</time>
      </trkpt>
      <trkpt lat="44.27468" lon="6.15729">
        <ele>1485.8549805</ele>
        <time>2013-10-16T12:24:31Z</time>
      </trkpt>
      <trkpt lat="44.27478" lon="6.15708">
        <ele>1483.451416</ele>
        <time>2013-10-16T12:24:48Z</time>
      </trkpt>
      <trkpt lat="44.27479" lon="6.15706">
        <ele>1482.9707031</ele>
        <time>2013-10-16T12:24:50Z</time>
      </trkpt>
      <trkpt lat="44.2748" lon="6.15701">
        <ele>1482.9707031</ele>
        <time>2013-10-16T12:24:53Z</time>
      </trkpt>
      <trkpt lat="44.27482" lon="6.15697">
        <ele>1482.0095215</ele>
        <time>2013-10-16T12:24:56Z</time>
      </trkpt>
      <trkpt lat="44.27485" lon="6.15691">
        <ele>1481.5288086</ele>
        <time>2013-10-16T12:25:03Z</time>
      </trkpt>
      <trkpt lat="44.27492" lon="6.15691">
        <ele>1480.567627</ele>
        <time>2013-10-16T12:25:14Z</time>
      </trkpt>
      <trkpt lat="44.27495" lon="6.15686">
        <ele>1478.6450195</ele>
        <time>2013-10-16T12:25:26Z</time>
      </trkpt>
      <trkpt lat="44.27503" lon="6.15672">
        <ele>1477.203125</ele>
        <time>2013-10-16T12:25:40Z</time>
      </trkpt>
      <trkpt lat="44.27505" lon="6.15668">
        <ele>1477.203125</ele>
        <time>2013-10-16T12:25:45Z</time>
      </trkpt>
      <trkpt lat="44.27504" lon="6.15665">
        <ele>1476.7224121</ele>
        <time>2013-10-16T12:25:47Z</time>
      </trkpt>
      <trkpt lat="44.27506" lon="6.15662">
        <ele>1476.2416992</ele>
        <time>2013-10-16T12:25:49Z</time>
      </trkpt>
      <trkpt lat="44.27506" lon="6.15651">
        <ele>1475.7609863</ele>
        <time>2013-10-16T12:25:56Z</time>
      </trkpt>
      <trkpt lat="44.2751" lon="6.15637">
        <ele>1475.2802734</ele>
        <time>2013-10-16T12:26:06Z</time>
      </trkpt>
      <trkpt lat="44.27512" lon="6.15632">
        <ele>1475.2802734</ele>
        <time>2013-10-16T12:26:10Z</time>
      </trkpt>
      <trkpt lat="44.27514" lon="6.15627">
        <ele>1475.7609863</ele>
        <time>2013-10-16T12:26:16Z</time>
      </trkpt>
      <trkpt lat="44.27517" lon="6.15626">
        <ele>1475.2802734</ele>
        <time>2013-10-16T12:26:20Z</time>
      </trkpt>
      <trkpt lat="44.27521" lon="6.15626">
        <ele>1473.8383789</ele>
        <time>2013-10-16T12:26:25Z</time>
      </trkpt>
      <trkpt lat="44.27527" lon="6.15624">
        <ele>1472.8771973</ele>
        <time>2013-10-16T12:26:31Z</time>
      </trkpt>
      <trkpt lat="44.2753" lon="6.15621">
        <ele>1472.3964844</ele>
        <time>2013-10-16T12:26:34Z</time>
      </trkpt>
      <trkpt lat="44.27536" lon="6.15615">
        <ele>1470.9545898</ele>
        <time>2013-10-16T12:26:41Z</time>
      </trkpt>
      <trkpt lat="44.2754" lon="6.15612">
        <ele>1470.473877</ele>
        <time>2013-10-16T12:26:45Z</time>
      </trkpt>
      <trkpt lat="44.27544" lon="6.1561">
        <ele>1469.9931641</ele>
        <time>2013-10-16T12:26:49Z</time>
      </trkpt>
      <trkpt lat="44.2755" lon="6.15609">
        <ele>1469.9931641</ele>
        <time>2013-10-16T12:26:53Z</time>
      </trkpt>
      <trkpt lat="44.27558" lon="6.15602">
        <ele>1469.5126953</ele>
        <time>2013-10-16T12:27:01Z</time>
      </trkpt>
      <trkpt lat="44.27577" lon="6.15604">
        <ele>1469.0319824</ele>
        <time>2013-10-16T12:27:15Z</time>
      </trkpt>
      <trkpt lat="44.27585" lon="6.15603">
        <ele>1469.0319824</ele>
        <time>2013-10-16T12:27:25Z</time>
      </trkpt>
      <trkpt lat="44.27595" lon="6.15605">
        <ele>1468.5512695</ele>
        <time>2013-10-16T12:27:35Z</time>
      </trkpt>
      <trkpt lat="44.27596" lon="6.15606">
        <ele>1468.5512695</ele>
        <time>2013-10-16T12:27:36Z</time>
      </trkpt>
      <trkpt lat="44.27605" lon="6.15596">
        <ele>1468.0705566</ele>
        <time>2013-10-16T12:27:49Z</time>
      </trkpt>
      <trkpt lat="44.27609" lon="6.1559">
        <ele>1467.5895996</ele>
        <time>2013-10-16T12:27:56Z</time>
      </trkpt>
      <trkpt lat="44.27616" lon="6.15585">
        <ele>1466.1477051</ele>
        <time>2013-10-16T12:28:04Z</time>
      </trkpt>
      <trkpt lat="44.27616" lon="6.15573">
        <ele>1465.6672363</ele>
        <time>2013-10-16T12:28:11Z</time>
      </trkpt>
      <trkpt lat="44.27622" lon="6.1557">
        <ele>1465.6672363</ele>
        <time>2013-10-16T12:28:15Z</time>
      </trkpt>
      <trkpt lat="44.27622" lon="6.15568">
        <ele>1465.6672363</ele>
        <time>2013-10-16T12:28:17Z</time>
      </trkpt>
      <trkpt lat="44.27625" lon="6.15562">
        <ele>1464.7058105</ele>
        <time>2013-10-16T12:28:22Z</time>
      </trkpt>
      <trkpt lat="44.27632" lon="6.15543">
        <ele>1462.7832031</ele>
        <time>2013-10-16T12:28:41Z</time>
      </trkpt>
      <trkpt lat="44.27646" lon="6.15532">
        <ele>1461.3413086</ele>
        <time>2013-10-16T12:28:58Z</time>
      </trkpt>
      <trkpt lat="44.27648" lon="6.15523">
        <ele>1458.4572754</ele>
        <time>2013-10-16T12:29:12Z</time>
      </trkpt>
      <trkpt lat="44.27652" lon="6.15518">
        <ele>1456.534668</ele>
        <time>2013-10-16T12:29:25Z</time>
      </trkpt>
      <trkpt lat="44.27664" lon="6.15527">
        <ele>1455.0927734</ele>
        <time>2013-10-16T12:29:35Z</time>
      </trkpt>
      <trkpt lat="44.27675" lon="6.1553">
        <ele>1452.6894531</ele>
        <time>2013-10-16T12:29:49Z</time>
      </trkpt>
      <trkpt lat="44.27685" lon="6.15535">
        <ele>1449.8054199</ele>
        <time>2013-10-16T12:30:07Z</time>
      </trkpt>
      <trkpt lat="44.27694" lon="6.15533">
        <ele>1448.3632813</ele>
        <time>2013-10-16T12:30:17Z</time>
      </trkpt>
      <trkpt lat="44.27699" lon="6.15533">
        <ele>1448.3632813</ele>
        <time>2013-10-16T12:30:21Z</time>
      </trkpt>
      <trkpt lat="44.27717" lon="6.15528">
        <ele>1446.9213867</ele>
        <time>2013-10-16T12:30:36Z</time>
      </trkpt>
      <trkpt lat="44.27726" lon="6.15534">
        <ele>1444.5180664</ele>
        <time>2013-10-16T12:30:48Z</time>
      </trkpt>
      <trkpt lat="44.27736" lon="6.15535">
        <ele>1443.0761719</ele>
        <time>2013-10-16T12:31:01Z</time>
      </trkpt>
      <trkpt lat="44.27746" lon="6.15534">
        <ele>1440.1923828</ele>
        <time>2013-10-16T12:31:15Z</time>
      </trkpt>
      <trkpt lat="44.27753" lon="6.15536">
        <ele>1438.7504883</ele>
        <time>2013-10-16T12:31:26Z</time>
      </trkpt>
      <trkpt lat="44.27761" lon="6.15539">
        <ele>1436.347168</ele>
        <time>2013-10-16T12:31:40Z</time>
      </trkpt>
      <trkpt lat="44.27765" lon="6.15543">
        <ele>1434.9050293</ele>
        <time>2013-10-16T12:31:49Z</time>
      </trkpt>
      <trkpt lat="44.27773" lon="6.15549">
        <ele>1432.9821777</ele>
        <time>2013-10-16T12:32:02Z</time>
      </trkpt>
      <trkpt lat="44.27783" lon="6.15552">
        <ele>1431.0598145</ele>
        <time>2013-10-16T12:32:16Z</time>
      </trkpt>
      <trkpt lat="44.27789" lon="6.15565">
        <ele>1427.6950684</ele>
        <time>2013-10-16T12:32:34Z</time>
      </trkpt>
      <trkpt lat="44.27793" lon="6.15577">
        <ele>1425.291748</ele>
        <time>2013-10-16T12:32:52Z</time>
      </trkpt>
      <trkpt lat="44.27796" lon="6.15583">
        <ele>1422.8886719</ele>
        <time>2013-10-16T12:33:05Z</time>
      </trkpt>
      <trkpt lat="44.27799" lon="6.15592">
        <ele>1420.4853516</ele>
        <time>2013-10-16T12:33:19Z</time>
      </trkpt>
      <trkpt lat="44.27792" lon="6.15603">
        <ele>1417.6010742</ele>
        <time>2013-10-16T12:33:33Z</time>
      </trkpt>
      <trkpt lat="44.27796" lon="6.15609">
        <ele>1415.197998</ele>
        <time>2013-10-16T12:33:46Z</time>
      </trkpt>
      <trkpt lat="44.27808" lon="6.15614">
        <ele>1413.2753906</ele>
        <time>2013-10-16T12:33:57Z</time>
      </trkpt>
      <trkpt lat="44.27812" lon="6.15622">
        <ele>1411.8334961</ele>
        <time>2013-10-16T12:34:08Z</time>
      </trkpt>
      <trkpt lat="44.27819" lon="6.15632">
        <ele>1409.4301758</ele>
        <time>2013-10-16T12:34:22Z</time>
      </trkpt>
      <trkpt lat="44.27821" lon="6.15632">
        <ele>1409.4301758</ele>
        <time>2013-10-16T12:34:24Z</time>
      </trkpt>
      <trkpt lat="44.27824" lon="6.15648">
        <ele>1406.5461426</ele>
        <time>2013-10-16T12:34:37Z</time>
      </trkpt>
      <trkpt lat="44.27825" lon="6.15649">
        <ele>1406.5461426</ele>
        <time>2013-10-16T12:34:39Z</time>
      </trkpt>
      <trkpt lat="44.27828" lon="6.15654">
        <ele>1406.0654297</ele>
        <time>2013-10-16T12:34:43Z</time>
      </trkpt>
      <trkpt lat="44.27831" lon="6.15656">
        <ele>1405.5849609</ele>
        <time>2013-10-16T12:34:45Z</time>
      </trkpt>
      <trkpt lat="44.27832" lon="6.15672">
        <ele>1402.7006836</ele>
        <time>2013-10-16T12:35:04Z</time>
      </trkpt>
      <trkpt lat="44.27828" lon="6.15676">
        <ele>1402.2199707</ele>
        <time>2013-10-16T12:35:16Z</time>
      </trkpt>
      <trkpt lat="44.27825" lon="6.15675">
        <ele>1399.8168945</ele>
        <time>2013-10-16T12:36:09Z</time>
      </trkpt>
      <trkpt lat="44.27828" lon="6.15679">
        <ele>1396.4523926</ele>
        <time>2013-10-16T12:36:25Z</time>
      </trkpt>
      <trkpt lat="44.27857" lon="6.15695">
        <ele>1393.5683594</ele>
        <time>2013-10-16T12:36:46Z</time>
      </trkpt>
      <trkpt lat="44.27893" lon="6.15696">
        <ele>1391.1650391</ele>
        <time>2013-10-16T12:37:12Z</time>
      </trkpt>
      <trkpt lat="44.27917" lon="6.15705">
        <ele>1387.800293</ele>
        <time>2013-10-16T12:37:35Z</time>
      </trkpt>
      <trkpt lat="44.2794" lon="6.15707">
        <ele>1385.3969727</ele>
        <time>2013-10-16T12:37:55Z</time>
      </trkpt>
      <trkpt lat="44.27955" lon="6.1571">
        <ele>1382.5131836</ele>
        <time>2013-10-16T12:38:14Z</time>
      </trkpt>
      <trkpt lat="44.27959" lon="6.15718">
        <ele>1382.5131836</ele>
        <time>2013-10-16T12:38:30Z</time>
      </trkpt>
      <trkpt lat="44.27961" lon="6.1571">
        <ele>1380.5905762</ele>
        <time>2013-10-16T12:38:46Z</time>
      </trkpt>
      <trkpt lat="44.27974" lon="6.15694">
        <ele>1377.706543</ele>
        <time>2013-10-16T12:39:01Z</time>
      </trkpt>
      <trkpt lat="44.27981" lon="6.15675">
        <ele>1374.342041</ele>
        <time>2013-10-16T12:39:17Z</time>
      </trkpt>
      <trkpt lat="44.27992" lon="6.15664">
        <ele>1370.496582</ele>
        <time>2013-10-16T12:39:31Z</time>
      </trkpt>
      <trkpt lat="44.28011" lon="6.15664">
        <ele>1367.1320801</ele>
        <time>2013-10-16T12:39:52Z</time>
      </trkpt>
      <trkpt lat="44.28024" lon="6.15659">
        <ele>1364.2480469</ele>
        <time>2013-10-16T12:40:10Z</time>
      </trkpt>
      <trkpt lat="44.28032" lon="6.15648">
        <ele>1361.3642578</ele>
        <time>2013-10-16T12:40:24Z</time>
      </trkpt>
      <trkpt lat="44.2804" lon="6.15639">
        <ele>1357.9997559</ele>
        <time>2013-10-16T12:40:40Z</time>
      </trkpt>
      <trkpt lat="44.28051" lon="6.15641">
        <ele>1355.1154785</ele>
        <time>2013-10-16T12:40:57Z</time>
      </trkpt>
      <trkpt lat="44.28061" lon="6.15635">
        <ele>1351.7509766</ele>
        <time>2013-10-16T12:41:15Z</time>
      </trkpt>
      <trkpt lat="44.28061" lon="6.15624">
        <ele>1350.7895508</ele>
        <time>2013-10-16T12:41:54Z</time>
      </trkpt>
      <trkpt lat="44.28069" lon="6.15618">
        <ele>1348.8669434</ele>
        <time>2013-10-16T12:42:09Z</time>
      </trkpt>
      <trkpt lat="44.28075" lon="6.15616">
        <ele>1346.4638672</ele>
        <time>2013-10-16T12:42:21Z</time>
      </trkpt>
      <trkpt lat="44.28076" lon="6.15616">
        <ele>1345.9831543</ele>
        <time>2013-10-16T12:42:22Z</time>
      </trkpt>
      <trkpt lat="44.28085" lon="6.15614">
        <ele>1342.6186523</ele>
        <time>2013-10-16T12:42:38Z</time>
      </trkpt>
      <trkpt lat="44.28086" lon="6.15614">
        <ele>1342.6186523</ele>
        <time>2013-10-16T12:42:41Z</time>
      </trkpt>
      <trkpt lat="44.2809" lon="6.15606">
        <ele>1341.1765137</ele>
        <time>2013-10-16T12:42:49Z</time>
      </trkpt>
      <trkpt lat="44.28099" lon="6.15603">
        <ele>1338.7731934</ele>
        <time>2013-10-16T12:43:02Z</time>
      </trkpt>
      <trkpt lat="44.28105" lon="6.1559">
        <ele>1336.369873</ele>
        <time>2013-10-16T12:43:19Z</time>
      </trkpt>
      <trkpt lat="44.28114" lon="6.15584">
        <ele>1333.9665527</ele>
        <time>2013-10-16T12:43:32Z</time>
      </trkpt>
      <trkpt lat="44.28121" lon="6.15577">
        <ele>1331.5632324</ele>
        <time>2013-10-16T12:43:44Z</time>
      </trkpt>
      <trkpt lat="44.28127" lon="6.15577">
        <ele>1330.6020508</ele>
        <time>2013-10-16T12:43:50Z</time>
      </trkpt>
      <trkpt lat="44.28137" lon="6.15573">
        <ele>1327.7180176</ele>
        <time>2013-10-16T12:44:04Z</time>
      </trkpt>
      <trkpt lat="44.28138" lon="6.15572">
        <ele>1327.7180176</ele>
        <time>2013-10-16T12:44:06Z</time>
      </trkpt>
      <trkpt lat="44.28147" lon="6.15569">
        <ele>1324.8342285</ele>
        <time>2013-10-16T12:44:18Z</time>
      </trkpt>
      <trkpt lat="44.28155" lon="6.15564">
        <ele>1323.3920898</ele>
        <time>2013-10-16T12:44:32Z</time>
      </trkpt>
      <trkpt lat="44.28157" lon="6.15562">
        <ele>1322.911377</ele>
        <time>2013-10-16T12:44:36Z</time>
      </trkpt>
      <trkpt lat="44.28165" lon="6.1555">
        <ele>1320.5080566</ele>
        <time>2013-10-16T12:44:49Z</time>
      </trkpt>
      <trkpt lat="44.28176" lon="6.15547">
        <ele>1318.1047363</ele>
        <time>2013-10-16T12:45:02Z</time>
      </trkpt>
      <trkpt lat="44.28187" lon="6.15543">
        <ele>1316.1821289</ele>
        <time>2013-10-16T12:45:14Z</time>
      </trkpt>
      <trkpt lat="44.28195" lon="6.15536">
        <ele>1314.7402344</ele>
        <time>2013-10-16T12:45:26Z</time>
      </trkpt>
      <trkpt lat="44.28197" lon="6.15533">
        <ele>1314.2595215</ele>
        <time>2013-10-16T12:45:29Z</time>
      </trkpt>
      <trkpt lat="44.28209" lon="6.15523">
        <ele>1311.3757324</ele>
        <time>2013-10-16T12:45:46Z</time>
      </trkpt>
      <trkpt lat="44.28216" lon="6.15519">
        <ele>1309.9335938</ele>
        <time>2013-10-16T12:45:59Z</time>
      </trkpt>
      <trkpt lat="44.28229" lon="6.15509">
        <ele>1307.0495605</ele>
        <time>2013-10-16T12:46:15Z</time>
      </trkpt>
      <trkpt lat="44.2824" lon="6.15501">
        <ele>1304.1657715</ele>
        <time>2013-10-16T12:46:29Z</time>
      </trkpt>
      <trkpt lat="44.28242" lon="6.155">
        <ele>1303.6850586</ele>
        <time>2013-10-16T12:46:31Z</time>
      </trkpt>
      <trkpt lat="44.28246" lon="6.15495">
        <ele>1303.2043457</ele>
        <time>2013-10-16T12:46:36Z</time>
      </trkpt>
      <trkpt lat="44.28255" lon="6.15486">
        <ele>1301.7624512</ele>
        <time>2013-10-16T12:46:48Z</time>
      </trkpt>
      <trkpt lat="44.28259" lon="6.15488">
        <ele>1301.2817383</ele>
        <time>2013-10-16T12:46:50Z</time>
      </trkpt>
      <trkpt lat="44.28265" lon="6.15505">
        <ele>1299.3591309</ele>
        <time>2013-10-16T12:47:10Z</time>
      </trkpt>
      <trkpt lat="44.28268" lon="6.15516">
        <ele>1297.9172363</ele>
        <time>2013-10-16T12:47:22Z</time>
      </trkpt>
      <trkpt lat="44.28264" lon="6.15529">
        <ele>1295.9946289</ele>
        <time>2013-10-16T12:47:35Z</time>
      </trkpt>
      <trkpt lat="44.28263" lon="6.15541">
        <ele>1294.5524902</ele>
        <time>2013-10-16T12:47:52Z</time>
      </trkpt>
      <trkpt lat="44.28271" lon="6.15542">
        <ele>1291.1877441</ele>
        <time>2013-10-16T12:48:26Z</time>
      </trkpt>
      <trkpt lat="44.28274" lon="6.15545">
        <ele>1290.7070313</ele>
        <time>2013-10-16T12:48:31Z</time>
      </trkpt>
      <trkpt lat="44.28272" lon="6.1555">
        <ele>1288.3039551</ele>
        <time>2013-10-16T12:48:43Z</time>
      </trkpt>
      <trkpt lat="44.28272" lon="6.15556">
        <ele>1286.8618164</ele>
        <time>2013-10-16T12:48:48Z</time>
      </trkpt>
      <trkpt lat="44.28273" lon="6.15577">
        <ele>1283.9780273</ele>
        <time>2013-10-16T12:49:01Z</time>
      </trkpt>
      <trkpt lat="44.28273" lon="6.15579">
        <ele>1283.9780273</ele>
        <time>2013-10-16T12:49:02Z</time>
      </trkpt>
      <trkpt lat="44.28268" lon="6.15588">
        <ele>1283.9780273</ele>
        <time>2013-10-16T12:49:13Z</time>
      </trkpt>
      <trkpt lat="44.28276" lon="6.15601">
        <ele>1281.0942383</ele>
        <time>2013-10-16T12:49:30Z</time>
      </trkpt>
      <trkpt lat="44.28281" lon="6.15623">
        <ele>1277.7294922</ele>
        <time>2013-10-16T12:49:51Z</time>
      </trkpt>
      <trkpt lat="44.28291" lon="6.15628">
        <ele>1277.7294922</ele>
        <time>2013-10-16T12:49:57Z</time>
      </trkpt>
      <trkpt lat="44.28292" lon="6.15637">
        <ele>1276.7683105</ele>
        <time>2013-10-16T12:50:03Z</time>
      </trkpt>
      <trkpt lat="44.28295" lon="6.15656">
        <ele>1274.3647461</ele>
        <time>2013-10-16T12:50:20Z</time>
      </trkpt>
      <trkpt lat="44.28299" lon="6.15663">
        <ele>1271.0002441</ele>
        <time>2013-10-16T12:50:33Z</time>
      </trkpt>
      <trkpt lat="44.28299" lon="6.15675">
        <ele>1270.5195313</ele>
        <time>2013-10-16T12:50:50Z</time>
      </trkpt>
      <trkpt lat="44.28307" lon="6.15673">
        <ele>1268.5969238</ele>
        <time>2013-10-16T12:51:05Z</time>
      </trkpt>
      <trkpt lat="44.2831" lon="6.15672">
        <ele>1265.2324219</ele>
        <time>2013-10-16T12:51:22Z</time>
      </trkpt>
      <trkpt lat="44.2832" lon="6.15671">
        <ele>1262.8291016</ele>
        <time>2013-10-16T12:51:36Z</time>
      </trkpt>
      <trkpt lat="44.2833" lon="6.15676">
        <ele>1260.4257813</ele>
        <time>2013-10-16T12:51:48Z</time>
      </trkpt>
      <trkpt lat="44.28339" lon="6.15683">
        <ele>1258.5029297</ele>
        <time>2013-10-16T12:52:10Z</time>
      </trkpt>
      <trkpt lat="44.2835" lon="6.15677">
        <ele>1256.0996094</ele>
        <time>2013-10-16T12:52:30Z</time>
      </trkpt>
      <trkpt lat="44.28355" lon="6.1567">
        <ele>1255.6191406</ele>
        <time>2013-10-16T12:52:49Z</time>
      </trkpt>
      <trkpt lat="44.28361" lon="6.1566">
        <ele>1254.1772461</ele>
        <time>2013-10-16T12:53:23Z</time>
      </trkpt>
      <trkpt lat="44.28363" lon="6.15658">
        <ele>1254.1772461</ele>
        <time>2013-10-16T12:53:28Z</time>
      </trkpt>
      <trkpt lat="44.28372" lon="6.1565">
        <ele>1252.2543945</ele>
        <time>2013-10-16T12:53:40Z</time>
      </trkpt>
      <trkpt lat="44.28384" lon="6.15653">
        <ele>1248.4091797</ele>
        <time>2013-10-16T12:53:59Z</time>
      </trkpt>
      <trkpt lat="44.28392" lon="6.1566">
        <ele>1245.0446777</ele>
        <time>2013-10-16T12:54:15Z</time>
      </trkpt>
      <trkpt lat="44.28392" lon="6.15672">
        <ele>1243.6025391</ele>
        <time>2013-10-16T12:54:38Z</time>
      </trkpt>
      <trkpt lat="44.28394" lon="6.1568">
        <ele>1240.2380371</ele>
        <time>2013-10-16T12:54:54Z</time>
      </trkpt>
      <trkpt lat="44.28402" lon="6.15686">
        <ele>1237.3540039</ele>
        <time>2013-10-16T12:55:13Z</time>
      </trkpt>
      <trkpt lat="44.28405" lon="6.15691">
        <ele>1236.873291</ele>
        <time>2013-10-16T12:55:36Z</time>
      </trkpt>
      <trkpt lat="44.28406" lon="6.15691">
        <ele>1236.873291</ele>
        <time>2013-10-16T12:55:37Z</time>
      </trkpt>
      <trkpt lat="44.28407" lon="6.15707">
        <ele>1234.9509277</ele>
        <time>2013-10-16T12:55:48Z</time>
      </trkpt>
      <trkpt lat="44.28401" lon="6.15725">
        <ele>1233.989502</ele>
        <time>2013-10-16T12:56:02Z</time>
      </trkpt>
      <trkpt lat="44.28401" lon="6.15729">
        <ele>1233.5087891</ele>
        <time>2013-10-16T12:56:05Z</time>
      </trkpt>
      <trkpt lat="44.28404" lon="6.15736">
        <ele>1232.0668945</ele>
        <time>2013-10-16T12:56:20Z</time>
      </trkpt>
      <trkpt lat="44.28406" lon="6.15746">
        <ele>1228.7023926</ele>
        <time>2013-10-16T12:56:32Z</time>
      </trkpt>
      <trkpt lat="44.28408" lon="6.15755">
        <ele>1226.779541</ele>
        <time>2013-10-16T12:56:44Z</time>
      </trkpt>
      <trkpt lat="44.28415" lon="6.15769">
        <ele>1223.4150391</ele>
        <time>2013-10-16T12:56:59Z</time>
      </trkpt>
      <trkpt lat="44.28419" lon="6.15786">
        <ele>1220.050293</ele>
        <time>2013-10-16T12:57:16Z</time>
      </trkpt>
      <trkpt lat="44.28421" lon="6.15794">
        <ele>1219.0891113</ele>
        <time>2013-10-16T12:57:23Z</time>
      </trkpt>
      <trkpt lat="44.28427" lon="6.15796">
        <ele>1215.7246094</ele>
        <time>2013-10-16T12:57:36Z</time>
      </trkpt>
      <trkpt lat="44.28428" lon="6.15797">
        <ele>1214.7631836</ele>
        <time>2013-10-16T12:57:38Z</time>
      </trkpt>
      <trkpt lat="44.28427" lon="6.15815">
        <ele>1212.3598633</ele>
        <time>2013-10-16T12:57:52Z</time>
      </trkpt>
      <trkpt lat="44.28433" lon="6.15824">
        <ele>1209.4758301</ele>
        <time>2013-10-16T12:58:04Z</time>
      </trkpt>
      <trkpt lat="44.28437" lon="6.15837">
        <ele>1206.111084</ele>
        <time>2013-10-16T12:58:16Z</time>
      </trkpt>
      <trkpt lat="44.28437" lon="6.15837">
        <ele>1206.111084</ele>
        <time>2013-10-16T12:58:17Z</time>
      </trkpt>
      <trkpt lat="44.2844" lon="6.15844">
        <ele>1204.6691895</ele>
        <time>2013-10-16T12:58:23Z</time>
      </trkpt>
      <trkpt lat="44.28445" lon="6.1586">
        <ele>1202.2658691</ele>
        <time>2013-10-16T12:58:37Z</time>
      </trkpt>
      <trkpt lat="44.28444" lon="6.15862">
        <ele>1202.2658691</ele>
        <time>2013-10-16T12:58:39Z</time>
      </trkpt>
      <trkpt lat="44.28452" lon="6.1588">
        <ele>1199.3820801</ele>
        <time>2013-10-16T12:58:56Z</time>
      </trkpt>
      <trkpt lat="44.28454" lon="6.15889">
        <ele>1197.4594727</ele>
        <time>2013-10-16T12:59:14Z</time>
      </trkpt>
      <trkpt lat="44.28461" lon="6.15884">
        <ele>1196.9787598</ele>
        <time>2013-10-16T12:59:35Z</time>
      </trkpt>
      <trkpt lat="44.28462" lon="6.15883">
        <ele>1196.9787598</ele>
        <time>2013-10-16T12:59:36Z</time>
      </trkpt>
      <trkpt lat="44.2847" lon="6.15863">
        <ele>1194.0947266</ele>
        <time>2013-10-16T12:59:55Z</time>
      </trkpt>
      <trkpt lat="44.2847" lon="6.15851">
        <ele>1192.652832</ele>
        <time>2013-10-16T13:00:03Z</time>
      </trkpt>
      <trkpt lat="44.28473" lon="6.15833">
        <ele>1191.6914063</ele>
        <time>2013-10-16T13:00:14Z</time>
      </trkpt>
      <trkpt lat="44.28479" lon="6.15825">
        <ele>1190.7299805</ele>
        <time>2013-10-16T13:00:22Z</time>
      </trkpt>
      <trkpt lat="44.2849" lon="6.15815">
        <ele>1189.2880859</ele>
        <time>2013-10-16T13:00:34Z</time>
      </trkpt>
      <trkpt lat="44.28497" lon="6.15808">
        <ele>1189.7687988</ele>
        <time>2013-10-16T13:00:41Z</time>
      </trkpt>
      <trkpt lat="44.285" lon="6.15804">
        <ele>1189.2880859</ele>
        <time>2013-10-16T13:00:45Z</time>
      </trkpt>
      <trkpt lat="44.28505" lon="6.15791">
        <ele>1187.3654785</ele>
        <time>2013-10-16T13:00:58Z</time>
      </trkpt>
      <trkpt lat="44.28519" lon="6.1578">
        <ele>1186.4042969</ele>
        <time>2013-10-16T13:01:13Z</time>
      </trkpt>
      <trkpt lat="44.28523" lon="6.15765">
        <ele>1184.9624023</ele>
        <time>2013-10-16T13:01:26Z</time>
      </trkpt>
      <trkpt lat="44.28524" lon="6.15733">
        <ele>1182.0783691</ele>
        <time>2013-10-16T13:01:47Z</time>
      </trkpt>
      <trkpt lat="44.28524" lon="6.1573">
        <ele>1182.0783691</ele>
        <time>2013-10-16T13:01:49Z</time>
      </trkpt>
      <trkpt lat="44.28526" lon="6.15721">
        <ele>1181.5976563</ele>
        <time>2013-10-16T13:01:56Z</time>
      </trkpt>
      <trkpt lat="44.28528" lon="6.15717">
        <ele>1181.5976563</ele>
        <time>2013-10-16T13:01:59Z</time>
      </trkpt>
      <trkpt lat="44.2853" lon="6.15714">
        <ele>1181.5976563</ele>
        <time>2013-10-16T13:02:02Z</time>
      </trkpt>
      <trkpt lat="44.28538" lon="6.15698">
        <ele>1180.6364746</ele>
        <time>2013-10-16T13:02:22Z</time>
      </trkpt>
      <trkpt lat="44.2855" lon="6.1569">
        <ele>1178.713623</ele>
        <time>2013-10-16T13:03:00Z</time>
      </trkpt>
      <trkpt lat="44.28563" lon="6.15675">
        <ele>1175.8295898</ele>
        <time>2013-10-16T13:03:17Z</time>
      </trkpt>
      <trkpt lat="44.28576" lon="6.15663">
        <ele>1172.4650879</ele>
        <time>2013-10-16T13:03:29Z</time>
      </trkpt>
      <trkpt lat="44.28588" lon="6.15649">
        <ele>1169.5812988</ele>
        <time>2013-10-16T13:03:43Z</time>
      </trkpt>
      <trkpt lat="44.28599" lon="6.15632">
        <ele>1166.2165527</ele>
        <time>2013-10-16T13:04:01Z</time>
      </trkpt>
      <trkpt lat="44.28603" lon="6.15625">
        <ele>1165.736084</ele>
        <time>2013-10-16T13:04:07Z</time>
      </trkpt>
      <trkpt lat="44.28613" lon="6.15612">
        <ele>1163.3325195</ele>
        <time>2013-10-16T13:04:22Z</time>
      </trkpt>
      <trkpt lat="44.28613" lon="6.15611">
        <ele>1163.3325195</ele>
        <time>2013-10-16T13:04:23Z</time>
      </trkpt>
      <trkpt lat="44.28615" lon="6.15607">
        <ele>1162.8518066</ele>
        <time>2013-10-16T13:04:26Z</time>
      </trkpt>
      <trkpt lat="44.28621" lon="6.15588">
        <ele>1161.4099121</ele>
        <time>2013-10-16T13:04:39Z</time>
      </trkpt>
      <trkpt lat="44.28622" lon="6.15573">
        <ele>1160.9291992</ele>
        <time>2013-10-16T13:04:50Z</time>
      </trkpt>
      <trkpt lat="44.28619" lon="6.15545">
        <ele>1159.9677734</ele>
        <time>2013-10-16T13:05:10Z</time>
      </trkpt>
      <trkpt lat="44.28623" lon="6.15531">
        <ele>1160.4484863</ele>
        <time>2013-10-16T13:05:18Z</time>
      </trkpt>
      <trkpt lat="44.28623" lon="6.15524">
        <ele>1160.4484863</ele>
        <time>2013-10-16T13:05:23Z</time>
      </trkpt>
      <trkpt lat="44.28622" lon="6.15503">
        <ele>1159.9677734</ele>
        <time>2013-10-16T13:05:37Z</time>
      </trkpt>
      <trkpt lat="44.28622" lon="6.15502">
        <ele>1159.9677734</ele>
        <time>2013-10-16T13:05:38Z</time>
      </trkpt>
      <trkpt lat="44.28628" lon="6.15489">
        <ele>1159.4873047</ele>
        <time>2013-10-16T13:05:46Z</time>
      </trkpt>
      <trkpt lat="44.2863" lon="6.15473">
        <ele>1159.0065918</ele>
        <time>2013-10-16T13:05:58Z</time>
      </trkpt>
      <trkpt lat="44.28641" lon="6.15447">
        <ele>1157.5646973</ele>
        <time>2013-10-16T13:06:17Z</time>
      </trkpt>
      <trkpt lat="44.28646" lon="6.15425">
        <ele>1159.0065918</ele>
        <time>2013-10-16T13:06:33Z</time>
      </trkpt>
      <trkpt lat="44.28645" lon="6.15401">
        <ele>1159.0065918</ele>
        <time>2013-10-16T13:06:47Z</time>
      </trkpt>
      <trkpt lat="44.28658" lon="6.15383">
        <ele>1157.5646973</ele>
        <time>2013-10-16T13:07:07Z</time>
      </trkpt>
      <trkpt lat="44.28665" lon="6.15366">
        <ele>1156.1225586</ele>
        <time>2013-10-16T13:07:21Z</time>
      </trkpt>
      <trkpt lat="44.28668" lon="6.1536">
        <ele>1155.6420898</ele>
        <time>2013-10-16T13:07:27Z</time>
      </trkpt>
      <trkpt lat="44.28671" lon="6.15354">
        <ele>1155.6420898</ele>
        <time>2013-10-16T13:07:31Z</time>
      </trkpt>
      <trkpt lat="44.28668" lon="6.15335">
        <ele>1153.2387695</ele>
        <time>2013-10-16T13:07:46Z</time>
      </trkpt>
      <trkpt lat="44.28669" lon="6.15313">
        <ele>1152.2773438</ele>
        <time>2013-10-16T13:08:03Z</time>
      </trkpt>
      <trkpt lat="44.28671" lon="6.15278">
        <ele>1149.8742676</ele>
        <time>2013-10-16T13:08:29Z</time>
      </trkpt>
      <trkpt lat="44.28679" lon="6.15268">
        <ele>1149.8742676</ele>
        <time>2013-10-16T13:08:34Z</time>
      </trkpt>
      <trkpt lat="44.28681" lon="6.15265">
        <ele>1149.3935547</ele>
        <time>2013-10-16T13:08:36Z</time>
      </trkpt>
      <trkpt lat="44.28682" lon="6.15263">
        <ele>1149.3935547</ele>
        <time>2013-10-16T13:08:38Z</time>
      </trkpt>
      <trkpt lat="44.28691" lon="6.15249">
        <ele>1148.4321289</ele>
        <time>2013-10-16T13:08:52Z</time>
      </trkpt>
      <trkpt lat="44.28702" lon="6.15232">
        <ele>1146.9899902</ele>
        <time>2013-10-16T13:09:08Z</time>
      </trkpt>
      <trkpt lat="44.28704" lon="6.15229">
        <ele>1146.5095215</ele>
        <time>2013-10-16T13:09:10Z</time>
      </trkpt>
      <trkpt lat="44.28705" lon="6.15202">
        <ele>1146.9899902</ele>
        <time>2013-10-16T13:09:27Z</time>
      </trkpt>
      <trkpt lat="44.28714" lon="6.15187">
        <ele>1145.5480957</ele>
        <time>2013-10-16T13:09:40Z</time>
      </trkpt>
      <trkpt lat="44.28724" lon="6.15179">
        <ele>1144.1062012</ele>
        <time>2013-10-16T13:09:49Z</time>
      </trkpt>
      <trkpt lat="44.28731" lon="6.15162">
        <ele>1142.1835938</ele>
        <time>2013-10-16T13:10:04Z</time>
      </trkpt>
      <trkpt lat="44.28733" lon="6.15141">
        <ele>1140.7414551</ele>
        <time>2013-10-16T13:10:19Z</time>
      </trkpt>
      <trkpt lat="44.28719" lon="6.15138">
        <ele>1138.3383789</ele>
        <time>2013-10-16T13:10:37Z</time>
      </trkpt>
      <trkpt lat="44.2871" lon="6.15131">
        <ele>1137.3769531</ele>
        <time>2013-10-16T13:10:51Z</time>
      </trkpt>
      <trkpt lat="44.28715" lon="6.15114">
        <ele>1136.8962402</ele>
        <time>2013-10-16T13:11:04Z</time>
      </trkpt>
      <trkpt lat="44.28721" lon="6.15109">
        <ele>1137.3769531</ele>
        <time>2013-10-16T13:11:10Z</time>
      </trkpt>
      <trkpt lat="44.28729" lon="6.15098">
        <ele>1135.9350586</ele>
        <time>2013-10-16T13:11:21Z</time>
      </trkpt>
      <trkpt lat="44.28736" lon="6.15091">
        <ele>1134.0124512</ele>
        <time>2013-10-16T13:11:34Z</time>
      </trkpt>
      <trkpt lat="44.28743" lon="6.15088">
        <ele>1133.0510254</ele>
        <time>2013-10-16T13:11:43Z</time>
      </trkpt>
      <trkpt lat="44.28758" lon="6.1509">
        <ele>1132.5705566</ele>
        <time>2013-10-16T13:11:55Z</time>
      </trkpt>
      <trkpt lat="44.28764" lon="6.15088">
        <ele>1130.1669922</ele>
        <time>2013-10-16T13:12:03Z</time>
      </trkpt>
      <trkpt lat="44.28769" lon="6.15085">
        <ele>1130.1669922</ele>
        <time>2013-10-16T13:12:08Z</time>
      </trkpt>
      <trkpt lat="44.28774" lon="6.15084">
        <ele>1129.2055664</ele>
        <time>2013-10-16T13:12:13Z</time>
      </trkpt>
      <trkpt lat="44.28784" lon="6.15076">
        <ele>1126.8024902</ele>
        <time>2013-10-16T13:12:28Z</time>
      </trkpt>
      <trkpt lat="44.28794" lon="6.15065">
        <ele>1125.3603516</ele>
        <time>2013-10-16T13:12:42Z</time>
      </trkpt>
      <trkpt lat="44.28799" lon="6.15056">
        <ele>1124.3991699</ele>
        <time>2013-10-16T13:12:52Z</time>
      </trkpt>
      <trkpt lat="44.28797" lon="6.15039">
        <ele>1122.9572754</ele>
        <time>2013-10-16T13:13:06Z</time>
      </trkpt>
      <trkpt lat="44.28802" lon="6.15028">
        <ele>1120.0732422</ele>
        <time>2013-10-16T13:13:19Z</time>
      </trkpt>
      <trkpt lat="44.28803" lon="6.15013">
        <ele>1116.7087402</ele>
        <time>2013-10-16T13:13:31Z</time>
      </trkpt>
      <trkpt lat="44.28804" lon="6.15004">
        <ele>1116.2280273</ele>
        <time>2013-10-16T13:13:38Z</time>
      </trkpt>
      <trkpt lat="44.28804" lon="6.15002">
        <ele>1115.7473145</ele>
        <time>2013-10-16T13:13:41Z</time>
      </trkpt>
      <trkpt lat="44.28804" lon="6.1497">
        <ele>1113.8244629</ele>
        <time>2013-10-16T13:14:01Z</time>
      </trkpt>
      <trkpt lat="44.28806" lon="6.14956">
        <ele>1113.8244629</ele>
        <time>2013-10-16T13:14:15Z</time>
      </trkpt>
      <trkpt lat="44.2881" lon="6.14953">
        <ele>1113.3439941</ele>
        <time>2013-10-16T13:14:22Z</time>
      </trkpt>
      <trkpt lat="44.28819" lon="6.14946">
        <ele>1111.9020996</ele>
        <time>2013-10-16T13:14:41Z</time>
      </trkpt>
      <trkpt lat="44.28822" lon="6.14942">
        <ele>1111.4213867</ele>
        <time>2013-10-16T13:14:45Z</time>
      </trkpt>
      <trkpt lat="44.28833" lon="6.14928">
        <ele>1110.4599609</ele>
        <time>2013-10-16T13:15:00Z</time>
      </trkpt>
      <trkpt lat="44.28838" lon="6.14923">
        <ele>1109.979248</ele>
        <time>2013-10-16T13:15:06Z</time>
      </trkpt>
      <trkpt lat="44.28854" lon="6.14925">
        <ele>1108.5373535</ele>
        <time>2013-10-16T13:15:21Z</time>
      </trkpt>
      <trkpt lat="44.28866" lon="6.14942">
        <ele>1106.1340332</ele>
        <time>2013-10-16T13:15:40Z</time>
      </trkpt>
      <trkpt lat="44.28866" lon="6.14944">
        <ele>1106.1340332</ele>
        <time>2013-10-16T13:15:41Z</time>
      </trkpt>
      <trkpt lat="44.28876" lon="6.14963">
        <ele>1104.2116699</ele>
        <time>2013-10-16T13:16:02Z</time>
      </trkpt>
      <trkpt lat="44.2888" lon="6.14965">
        <ele>1103.730957</ele>
        <time>2013-10-16T13:16:06Z</time>
      </trkpt>
      <trkpt lat="44.28895" lon="6.14977">
        <ele>1101.8083496</ele>
        <time>2013-10-16T13:16:24Z</time>
      </trkpt>
      <trkpt lat="44.28885" lon="6.14994">
        <ele>1100.3664551</ele>
        <time>2013-10-16T13:16:37Z</time>
      </trkpt>
      <trkpt lat="44.28883" lon="6.14995">
        <ele>1100.8469238</ele>
        <time>2013-10-16T13:16:39Z</time>
      </trkpt>
      <trkpt lat="44.28882" lon="6.15006">
        <ele>1099.4047852</ele>
        <time>2013-10-16T13:16:46Z</time>
      </trkpt>
      <trkpt lat="44.28873" lon="6.15026">
        <ele>1097.4821777</ele>
        <time>2013-10-16T13:17:03Z</time>
      </trkpt>
      <trkpt lat="44.28866" lon="6.15036">
        <ele>1097.0014648</ele>
        <time>2013-10-16T13:17:14Z</time>
      </trkpt>
      <trkpt lat="44.28863" lon="6.15044">
        <ele>1097.0014648</ele>
        <time>2013-10-16T13:17:21Z</time>
      </trkpt>
      <trkpt lat="44.28864" lon="6.15057">
        <ele>1096.5209961</ele>
        <time>2013-10-16T13:17:35Z</time>
      </trkpt>
      <trkpt lat="44.28866" lon="6.15055">
        <ele>1096.0402832</ele>
        <time>2013-10-16T13:17:39Z</time>
      </trkpt>
      <trkpt lat="44.28882" lon="6.1504">
        <ele>1094.5981445</ele>
        <time>2013-10-16T13:17:56Z</time>
      </trkpt>
      <trkpt lat="44.28884" lon="6.15037">
        <ele>1094.1176758</ele>
        <time>2013-10-16T13:18:00Z</time>
      </trkpt>
      <trkpt lat="44.28892" lon="6.15036">
        <ele>1093.15625</ele>
        <time>2013-10-16T13:18:08Z</time>
      </trkpt>
      <trkpt lat="44.28903" lon="6.15041">
        <ele>1090.7529297</ele>
        <time>2013-10-16T13:18:21Z</time>
      </trkpt>
      <trkpt lat="44.28908" lon="6.15041">
        <ele>1089.791748</ele>
        <time>2013-10-16T13:18:31Z</time>
      </trkpt>
      <trkpt lat="44.28915" lon="6.1504">
        <ele>1088.8305664</ele>
        <time>2013-10-16T13:18:37Z</time>
      </trkpt>
      <trkpt lat="44.28927" lon="6.15034">
        <ele>1086.9077148</ele>
        <time>2013-10-16T13:18:51Z</time>
      </trkpt>
      <trkpt lat="44.28928" lon="6.15019">
        <ele>1085.4658203</ele>
        <time>2013-10-16T13:19:03Z</time>
      </trkpt>
      <trkpt lat="44.28934" lon="6.15">
        <ele>1083.5429688</ele>
        <time>2013-10-16T13:19:19Z</time>
      </trkpt>
      <trkpt lat="44.28942" lon="6.15009">
        <ele>1083.0622559</ele>
        <time>2013-10-16T13:19:32Z</time>
      </trkpt>
      <trkpt lat="44.28942" lon="6.15009">
        <ele>1083.0622559</ele>
        <time>2013-10-16T13:19:33Z</time>
      </trkpt>
      <trkpt lat="44.28942" lon="6.15015">
        <ele>1082.5817871</ele>
        <time>2013-10-16T13:19:36Z</time>
      </trkpt>
      <trkpt lat="44.28944" lon="6.15032">
        <ele>1081.1398926</ele>
        <time>2013-10-16T13:19:48Z</time>
      </trkpt>
      <trkpt lat="44.28944" lon="6.15036">
        <ele>1080.6591797</ele>
        <time>2013-10-16T13:19:50Z</time>
      </trkpt>
      <trkpt lat="44.28942" lon="6.15053">
        <ele>1078.7365723</ele>
        <time>2013-10-16T13:20:02Z</time>
      </trkpt>
      <trkpt lat="44.28941" lon="6.15056">
        <ele>1078.7365723</ele>
        <time>2013-10-16T13:20:05Z</time>
      </trkpt>
      <trkpt lat="44.2894" lon="6.15062">
        <ele>1077.7751465</ele>
        <time>2013-10-16T13:20:22Z</time>
      </trkpt>
      <trkpt lat="44.28942" lon="6.15078">
        <ele>1077.2946777</ele>
        <time>2013-10-16T13:23:11Z</time>
      </trkpt>
      <trkpt lat="44.28947" lon="6.15089">
        <ele>1078.2558594</ele>
        <time>2013-10-16T13:23:21Z</time>
      </trkpt>
      <trkpt lat="44.28955" lon="6.15091">
        <ele>1080.1784668</ele>
        <time>2013-10-16T13:23:35Z</time>
      </trkpt>
      <trkpt lat="44.28976" lon="6.1509">
        <ele>1081.6203613</ele>
        <time>2013-10-16T13:23:55Z</time>
      </trkpt>
      <trkpt lat="44.28987" lon="6.15105">
        <ele>1084.0239258</ele>
        <time>2013-10-16T13:24:12Z</time>
      </trkpt>
      <trkpt lat="44.2899" lon="6.15116">
        <ele>1084.5046387</ele>
        <time>2013-10-16T13:24:32Z</time>
      </trkpt>
      <trkpt lat="44.28993" lon="6.15119">
        <ele>1084.5046387</ele>
        <time>2013-10-16T13:24:43Z</time>
      </trkpt>
      <trkpt lat="44.29007" lon="6.15124">
        <ele>1084.0239258</ele>
        <time>2013-10-16T13:25:00Z</time>
      </trkpt>
      <trkpt lat="44.29017" lon="6.15118">
        <ele>1085.4658203</ele>
        <time>2013-10-16T13:25:07Z</time>
      </trkpt>
      <trkpt lat="44.29029" lon="6.15107">
        <ele>1085.9465332</ele>
        <time>2013-10-16T13:25:21Z</time>
      </trkpt>
      <trkpt lat="44.29042" lon="6.15091">
        <ele>1086.9077148</ele>
        <time>2013-10-16T13:25:38Z</time>
      </trkpt>
      <trkpt lat="44.29061" lon="6.15076">
        <ele>1087.8691406</ele>
        <time>2013-10-16T13:26:02Z</time>
      </trkpt>
      <trkpt lat="44.2908" lon="6.15078">
        <ele>1090.7529297</ele>
        <time>2013-10-16T13:26:27Z</time>
      </trkpt>
      <trkpt lat="44.29075" lon="6.15095">
        <ele>1092.1950684</ele>
        <time>2013-10-16T13:26:43Z</time>
      </trkpt>
      <trkpt lat="44.29075" lon="6.15095">
        <ele>1092.1950684</ele>
        <time>2013-10-16T13:26:44Z</time>
      </trkpt>
      <trkpt lat="44.29067" lon="6.15112">
        <ele>1094.1176758</ele>
        <time>2013-10-16T13:26:59Z</time>
      </trkpt>
      <trkpt lat="44.29059" lon="6.15128">
        <ele>1096.0402832</ele>
        <time>2013-10-16T13:27:14Z</time>
      </trkpt>
      <trkpt lat="44.29048" lon="6.15148">
        <ele>1097.9628906</ele>
        <time>2013-10-16T13:27:34Z</time>
      </trkpt>
      <trkpt lat="44.29038" lon="6.15173">
        <ele>1099.4047852</ele>
        <time>2013-10-16T13:27:53Z</time>
      </trkpt>
      <trkpt lat="44.29034" lon="6.15195">
        <ele>1100.8469238</ele>
        <time>2013-10-16T13:28:12Z</time>
      </trkpt>
      <trkpt lat="44.29036" lon="6.15223">
        <ele>1101.8083496</ele>
        <time>2013-10-16T13:28:34Z</time>
      </trkpt>
      <trkpt lat="44.29038" lon="6.15242">
        <ele>1103.2502441</ele>
        <time>2013-10-16T13:28:50Z</time>
      </trkpt>
      <trkpt lat="44.29033" lon="6.15259">
        <ele>1104.2116699</ele>
        <time>2013-10-16T13:29:03Z</time>
      </trkpt>
      <trkpt lat="44.29032" lon="6.15261">
        <ele>1104.2116699</ele>
        <time>2013-10-16T13:29:05Z</time>
      </trkpt>
      <trkpt lat="44.29028" lon="6.15268">
        <ele>1104.6921387</ele>
        <time>2013-10-16T13:29:11Z</time>
      </trkpt>
      <trkpt lat="44.29014" lon="6.15279">
        <ele>1107.095459</ele>
        <time>2013-10-16T13:29:30Z</time>
      </trkpt>
      <trkpt lat="44.29013" lon="6.15279">
        <ele>1107.5761719</ele>
        <time>2013-10-16T13:29:31Z</time>
      </trkpt>
      <trkpt lat="44.29012" lon="6.15278">
        <ele>1107.5761719</ele>
        <time>2013-10-16T13:29:33Z</time>
      </trkpt>
      <trkpt lat="44.28998" lon="6.15278">
        <ele>1109.979248</ele>
        <time>2013-10-16T13:29:48Z</time>
      </trkpt>
      <trkpt lat="44.28983" lon="6.15283">
        <ele>1111.9020996</ele>
        <time>2013-10-16T13:30:08Z</time>
      </trkpt>
      <trkpt lat="44.28975" lon="6.15294">
        <ele>1113.8244629</ele>
        <time>2013-10-16T13:30:24Z</time>
      </trkpt>
      <trkpt lat="44.28968" lon="6.15299">
        <ele>1114.3051758</ele>
        <time>2013-10-16T13:30:38Z</time>
      </trkpt>
      <trkpt lat="44.28967" lon="6.15296">
        <ele>1114.7858887</ele>
        <time>2013-10-16T13:30:56Z</time>
      </trkpt>
      <trkpt lat="44.28967" lon="6.15296">
        <ele>1114.3051758</ele>
        <time>2013-10-16T13:31:10Z</time>
      </trkpt>
    </trkseg>
  </trk>
</gpx>